<?xml version="1.0" encoding="UTF-8" standalone="no" ?>
<gpx xmlns="http://www.topografix.com/GPX/1/1" xmlns:xsi="http://www.w3.org/2001/XMLSchema-instance" xsi:schemaLocation="http://www.topografix.com/GPX/1/1 http://www.topografix.com/GPX/1/1/gpx.xsd" version="1.1" creator="VisuGPX - https://www.visugpx.com">
  <metadata>
    <name>RSPG Randonnée les crêtes le col des Roux</name>
    <desc><![CDATA[Prendre la piste  nord entre les hameaux des Baux et les Roux qui s\'élève vers la crête la suivre jusqu\'au col des Roux puis descendre dans la forêt sous les portiques jusqu\'au GR et retourner vers le point de départ en repassant par la crête.]]></desc>
  </metadata>
  <trk>
    <name><![CDATA[La Roche crête et col des Roux]]></name>
    <trkseg>
      <trkpt lat="44.58005" lon="5.977">
        <ele>1137.86</ele>
        <time>2015-10-22T07:36:34Z</time>
      </trkpt>
      <trkpt lat="44.58005" lon="5.97702">
        <ele>1141.22</ele>
        <time>2015-10-22T07:36:38Z</time>
      </trkpt>
      <trkpt lat="44.58004" lon="5.97703">
        <ele>1144.59</ele>
        <time>2015-10-22T07:36:42Z</time>
      </trkpt>
      <trkpt lat="44.58005" lon="5.97702">
        <ele>1146.99</ele>
        <time>2015-10-22T07:36:45Z</time>
      </trkpt>
      <trkpt lat="44.58004" lon="5.97702">
        <ele>1148.43</ele>
        <time>2015-10-22T07:36:47Z</time>
      </trkpt>
      <trkpt lat="44.58005" lon="5.97702">
        <ele>1151.8</ele>
        <time>2015-10-22T07:36:52Z</time>
      </trkpt>
      <trkpt lat="44.58005" lon="5.97703">
        <ele>1153.24</ele>
        <time>2015-10-22T07:36:54Z</time>
      </trkpt>
      <trkpt lat="44.58007" lon="5.97703">
        <ele>1156.12</ele>
        <time>2015-10-22T07:37:00Z</time>
      </trkpt>
      <trkpt lat="44.58007" lon="5.97703">
        <ele>1157.08</ele>
        <time>2015-10-22T07:37:02Z</time>
      </trkpt>
      <trkpt lat="44.58007" lon="5.97702">
        <ele>1160.45</ele>
        <time>2015-10-22T07:37:11Z</time>
      </trkpt>
      <trkpt lat="44.58007" lon="5.97701">
        <ele>1161.41</ele>
        <time>2015-10-22T07:37:16Z</time>
      </trkpt>
      <trkpt lat="44.58007" lon="5.977">
        <ele>1164.29</ele>
        <time>2015-10-22T07:37:28Z</time>
      </trkpt>
      <trkpt lat="44.58004" lon="5.977">
        <ele>1168.14</ele>
        <time>2015-10-22T07:37:42Z</time>
      </trkpt>
      <trkpt lat="44.58003" lon="5.97699">
        <ele>1167.18</ele>
        <time>2015-10-22T07:37:52Z</time>
      </trkpt>
      <trkpt lat="44.58004" lon="5.977">
        <ele>1168.62</ele>
        <time>2015-10-22T07:38:06Z</time>
      </trkpt>
      <trkpt lat="44.58005" lon="5.97699">
        <ele>1170.06</ele>
        <time>2015-10-22T07:38:17Z</time>
      </trkpt>
      <trkpt lat="44.58006" lon="5.97701">
        <ele>1171.02</ele>
        <time>2015-10-22T07:38:28Z</time>
      </trkpt>
      <trkpt lat="44.58004" lon="5.97702">
        <ele>1170.54</ele>
        <time>2015-10-22T07:38:40Z</time>
      </trkpt>
      <trkpt lat="44.58004" lon="5.97702">
        <ele>1170.06</ele>
        <time>2015-10-22T07:38:46Z</time>
      </trkpt>
      <trkpt lat="44.58003" lon="5.97702">
        <ele>1171.02</ele>
        <time>2015-10-22T07:38:56Z</time>
      </trkpt>
      <trkpt lat="44.58003" lon="5.97698">
        <ele>1171.5</ele>
        <time>2015-10-22T07:39:09Z</time>
      </trkpt>
      <trkpt lat="44.58002" lon="5.97702">
        <ele>1171.02</ele>
        <time>2015-10-22T07:39:21Z</time>
      </trkpt>
      <trkpt lat="44.58002" lon="5.97701">
        <ele>1171.02</ele>
        <time>2015-10-22T07:39:37Z</time>
      </trkpt>
      <trkpt lat="44.58002" lon="5.97702">
        <ele>1171.5</ele>
        <time>2015-10-22T07:40:00Z</time>
      </trkpt>
      <trkpt lat="44.58003" lon="5.97702">
        <ele>1171.5</ele>
        <time>2015-10-22T07:40:15Z</time>
      </trkpt>
      <trkpt lat="44.58002" lon="5.97701">
        <ele>1171.5</ele>
        <time>2015-10-22T07:40:35Z</time>
      </trkpt>
      <trkpt lat="44.58003" lon="5.97703">
        <ele>1171.5</ele>
        <time>2015-10-22T07:40:46Z</time>
      </trkpt>
      <trkpt lat="44.58004" lon="5.97704">
        <ele>1171.5</ele>
        <time>2015-10-22T07:41:02Z</time>
      </trkpt>
      <trkpt lat="44.58006" lon="5.97703">
        <ele>1171.5</ele>
        <time>2015-10-22T07:41:14Z</time>
      </trkpt>
      <trkpt lat="44.58009" lon="5.97712">
        <ele>1171.5</ele>
        <time>2015-10-22T07:41:24Z</time>
      </trkpt>
      <trkpt lat="44.58012" lon="5.97723">
        <ele>1171.98</ele>
        <time>2015-10-22T07:41:33Z</time>
      </trkpt>
      <trkpt lat="44.58016" lon="5.97727">
        <ele>1172.47</ele>
        <time>2015-10-22T07:41:39Z</time>
      </trkpt>
      <trkpt lat="44.5802" lon="5.97729">
        <ele>1172.47</ele>
        <time>2015-10-22T07:41:43Z</time>
      </trkpt>
      <trkpt lat="44.58028" lon="5.97737">
        <ele>1173.43</ele>
        <time>2015-10-22T07:41:53Z</time>
      </trkpt>
      <trkpt lat="44.58039" lon="5.97741">
        <ele>1174.39</ele>
        <time>2015-10-22T07:42:07Z</time>
      </trkpt>
      <trkpt lat="44.58042" lon="5.97743">
        <ele>1174.87</ele>
        <time>2015-10-22T07:42:11Z</time>
      </trkpt>
      <trkpt lat="44.58052" lon="5.97739">
        <ele>1176.31</ele>
        <time>2015-10-22T07:42:23Z</time>
      </trkpt>
      <trkpt lat="44.58061" lon="5.97731">
        <ele>1177.27</ele>
        <time>2015-10-22T07:42:36Z</time>
      </trkpt>
      <trkpt lat="44.58064" lon="5.9773">
        <ele>1177.75</ele>
        <time>2015-10-22T07:42:40Z</time>
      </trkpt>
      <trkpt lat="44.58068" lon="5.97728">
        <ele>1178.23</ele>
        <time>2015-10-22T07:42:45Z</time>
      </trkpt>
      <trkpt lat="44.58073" lon="5.97722">
        <ele>1178.71</ele>
        <time>2015-10-22T07:42:52Z</time>
      </trkpt>
      <trkpt lat="44.58078" lon="5.97718">
        <ele>1179.67</ele>
        <time>2015-10-22T07:42:59Z</time>
      </trkpt>
      <trkpt lat="44.58081" lon="5.97716">
        <ele>1179.67</ele>
        <time>2015-10-22T07:43:02Z</time>
      </trkpt>
      <trkpt lat="44.58092" lon="5.97712">
        <ele>1181.6</ele>
        <time>2015-10-22T07:43:15Z</time>
      </trkpt>
      <trkpt lat="44.58103" lon="5.97711">
        <ele>1183.52</ele>
        <time>2015-10-22T07:43:29Z</time>
      </trkpt>
      <trkpt lat="44.58114" lon="5.97712">
        <ele>1184.96</ele>
        <time>2015-10-22T07:43:43Z</time>
      </trkpt>
      <trkpt lat="44.5812" lon="5.9771">
        <ele>1185.92</ele>
        <time>2015-10-22T07:43:51Z</time>
      </trkpt>
      <trkpt lat="44.58127" lon="5.97709">
        <ele>1186.88</ele>
        <time>2015-10-22T07:43:59Z</time>
      </trkpt>
      <trkpt lat="44.5813" lon="5.97707">
        <ele>1187.37</ele>
        <time>2015-10-22T07:44:03Z</time>
      </trkpt>
      <trkpt lat="44.58142" lon="5.97703">
        <ele>1189.29</ele>
        <time>2015-10-22T07:44:18Z</time>
      </trkpt>
      <trkpt lat="44.58152" lon="5.97699">
        <ele>1191.21</ele>
        <time>2015-10-22T07:44:33Z</time>
      </trkpt>
      <trkpt lat="44.58161" lon="5.97698">
        <ele>1192.65</ele>
        <time>2015-10-22T07:44:45Z</time>
      </trkpt>
      <trkpt lat="44.58171" lon="5.97697">
        <ele>1194.09</ele>
        <time>2015-10-22T07:44:58Z</time>
      </trkpt>
      <trkpt lat="44.58182" lon="5.97696">
        <ele>1195.54</ele>
        <time>2015-10-22T07:45:11Z</time>
      </trkpt>
      <trkpt lat="44.58191" lon="5.97694">
        <ele>1197.46</ele>
        <time>2015-10-22T07:45:23Z</time>
      </trkpt>
      <trkpt lat="44.58201" lon="5.97693">
        <ele>1199.38</ele>
        <time>2015-10-22T07:45:37Z</time>
      </trkpt>
      <trkpt lat="44.58212" lon="5.97692">
        <ele>1201.3</ele>
        <time>2015-10-22T07:45:52Z</time>
      </trkpt>
      <trkpt lat="44.58221" lon="5.97691">
        <ele>1203.23</ele>
        <time>2015-10-22T07:46:04Z</time>
      </trkpt>
      <trkpt lat="44.58232" lon="5.97692">
        <ele>1205.15</ele>
        <time>2015-10-22T07:46:19Z</time>
      </trkpt>
      <trkpt lat="44.58242" lon="5.97691">
        <ele>1207.55</ele>
        <time>2015-10-22T07:46:35Z</time>
      </trkpt>
      <trkpt lat="44.58252" lon="5.97689">
        <ele>1209</ele>
        <time>2015-10-22T07:46:50Z</time>
      </trkpt>
      <trkpt lat="44.58265" lon="5.97688">
        <ele>1211.4</ele>
        <time>2015-10-22T07:47:06Z</time>
      </trkpt>
      <trkpt lat="44.58271" lon="5.97685">
        <ele>1213.32</ele>
        <time>2015-10-22T07:47:18Z</time>
      </trkpt>
      <trkpt lat="44.58272" lon="5.97685">
        <ele>1213.32</ele>
        <time>2015-10-22T07:47:19Z</time>
      </trkpt>
      <trkpt lat="44.5828" lon="5.97684">
        <ele>1214.76</ele>
        <time>2015-10-22T07:47:30Z</time>
      </trkpt>
      <trkpt lat="44.58286" lon="5.97684">
        <ele>1216.69</ele>
        <time>2015-10-22T07:47:43Z</time>
      </trkpt>
      <trkpt lat="44.58297" lon="5.97682">
        <ele>1218.61</ele>
        <time>2015-10-22T07:47:57Z</time>
      </trkpt>
      <trkpt lat="44.58308" lon="5.97682">
        <ele>1220.53</ele>
        <time>2015-10-22T07:48:12Z</time>
      </trkpt>
      <trkpt lat="44.58317" lon="5.97683">
        <ele>1222.93</ele>
        <time>2015-10-22T07:48:25Z</time>
      </trkpt>
      <trkpt lat="44.58324" lon="5.97684">
        <ele>1224.38</ele>
        <time>2015-10-22T07:48:37Z</time>
      </trkpt>
      <trkpt lat="44.58334" lon="5.97686">
        <ele>1226.78</ele>
        <time>2015-10-22T07:48:52Z</time>
      </trkpt>
      <trkpt lat="44.58344" lon="5.97686">
        <ele>1228.7</ele>
        <time>2015-10-22T07:49:07Z</time>
      </trkpt>
      <trkpt lat="44.58353" lon="5.97685">
        <ele>1231.11</ele>
        <time>2015-10-22T07:49:22Z</time>
      </trkpt>
      <trkpt lat="44.58363" lon="5.97686">
        <ele>1233.51</ele>
        <time>2015-10-22T07:49:36Z</time>
      </trkpt>
      <trkpt lat="44.58371" lon="5.97685">
        <ele>1236.39</ele>
        <time>2015-10-22T07:49:48Z</time>
      </trkpt>
      <trkpt lat="44.5838" lon="5.97685">
        <ele>1236.87</ele>
        <time>2015-10-22T07:50:01Z</time>
      </trkpt>
      <trkpt lat="44.58386" lon="5.97688">
        <ele>1238.8</ele>
        <time>2015-10-22T07:50:14Z</time>
      </trkpt>
      <trkpt lat="44.58393" lon="5.97695">
        <ele>1240.24</ele>
        <time>2015-10-22T07:50:28Z</time>
      </trkpt>
      <trkpt lat="44.584" lon="5.97704">
        <ele>1242.16</ele>
        <time>2015-10-22T07:50:43Z</time>
      </trkpt>
      <trkpt lat="44.58408" lon="5.97711">
        <ele>1244.56</ele>
        <time>2015-10-22T07:50:57Z</time>
      </trkpt>
      <trkpt lat="44.58417" lon="5.97717">
        <ele>1246.49</ele>
        <time>2015-10-22T07:51:12Z</time>
      </trkpt>
      <trkpt lat="44.58425" lon="5.97723">
        <ele>1248.41</ele>
        <time>2015-10-22T07:51:26Z</time>
      </trkpt>
      <trkpt lat="44.58438" lon="5.97727">
        <ele>1250.81</ele>
        <time>2015-10-22T07:51:43Z</time>
      </trkpt>
      <trkpt lat="44.58446" lon="5.97733">
        <ele>1252.74</ele>
        <time>2015-10-22T07:51:56Z</time>
      </trkpt>
      <trkpt lat="44.58456" lon="5.97738">
        <ele>1254.66</ele>
        <time>2015-10-22T07:52:10Z</time>
      </trkpt>
      <trkpt lat="44.58459" lon="5.97741">
        <ele>1255.14</ele>
        <time>2015-10-22T07:52:15Z</time>
      </trkpt>
      <trkpt lat="44.58468" lon="5.97749">
        <ele>1257.06</ele>
        <time>2015-10-22T07:52:29Z</time>
      </trkpt>
      <trkpt lat="44.58477" lon="5.97755">
        <ele>1258.98</ele>
        <time>2015-10-22T07:52:42Z</time>
      </trkpt>
      <trkpt lat="44.58486" lon="5.97766">
        <ele>1260.91</ele>
        <time>2015-10-22T07:52:57Z</time>
      </trkpt>
      <trkpt lat="44.58492" lon="5.97777">
        <ele>1262.83</ele>
        <time>2015-10-22T07:53:11Z</time>
      </trkpt>
      <trkpt lat="44.58497" lon="5.97788">
        <ele>1264.27</ele>
        <time>2015-10-22T07:53:23Z</time>
      </trkpt>
      <trkpt lat="44.585" lon="5.97791">
        <ele>1264.75</ele>
        <time>2015-10-22T07:53:27Z</time>
      </trkpt>
      <trkpt lat="44.58509" lon="5.97803">
        <ele>1267.16</ele>
        <time>2015-10-22T07:53:43Z</time>
      </trkpt>
      <trkpt lat="44.58517" lon="5.97807">
        <ele>1269.08</ele>
        <time>2015-10-22T07:53:56Z</time>
      </trkpt>
      <trkpt lat="44.58526" lon="5.97801">
        <ele>1271</ele>
        <time>2015-10-22T07:54:09Z</time>
      </trkpt>
      <trkpt lat="44.58535" lon="5.97795">
        <ele>1273.4</ele>
        <time>2015-10-22T07:54:23Z</time>
      </trkpt>
      <trkpt lat="44.58543" lon="5.97793">
        <ele>1274.85</ele>
        <time>2015-10-22T07:54:34Z</time>
      </trkpt>
      <trkpt lat="44.58546" lon="5.97792">
        <ele>1275.33</ele>
        <time>2015-10-22T07:54:44Z</time>
      </trkpt>
      <trkpt lat="44.58548" lon="5.97793">
        <ele>1274.85</ele>
        <time>2015-10-22T07:54:53Z</time>
      </trkpt>
      <trkpt lat="44.58549" lon="5.97792">
        <ele>1274.36</ele>
        <time>2015-10-22T07:55:22Z</time>
      </trkpt>
      <trkpt lat="44.58548" lon="5.97792">
        <ele>1274.36</ele>
        <time>2015-10-22T07:56:01Z</time>
      </trkpt>
      <trkpt lat="44.58549" lon="5.97793">
        <ele>1274.36</ele>
        <time>2015-10-22T07:56:40Z</time>
      </trkpt>
      <trkpt lat="44.58548" lon="5.97793">
        <ele>1274.85</ele>
        <time>2015-10-22T07:57:21Z</time>
      </trkpt>
      <trkpt lat="44.58548" lon="5.97792">
        <ele>1276.29</ele>
        <time>2015-10-22T07:57:48Z</time>
      </trkpt>
      <trkpt lat="44.5855" lon="5.97794">
        <ele>1276.77</ele>
        <time>2015-10-22T07:58:01Z</time>
      </trkpt>
      <trkpt lat="44.58549" lon="5.97795">
        <ele>1276.77</ele>
        <time>2015-10-22T07:58:16Z</time>
      </trkpt>
      <trkpt lat="44.58548" lon="5.97796">
        <ele>1276.29</ele>
        <time>2015-10-22T07:58:48Z</time>
      </trkpt>
      <trkpt lat="44.58549" lon="5.97794">
        <ele>1276.29</ele>
        <time>2015-10-22T07:59:18Z</time>
      </trkpt>
      <trkpt lat="44.5855" lon="5.97794">
        <ele>1275.81</ele>
        <time>2015-10-22T07:59:47Z</time>
      </trkpt>
      <trkpt lat="44.58549" lon="5.97794">
        <ele>1275.81</ele>
        <time>2015-10-22T08:00:23Z</time>
      </trkpt>
      <trkpt lat="44.58551" lon="5.97793">
        <ele>1275.81</ele>
        <time>2015-10-22T08:00:45Z</time>
      </trkpt>
      <trkpt lat="44.5855" lon="5.97794">
        <ele>1276.29</ele>
        <time>2015-10-22T08:01:06Z</time>
      </trkpt>
      <trkpt lat="44.58554" lon="5.97794">
        <ele>1276.77</ele>
        <time>2015-10-22T08:01:25Z</time>
      </trkpt>
      <trkpt lat="44.58564" lon="5.97791">
        <ele>1278.21</ele>
        <time>2015-10-22T08:01:37Z</time>
      </trkpt>
      <trkpt lat="44.58572" lon="5.97784">
        <ele>1280.13</ele>
        <time>2015-10-22T08:01:50Z</time>
      </trkpt>
      <trkpt lat="44.58578" lon="5.97771">
        <ele>1282.06</ele>
        <time>2015-10-22T08:02:04Z</time>
      </trkpt>
      <trkpt lat="44.58586" lon="5.97766">
        <ele>1283.98</ele>
        <time>2015-10-22T08:02:17Z</time>
      </trkpt>
      <trkpt lat="44.58596" lon="5.97767">
        <ele>1285.9</ele>
        <time>2015-10-22T08:02:30Z</time>
      </trkpt>
      <trkpt lat="44.58606" lon="5.97767">
        <ele>1287.82</ele>
        <time>2015-10-22T08:02:45Z</time>
      </trkpt>
      <trkpt lat="44.58615" lon="5.97762">
        <ele>1289.75</ele>
        <time>2015-10-22T08:02:58Z</time>
      </trkpt>
      <trkpt lat="44.58624" lon="5.97758">
        <ele>1291.19</ele>
        <time>2015-10-22T08:03:12Z</time>
      </trkpt>
      <trkpt lat="44.58634" lon="5.97759">
        <ele>1293.59</ele>
        <time>2015-10-22T08:03:27Z</time>
      </trkpt>
      <trkpt lat="44.58636" lon="5.97758">
        <ele>1294.07</ele>
        <time>2015-10-22T08:03:29Z</time>
      </trkpt>
      <trkpt lat="44.58646" lon="5.97756">
        <ele>1295.51</ele>
        <time>2015-10-22T08:03:42Z</time>
      </trkpt>
      <trkpt lat="44.58654" lon="5.97757">
        <ele>1296.96</ele>
        <time>2015-10-22T08:03:54Z</time>
      </trkpt>
      <trkpt lat="44.58662" lon="5.97757">
        <ele>1299.36</ele>
        <time>2015-10-22T08:04:08Z</time>
      </trkpt>
      <trkpt lat="44.58669" lon="5.97753">
        <ele>1301.76</ele>
        <time>2015-10-22T08:04:20Z</time>
      </trkpt>
      <trkpt lat="44.58676" lon="5.9775">
        <ele>1303.2</ele>
        <time>2015-10-22T08:04:31Z</time>
      </trkpt>
      <trkpt lat="44.58685" lon="5.97748">
        <ele>1305.61</ele>
        <time>2015-10-22T08:04:45Z</time>
      </trkpt>
      <trkpt lat="44.58693" lon="5.97746">
        <ele>1308.01</ele>
        <time>2015-10-22T08:04:59Z</time>
      </trkpt>
      <trkpt lat="44.58701" lon="5.9774">
        <ele>1310.41</ele>
        <time>2015-10-22T08:05:12Z</time>
      </trkpt>
      <trkpt lat="44.58709" lon="5.97737">
        <ele>1312.34</ele>
        <time>2015-10-22T08:05:25Z</time>
      </trkpt>
      <trkpt lat="44.58717" lon="5.97735">
        <ele>1314.74</ele>
        <time>2015-10-22T08:05:39Z</time>
      </trkpt>
      <trkpt lat="44.58727" lon="5.97734">
        <ele>1316.66</ele>
        <time>2015-10-22T08:05:55Z</time>
      </trkpt>
      <trkpt lat="44.58734" lon="5.97731">
        <ele>1318.59</ele>
        <time>2015-10-22T08:06:10Z</time>
      </trkpt>
      <trkpt lat="44.5874" lon="5.97728">
        <ele>1320.03</ele>
        <time>2015-10-22T08:06:19Z</time>
      </trkpt>
      <trkpt lat="44.58747" lon="5.97724">
        <ele>1322.43</ele>
        <time>2015-10-22T08:06:33Z</time>
      </trkpt>
      <trkpt lat="44.58754" lon="5.97719">
        <ele>1324.35</ele>
        <time>2015-10-22T08:06:46Z</time>
      </trkpt>
      <trkpt lat="44.58761" lon="5.97713">
        <ele>1326.28</ele>
        <time>2015-10-22T08:07:00Z</time>
      </trkpt>
      <trkpt lat="44.58768" lon="5.97709">
        <ele>1328.2</ele>
        <time>2015-10-22T08:07:12Z</time>
      </trkpt>
      <trkpt lat="44.58773" lon="5.97704">
        <ele>1329.64</ele>
        <time>2015-10-22T08:07:23Z</time>
      </trkpt>
      <trkpt lat="44.58779" lon="5.97699">
        <ele>1331.56</ele>
        <time>2015-10-22T08:07:35Z</time>
      </trkpt>
      <trkpt lat="44.58786" lon="5.97694">
        <ele>1333.49</ele>
        <time>2015-10-22T08:07:47Z</time>
      </trkpt>
      <trkpt lat="44.58791" lon="5.97693">
        <ele>1337.33</ele>
        <time>2015-10-22T08:07:57Z</time>
      </trkpt>
      <trkpt lat="44.58798" lon="5.9769">
        <ele>1337.33</ele>
        <time>2015-10-22T08:08:10Z</time>
      </trkpt>
      <trkpt lat="44.58806" lon="5.97687">
        <ele>1339.73</ele>
        <time>2015-10-22T08:08:24Z</time>
      </trkpt>
      <trkpt lat="44.58811" lon="5.97684">
        <ele>1341.66</ele>
        <time>2015-10-22T08:08:36Z</time>
      </trkpt>
      <trkpt lat="44.58818" lon="5.97682">
        <ele>1344.06</ele>
        <time>2015-10-22T08:08:48Z</time>
      </trkpt>
      <trkpt lat="44.58825" lon="5.97679">
        <ele>1345.98</ele>
        <time>2015-10-22T08:09:01Z</time>
      </trkpt>
      <trkpt lat="44.58832" lon="5.97678">
        <ele>1347.91</ele>
        <time>2015-10-22T08:09:13Z</time>
      </trkpt>
      <trkpt lat="44.58837" lon="5.97674">
        <ele>1349.83</ele>
        <time>2015-10-22T08:09:26Z</time>
      </trkpt>
      <trkpt lat="44.58844" lon="5.97671">
        <ele>1351.75</ele>
        <time>2015-10-22T08:09:37Z</time>
      </trkpt>
      <trkpt lat="44.58849" lon="5.97666">
        <ele>1354.63</ele>
        <time>2015-10-22T08:09:52Z</time>
      </trkpt>
      <trkpt lat="44.58855" lon="5.97662">
        <ele>1357.04</ele>
        <time>2015-10-22T08:10:06Z</time>
      </trkpt>
      <trkpt lat="44.58864" lon="5.97659">
        <ele>1359.44</ele>
        <time>2015-10-22T08:10:23Z</time>
      </trkpt>
      <trkpt lat="44.58872" lon="5.97658">
        <ele>1361.36</ele>
        <time>2015-10-22T08:10:37Z</time>
      </trkpt>
      <trkpt lat="44.58879" lon="5.97657">
        <ele>1363.77</ele>
        <time>2015-10-22T08:10:50Z</time>
      </trkpt>
      <trkpt lat="44.58887" lon="5.97654">
        <ele>1366.65</ele>
        <time>2015-10-22T08:11:08Z</time>
      </trkpt>
      <trkpt lat="44.58896" lon="5.97654">
        <ele>1369.05</ele>
        <time>2015-10-22T08:11:20Z</time>
      </trkpt>
      <trkpt lat="44.58902" lon="5.97654">
        <ele>1371.46</ele>
        <time>2015-10-22T08:11:34Z</time>
      </trkpt>
      <trkpt lat="44.5891" lon="5.97652">
        <ele>1373.86</ele>
        <time>2015-10-22T08:11:48Z</time>
      </trkpt>
      <trkpt lat="44.58916" lon="5.97649">
        <ele>1375.78</ele>
        <time>2015-10-22T08:12:01Z</time>
      </trkpt>
      <trkpt lat="44.58922" lon="5.97647">
        <ele>1377.71</ele>
        <time>2015-10-22T08:12:12Z</time>
      </trkpt>
      <trkpt lat="44.58926" lon="5.97643">
        <ele>1380.11</ele>
        <time>2015-10-22T08:12:25Z</time>
      </trkpt>
      <trkpt lat="44.58932" lon="5.97642">
        <ele>1382.03</ele>
        <time>2015-10-22T08:12:36Z</time>
      </trkpt>
      <trkpt lat="44.58936" lon="5.9764">
        <ele>1383.96</ele>
        <time>2015-10-22T08:12:47Z</time>
      </trkpt>
      <trkpt lat="44.58943" lon="5.97636">
        <ele>1386.36</ele>
        <time>2015-10-22T08:12:58Z</time>
      </trkpt>
      <trkpt lat="44.58949" lon="5.97633">
        <ele>1388.76</ele>
        <time>2015-10-22T08:13:12Z</time>
      </trkpt>
      <trkpt lat="44.58955" lon="5.9763">
        <ele>1391.17</ele>
        <time>2015-10-22T08:13:25Z</time>
      </trkpt>
      <trkpt lat="44.58959" lon="5.97629">
        <ele>1393.57</ele>
        <time>2015-10-22T08:13:36Z</time>
      </trkpt>
      <trkpt lat="44.58966" lon="5.97628">
        <ele>1395.49</ele>
        <time>2015-10-22T08:13:49Z</time>
      </trkpt>
      <trkpt lat="44.58972" lon="5.97627">
        <ele>1398.37</ele>
        <time>2015-10-22T08:14:01Z</time>
      </trkpt>
      <trkpt lat="44.58978" lon="5.97624">
        <ele>1399.34</ele>
        <time>2015-10-22T08:14:13Z</time>
      </trkpt>
      <trkpt lat="44.58982" lon="5.97617">
        <ele>1401.74</ele>
        <time>2015-10-22T08:14:29Z</time>
      </trkpt>
      <trkpt lat="44.58988" lon="5.97611">
        <ele>1403.66</ele>
        <time>2015-10-22T08:14:42Z</time>
      </trkpt>
      <trkpt lat="44.58993" lon="5.97604">
        <ele>1405.58</ele>
        <time>2015-10-22T08:14:57Z</time>
      </trkpt>
      <trkpt lat="44.58997" lon="5.97595">
        <ele>1408.47</ele>
        <time>2015-10-22T08:15:14Z</time>
      </trkpt>
      <trkpt lat="44.59001" lon="5.97584">
        <ele>1410.87</ele>
        <time>2015-10-22T08:15:28Z</time>
      </trkpt>
      <trkpt lat="44.59007" lon="5.97578">
        <ele>1413.28</ele>
        <time>2015-10-22T08:15:42Z</time>
      </trkpt>
      <trkpt lat="44.5901" lon="5.97574">
        <ele>1416.16</ele>
        <time>2015-10-22T08:15:50Z</time>
      </trkpt>
      <trkpt lat="44.59015" lon="5.97568">
        <ele>1417.12</ele>
        <time>2015-10-22T08:16:02Z</time>
      </trkpt>
      <trkpt lat="44.5902" lon="5.97562">
        <ele>1419.04</ele>
        <time>2015-10-22T08:16:13Z</time>
      </trkpt>
      <trkpt lat="44.59023" lon="5.97558">
        <ele>1421.45</ele>
        <time>2015-10-22T08:16:25Z</time>
      </trkpt>
      <trkpt lat="44.59028" lon="5.97554">
        <ele>1423.37</ele>
        <time>2015-10-22T08:16:37Z</time>
      </trkpt>
      <trkpt lat="44.59032" lon="5.97546">
        <ele>1425.77</ele>
        <time>2015-10-22T08:16:49Z</time>
      </trkpt>
      <trkpt lat="44.59037" lon="5.97537">
        <ele>1427.7</ele>
        <time>2015-10-22T08:17:04Z</time>
      </trkpt>
      <trkpt lat="44.59041" lon="5.97526">
        <ele>1430.1</ele>
        <time>2015-10-22T08:17:17Z</time>
      </trkpt>
      <trkpt lat="44.59045" lon="5.97518">
        <ele>1432.5</ele>
        <time>2015-10-22T08:17:32Z</time>
      </trkpt>
      <trkpt lat="44.59051" lon="5.97512">
        <ele>1434.91</ele>
        <time>2015-10-22T08:17:46Z</time>
      </trkpt>
      <trkpt lat="44.59059" lon="5.97509">
        <ele>1437.31</ele>
        <time>2015-10-22T08:18:02Z</time>
      </trkpt>
      <trkpt lat="44.59068" lon="5.97509">
        <ele>1440.19</ele>
        <time>2015-10-22T08:18:17Z</time>
      </trkpt>
      <trkpt lat="44.59074" lon="5.9752">
        <ele>1441.63</ele>
        <time>2015-10-22T08:18:33Z</time>
      </trkpt>
      <trkpt lat="44.59081" lon="5.97526">
        <ele>1444.04</ele>
        <time>2015-10-22T08:18:50Z</time>
      </trkpt>
      <trkpt lat="44.59089" lon="5.97535">
        <ele>1446.44</ele>
        <time>2015-10-22T08:19:06Z</time>
      </trkpt>
      <trkpt lat="44.59092" lon="5.9754">
        <ele>1447.4</ele>
        <time>2015-10-22T08:19:24Z</time>
      </trkpt>
      <trkpt lat="44.59095" lon="5.97543">
        <ele>1447.88</ele>
        <time>2015-10-22T08:19:32Z</time>
      </trkpt>
      <trkpt lat="44.59101" lon="5.97553">
        <ele>1448.84</ele>
        <time>2015-10-22T08:19:44Z</time>
      </trkpt>
      <trkpt lat="44.59103" lon="5.97555">
        <ele>1449.32</ele>
        <time>2015-10-22T08:19:47Z</time>
      </trkpt>
      <trkpt lat="44.59106" lon="5.97561">
        <ele>1449.81</ele>
        <time>2015-10-22T08:20:01Z</time>
      </trkpt>
      <trkpt lat="44.59106" lon="5.97559">
        <ele>1448.84</ele>
        <time>2015-10-22T08:20:21Z</time>
      </trkpt>
      <trkpt lat="44.59108" lon="5.97556">
        <ele>1449.32</ele>
        <time>2015-10-22T08:20:41Z</time>
      </trkpt>
      <trkpt lat="44.59107" lon="5.97554">
        <ele>1449.32</ele>
        <time>2015-10-22T08:21:02Z</time>
      </trkpt>
      <trkpt lat="44.59107" lon="5.97555">
        <ele>1449.32</ele>
        <time>2015-10-22T08:21:21Z</time>
      </trkpt>
      <trkpt lat="44.59108" lon="5.97556">
        <ele>1449.81</ele>
        <time>2015-10-22T08:21:43Z</time>
      </trkpt>
      <trkpt lat="44.59109" lon="5.97556">
        <ele>1449.32</ele>
        <time>2015-10-22T08:22:02Z</time>
      </trkpt>
      <trkpt lat="44.59107" lon="5.97555">
        <ele>1449.32</ele>
        <time>2015-10-22T08:22:27Z</time>
      </trkpt>
      <trkpt lat="44.59107" lon="5.97556">
        <ele>1449.81</ele>
        <time>2015-10-22T08:22:50Z</time>
      </trkpt>
      <trkpt lat="44.59107" lon="5.97555">
        <ele>1449.32</ele>
        <time>2015-10-22T08:23:21Z</time>
      </trkpt>
      <trkpt lat="44.59106" lon="5.97556">
        <ele>1449.32</ele>
        <time>2015-10-22T08:23:42Z</time>
      </trkpt>
      <trkpt lat="44.59108" lon="5.97556">
        <ele>1449.32</ele>
        <time>2015-10-22T08:24:03Z</time>
      </trkpt>
      <trkpt lat="44.59108" lon="5.97556">
        <ele>1448.84</ele>
        <time>2015-10-22T08:24:28Z</time>
      </trkpt>
      <trkpt lat="44.59107" lon="5.97557">
        <ele>1448.84</ele>
        <time>2015-10-22T08:24:50Z</time>
      </trkpt>
      <trkpt lat="44.59108" lon="5.97557">
        <ele>1448.84</ele>
        <time>2015-10-22T08:25:12Z</time>
      </trkpt>
      <trkpt lat="44.59108" lon="5.97556">
        <ele>1448.84</ele>
        <time>2015-10-22T08:25:32Z</time>
      </trkpt>
      <trkpt lat="44.59107" lon="5.97557">
        <ele>1448.84</ele>
        <time>2015-10-22T08:25:56Z</time>
      </trkpt>
      <trkpt lat="44.59107" lon="5.97557">
        <ele>1449.32</ele>
        <time>2015-10-22T08:26:19Z</time>
      </trkpt>
      <trkpt lat="44.59108" lon="5.97558">
        <ele>1449.32</ele>
        <time>2015-10-22T08:26:36Z</time>
      </trkpt>
      <trkpt lat="44.59108" lon="5.97556">
        <ele>1449.81</ele>
        <time>2015-10-22T08:26:55Z</time>
      </trkpt>
      <trkpt lat="44.59108" lon="5.97556">
        <ele>1449.81</ele>
        <time>2015-10-22T08:27:23Z</time>
      </trkpt>
      <trkpt lat="44.59108" lon="5.97556">
        <ele>1449.32</ele>
        <time>2015-10-22T08:27:45Z</time>
      </trkpt>
      <trkpt lat="44.59108" lon="5.97557">
        <ele>1449.32</ele>
        <time>2015-10-22T08:28:04Z</time>
      </trkpt>
      <trkpt lat="44.59108" lon="5.97556">
        <ele>1449.81</ele>
        <time>2015-10-22T08:28:26Z</time>
      </trkpt>
      <trkpt lat="44.59107" lon="5.97557">
        <ele>1449.81</ele>
        <time>2015-10-22T08:28:46Z</time>
      </trkpt>
      <trkpt lat="44.59108" lon="5.97556">
        <ele>1449.81</ele>
        <time>2015-10-22T08:29:13Z</time>
      </trkpt>
      <trkpt lat="44.59108" lon="5.97556">
        <ele>1449.81</ele>
        <time>2015-10-22T08:29:30Z</time>
      </trkpt>
      <trkpt lat="44.59108" lon="5.97556">
        <ele>1449.81</ele>
        <time>2015-10-22T08:29:47Z</time>
      </trkpt>
      <trkpt lat="44.59108" lon="5.97556">
        <ele>1450.29</ele>
        <time>2015-10-22T08:30:13Z</time>
      </trkpt>
      <trkpt lat="44.59109" lon="5.97556">
        <ele>1450.29</ele>
        <time>2015-10-22T08:30:37Z</time>
      </trkpt>
      <trkpt lat="44.59109" lon="5.97556">
        <ele>1450.77</ele>
        <time>2015-10-22T08:30:58Z</time>
      </trkpt>
      <trkpt lat="44.59108" lon="5.97556">
        <ele>1451.25</ele>
        <time>2015-10-22T08:31:14Z</time>
      </trkpt>
      <trkpt lat="44.59111" lon="5.97561">
        <ele>1452.21</ele>
        <time>2015-10-22T08:31:28Z</time>
      </trkpt>
      <trkpt lat="44.59114" lon="5.97563">
        <ele>1452.69</ele>
        <time>2015-10-22T08:31:40Z</time>
      </trkpt>
      <trkpt lat="44.59122" lon="5.9757">
        <ele>1454.61</ele>
        <time>2015-10-22T08:31:54Z</time>
      </trkpt>
      <trkpt lat="44.59128" lon="5.97579">
        <ele>1456.05</ele>
        <time>2015-10-22T08:32:06Z</time>
      </trkpt>
      <trkpt lat="44.59133" lon="5.9759">
        <ele>1457.5</ele>
        <time>2015-10-22T08:32:19Z</time>
      </trkpt>
      <trkpt lat="44.59138" lon="5.97602">
        <ele>1458.94</ele>
        <time>2015-10-22T08:32:34Z</time>
      </trkpt>
      <trkpt lat="44.59139" lon="5.97603">
        <ele>1458.94</ele>
        <time>2015-10-22T08:32:35Z</time>
      </trkpt>
      <trkpt lat="44.59145" lon="5.97616">
        <ele>1460.38</ele>
        <time>2015-10-22T08:32:51Z</time>
      </trkpt>
      <trkpt lat="44.59149" lon="5.97625">
        <ele>1462.78</ele>
        <time>2015-10-22T08:33:02Z</time>
      </trkpt>
      <trkpt lat="44.59158" lon="5.97636">
        <ele>1465.19</ele>
        <time>2015-10-22T08:33:18Z</time>
      </trkpt>
      <trkpt lat="44.59163" lon="5.97647">
        <ele>1466.63</ele>
        <time>2015-10-22T08:33:31Z</time>
      </trkpt>
      <trkpt lat="44.59169" lon="5.97654">
        <ele>1468.55</ele>
        <time>2015-10-22T08:33:42Z</time>
      </trkpt>
      <trkpt lat="44.59172" lon="5.97658">
        <ele>1469.99</ele>
        <time>2015-10-22T08:33:52Z</time>
      </trkpt>
      <trkpt lat="44.59183" lon="5.97662">
        <ele>1471.44</ele>
        <time>2015-10-22T08:34:07Z</time>
      </trkpt>
      <trkpt lat="44.59191" lon="5.97668">
        <ele>1472.4</ele>
        <time>2015-10-22T08:34:21Z</time>
      </trkpt>
      <trkpt lat="44.59184" lon="5.9768">
        <ele>1473.36</ele>
        <time>2015-10-22T08:34:35Z</time>
      </trkpt>
      <trkpt lat="44.59184" lon="5.97692">
        <ele>1474.32</ele>
        <time>2015-10-22T08:34:50Z</time>
      </trkpt>
      <trkpt lat="44.59188" lon="5.97704">
        <ele>1476.72</ele>
        <time>2015-10-22T08:35:03Z</time>
      </trkpt>
      <trkpt lat="44.59189" lon="5.97712">
        <ele>1478.16</ele>
        <time>2015-10-22T08:35:17Z</time>
      </trkpt>
      <trkpt lat="44.59192" lon="5.97723">
        <ele>1479.13</ele>
        <time>2015-10-22T08:35:28Z</time>
      </trkpt>
      <trkpt lat="44.59196" lon="5.97736">
        <ele>1481.05</ele>
        <time>2015-10-22T08:35:43Z</time>
      </trkpt>
      <trkpt lat="44.592" lon="5.97749">
        <ele>1482.97</ele>
        <time>2015-10-22T08:35:58Z</time>
      </trkpt>
      <trkpt lat="44.59201" lon="5.97764">
        <ele>1483.93</ele>
        <time>2015-10-22T08:36:12Z</time>
      </trkpt>
      <trkpt lat="44.59202" lon="5.97772">
        <ele>1484.89</ele>
        <time>2015-10-22T08:36:22Z</time>
      </trkpt>
      <trkpt lat="44.59204" lon="5.97789">
        <ele>1486.34</ele>
        <time>2015-10-22T08:36:38Z</time>
      </trkpt>
      <trkpt lat="44.59204" lon="5.97806">
        <ele>1488.26</ele>
        <time>2015-10-22T08:36:54Z</time>
      </trkpt>
      <trkpt lat="44.59204" lon="5.9782">
        <ele>1489.7</ele>
        <time>2015-10-22T08:37:09Z</time>
      </trkpt>
      <trkpt lat="44.59204" lon="5.97835">
        <ele>1491.14</ele>
        <time>2015-10-22T08:37:24Z</time>
      </trkpt>
      <trkpt lat="44.59203" lon="5.97848">
        <ele>1493.06</ele>
        <time>2015-10-22T08:37:39Z</time>
      </trkpt>
      <trkpt lat="44.59201" lon="5.97863">
        <ele>1494.51</ele>
        <time>2015-10-22T08:37:54Z</time>
      </trkpt>
      <trkpt lat="44.59199" lon="5.9788">
        <ele>1496.43</ele>
        <time>2015-10-22T08:38:12Z</time>
      </trkpt>
      <trkpt lat="44.59198" lon="5.97897">
        <ele>1497.87</ele>
        <time>2015-10-22T08:38:29Z</time>
      </trkpt>
      <trkpt lat="44.59198" lon="5.97907">
        <ele>1499.31</ele>
        <time>2015-10-22T08:38:40Z</time>
      </trkpt>
      <trkpt lat="44.59194" lon="5.97921">
        <ele>1501.24</ele>
        <time>2015-10-22T08:38:56Z</time>
      </trkpt>
      <trkpt lat="44.59191" lon="5.97939">
        <ele>1503.16</ele>
        <time>2015-10-22T08:39:13Z</time>
      </trkpt>
      <trkpt lat="44.5919" lon="5.97953">
        <ele>1504.6</ele>
        <time>2015-10-22T08:39:27Z</time>
      </trkpt>
      <trkpt lat="44.59188" lon="5.97967">
        <ele>1506.04</ele>
        <time>2015-10-22T08:39:41Z</time>
      </trkpt>
      <trkpt lat="44.59184" lon="5.97981">
        <ele>1507.48</ele>
        <time>2015-10-22T08:39:57Z</time>
      </trkpt>
      <trkpt lat="44.59184" lon="5.97993">
        <ele>1508.45</ele>
        <time>2015-10-22T08:40:10Z</time>
      </trkpt>
      <trkpt lat="44.59182" lon="5.98008">
        <ele>1510.85</ele>
        <time>2015-10-22T08:40:26Z</time>
      </trkpt>
      <trkpt lat="44.59178" lon="5.98022">
        <ele>1512.77</ele>
        <time>2015-10-22T08:40:41Z</time>
      </trkpt>
      <trkpt lat="44.59177" lon="5.98034">
        <ele>1514.69</ele>
        <time>2015-10-22T08:40:56Z</time>
      </trkpt>
      <trkpt lat="44.59175" lon="5.98046">
        <ele>1515.66</ele>
        <time>2015-10-22T08:41:08Z</time>
      </trkpt>
      <trkpt lat="44.59174" lon="5.98054">
        <ele>1517.58</ele>
        <time>2015-10-22T08:41:21Z</time>
      </trkpt>
      <trkpt lat="44.59174" lon="5.98068">
        <ele>1519.5</ele>
        <time>2015-10-22T08:41:37Z</time>
      </trkpt>
      <trkpt lat="44.59171" lon="5.98082">
        <ele>1520.94</ele>
        <time>2015-10-22T08:41:51Z</time>
      </trkpt>
      <trkpt lat="44.59168" lon="5.98096">
        <ele>1521.9</ele>
        <time>2015-10-22T08:42:05Z</time>
      </trkpt>
      <trkpt lat="44.59166" lon="5.98109">
        <ele>1523.35</ele>
        <time>2015-10-22T08:42:20Z</time>
      </trkpt>
      <trkpt lat="44.59165" lon="5.9812">
        <ele>1525.27</ele>
        <time>2015-10-22T08:42:33Z</time>
      </trkpt>
      <trkpt lat="44.5916" lon="5.98135">
        <ele>1526.23</ele>
        <time>2015-10-22T08:42:48Z</time>
      </trkpt>
      <trkpt lat="44.59159" lon="5.98146">
        <ele>1528.63</ele>
        <time>2015-10-22T08:43:04Z</time>
      </trkpt>
      <trkpt lat="44.59158" lon="5.98155">
        <ele>1530.56</ele>
        <time>2015-10-22T08:43:19Z</time>
      </trkpt>
      <trkpt lat="44.59155" lon="5.98167">
        <ele>1532.48</ele>
        <time>2015-10-22T08:43:35Z</time>
      </trkpt>
      <trkpt lat="44.59154" lon="5.9818">
        <ele>1534.4</ele>
        <time>2015-10-22T08:43:52Z</time>
      </trkpt>
      <trkpt lat="44.59153" lon="5.98192">
        <ele>1536.32</ele>
        <time>2015-10-22T08:44:08Z</time>
      </trkpt>
      <trkpt lat="44.59151" lon="5.98206">
        <ele>1537.77</ele>
        <time>2015-10-22T08:44:22Z</time>
      </trkpt>
      <trkpt lat="44.59149" lon="5.98216">
        <ele>1539.69</ele>
        <time>2015-10-22T08:44:35Z</time>
      </trkpt>
      <trkpt lat="44.59147" lon="5.98228">
        <ele>1541.61</ele>
        <time>2015-10-22T08:44:49Z</time>
      </trkpt>
      <trkpt lat="44.59146" lon="5.98241">
        <ele>1542.57</ele>
        <time>2015-10-22T08:45:04Z</time>
      </trkpt>
      <trkpt lat="44.59145" lon="5.98252">
        <ele>1544.01</ele>
        <time>2015-10-22T08:45:17Z</time>
      </trkpt>
      <trkpt lat="44.59143" lon="5.98265">
        <ele>1545.46</ele>
        <time>2015-10-22T08:45:32Z</time>
      </trkpt>
      <trkpt lat="44.59141" lon="5.98275">
        <ele>1546.9</ele>
        <time>2015-10-22T08:45:43Z</time>
      </trkpt>
      <trkpt lat="44.59139" lon="5.98288">
        <ele>1548.34</ele>
        <time>2015-10-22T08:45:58Z</time>
      </trkpt>
      <trkpt lat="44.59136" lon="5.983">
        <ele>1549.78</ele>
        <time>2015-10-22T08:46:13Z</time>
      </trkpt>
      <trkpt lat="44.59134" lon="5.98316">
        <ele>1552.19</ele>
        <time>2015-10-22T08:46:30Z</time>
      </trkpt>
      <trkpt lat="44.59133" lon="5.98328">
        <ele>1554.11</ele>
        <time>2015-10-22T08:46:46Z</time>
      </trkpt>
      <trkpt lat="44.5913" lon="5.98341">
        <ele>1555.07</ele>
        <time>2015-10-22T08:47:00Z</time>
      </trkpt>
      <trkpt lat="44.59127" lon="5.9835">
        <ele>1555.07</ele>
        <time>2015-10-22T08:47:11Z</time>
      </trkpt>
      <trkpt lat="44.59127" lon="5.98363">
        <ele>1556.99</ele>
        <time>2015-10-22T08:47:25Z</time>
      </trkpt>
      <trkpt lat="44.59125" lon="5.98374">
        <ele>1558.43</ele>
        <time>2015-10-22T08:47:40Z</time>
      </trkpt>
      <trkpt lat="44.59124" lon="5.98388">
        <ele>1559.88</ele>
        <time>2015-10-22T08:47:54Z</time>
      </trkpt>
      <trkpt lat="44.59121" lon="5.98393">
        <ele>1560.36</ele>
        <time>2015-10-22T08:48:05Z</time>
      </trkpt>
      <trkpt lat="44.59118" lon="5.98406">
        <ele>1561.32</ele>
        <time>2015-10-22T08:48:21Z</time>
      </trkpt>
      <trkpt lat="44.59118" lon="5.98423">
        <ele>1564.2</ele>
        <time>2015-10-22T08:48:39Z</time>
      </trkpt>
      <trkpt lat="44.59116" lon="5.98434">
        <ele>1566.12</ele>
        <time>2015-10-22T08:48:55Z</time>
      </trkpt>
      <trkpt lat="44.59113" lon="5.98446">
        <ele>1567.57</ele>
        <time>2015-10-22T08:49:09Z</time>
      </trkpt>
      <trkpt lat="44.59111" lon="5.98452">
        <ele>1567.57</ele>
        <time>2015-10-22T08:49:15Z</time>
      </trkpt>
      <trkpt lat="44.59109" lon="5.98465">
        <ele>1568.53</ele>
        <time>2015-10-22T08:49:30Z</time>
      </trkpt>
      <trkpt lat="44.59105" lon="5.98477">
        <ele>1569.97</ele>
        <time>2015-10-22T08:49:44Z</time>
      </trkpt>
      <trkpt lat="44.59104" lon="5.98489">
        <ele>1572.37</ele>
        <time>2015-10-22T08:49:58Z</time>
      </trkpt>
      <trkpt lat="44.59101" lon="5.98503">
        <ele>1572.85</ele>
        <time>2015-10-22T08:50:12Z</time>
      </trkpt>
      <trkpt lat="44.59099" lon="5.98514">
        <ele>1574.78</ele>
        <time>2015-10-22T08:50:26Z</time>
      </trkpt>
      <trkpt lat="44.59096" lon="5.98527">
        <ele>1575.74</ele>
        <time>2015-10-22T08:50:40Z</time>
      </trkpt>
      <trkpt lat="44.59095" lon="5.98539">
        <ele>1578.14</ele>
        <time>2015-10-22T08:50:54Z</time>
      </trkpt>
      <trkpt lat="44.59095" lon="5.98548">
        <ele>1580.06</ele>
        <time>2015-10-22T08:51:07Z</time>
      </trkpt>
      <trkpt lat="44.59093" lon="5.98561">
        <ele>1582.47</ele>
        <time>2015-10-22T08:51:24Z</time>
      </trkpt>
      <trkpt lat="44.59091" lon="5.98573">
        <ele>1583.91</ele>
        <time>2015-10-22T08:51:38Z</time>
      </trkpt>
      <trkpt lat="44.59089" lon="5.98587">
        <ele>1585.83</ele>
        <time>2015-10-22T08:51:52Z</time>
      </trkpt>
      <trkpt lat="44.59087" lon="5.98599">
        <ele>1587.75</ele>
        <time>2015-10-22T08:52:06Z</time>
      </trkpt>
      <trkpt lat="44.59085" lon="5.98612">
        <ele>1589.2</ele>
        <time>2015-10-22T08:52:20Z</time>
      </trkpt>
      <trkpt lat="44.59083" lon="5.98625">
        <ele>1590.64</ele>
        <time>2015-10-22T08:52:33Z</time>
      </trkpt>
      <trkpt lat="44.5908" lon="5.98637">
        <ele>1591.6</ele>
        <time>2015-10-22T08:52:46Z</time>
      </trkpt>
      <trkpt lat="44.59078" lon="5.9865">
        <ele>1592.56</ele>
        <time>2015-10-22T08:53:00Z</time>
      </trkpt>
      <trkpt lat="44.59077" lon="5.98662">
        <ele>1594</ele>
        <time>2015-10-22T08:53:13Z</time>
      </trkpt>
      <trkpt lat="44.59077" lon="5.98671">
        <ele>1596.41</ele>
        <time>2015-10-22T08:53:25Z</time>
      </trkpt>
      <trkpt lat="44.59074" lon="5.98684">
        <ele>1597.85</ele>
        <time>2015-10-22T08:53:40Z</time>
      </trkpt>
      <trkpt lat="44.59071" lon="5.98696">
        <ele>1599.77</ele>
        <time>2015-10-22T08:53:54Z</time>
      </trkpt>
      <trkpt lat="44.59069" lon="5.9871">
        <ele>1602.66</ele>
        <time>2015-10-22T08:54:09Z</time>
      </trkpt>
      <trkpt lat="44.59066" lon="5.98723">
        <ele>1603.14</ele>
        <time>2015-10-22T08:54:23Z</time>
      </trkpt>
      <trkpt lat="44.59064" lon="5.98734">
        <ele>1603.62</ele>
        <time>2015-10-22T08:54:34Z</time>
      </trkpt>
      <trkpt lat="44.59064" lon="5.98745">
        <ele>1606.5</ele>
        <time>2015-10-22T08:54:52Z</time>
      </trkpt>
      <trkpt lat="44.59069" lon="5.9874">
        <ele>1608.42</ele>
        <time>2015-10-22T08:55:06Z</time>
      </trkpt>
      <trkpt lat="44.59074" lon="5.98731">
        <ele>1610.83</ele>
        <time>2015-10-22T08:55:23Z</time>
      </trkpt>
      <trkpt lat="44.59077" lon="5.98727">
        <ele>1611.31</ele>
        <time>2015-10-22T08:55:34Z</time>
      </trkpt>
      <trkpt lat="44.59078" lon="5.98724">
        <ele>1611.79</ele>
        <time>2015-10-22T08:55:48Z</time>
      </trkpt>
      <trkpt lat="44.59081" lon="5.98717">
        <ele>1612.75</ele>
        <time>2015-10-22T08:56:00Z</time>
      </trkpt>
      <trkpt lat="44.59087" lon="5.9871">
        <ele>1614.19</ele>
        <time>2015-10-22T08:56:13Z</time>
      </trkpt>
      <trkpt lat="44.59094" lon="5.98701">
        <ele>1615.63</ele>
        <time>2015-10-22T08:56:26Z</time>
      </trkpt>
      <trkpt lat="44.59098" lon="5.98701">
        <ele>1618.52</ele>
        <time>2015-10-22T08:56:42Z</time>
      </trkpt>
      <trkpt lat="44.59095" lon="5.98713">
        <ele>1619.96</ele>
        <time>2015-10-22T08:56:58Z</time>
      </trkpt>
      <trkpt lat="44.59092" lon="5.98723">
        <ele>1621.88</ele>
        <time>2015-10-22T08:57:11Z</time>
      </trkpt>
      <trkpt lat="44.5909" lon="5.98731">
        <ele>1623.8</ele>
        <time>2015-10-22T08:57:23Z</time>
      </trkpt>
      <trkpt lat="44.59085" lon="5.98745">
        <ele>1624.77</ele>
        <time>2015-10-22T08:57:39Z</time>
      </trkpt>
      <trkpt lat="44.59084" lon="5.98755">
        <ele>1626.69</ele>
        <time>2015-10-22T08:57:53Z</time>
      </trkpt>
      <trkpt lat="44.59086" lon="5.98763">
        <ele>1628.61</ele>
        <time>2015-10-22T08:58:06Z</time>
      </trkpt>
      <trkpt lat="44.59085" lon="5.98778">
        <ele>1631.98</ele>
        <time>2015-10-22T08:58:26Z</time>
      </trkpt>
      <trkpt lat="44.59084" lon="5.98785">
        <ele>1633.42</ele>
        <time>2015-10-22T08:58:38Z</time>
      </trkpt>
      <trkpt lat="44.59083" lon="5.98793">
        <ele>1634.86</ele>
        <time>2015-10-22T08:58:48Z</time>
      </trkpt>
      <trkpt lat="44.59079" lon="5.988">
        <ele>1636.78</ele>
        <time>2015-10-22T08:59:01Z</time>
      </trkpt>
      <trkpt lat="44.59076" lon="5.98812">
        <ele>1639.19</ele>
        <time>2015-10-22T08:59:17Z</time>
      </trkpt>
      <trkpt lat="44.5908" lon="5.98811">
        <ele>1640.63</ele>
        <time>2015-10-22T08:59:28Z</time>
      </trkpt>
      <trkpt lat="44.59083" lon="5.98808">
        <ele>1641.11</ele>
        <time>2015-10-22T08:59:42Z</time>
      </trkpt>
      <trkpt lat="44.59085" lon="5.98812">
        <ele>1641.11</ele>
        <time>2015-10-22T08:59:54Z</time>
      </trkpt>
      <trkpt lat="44.59085" lon="5.98813">
        <ele>1641.11</ele>
        <time>2015-10-22T09:00:20Z</time>
      </trkpt>
      <trkpt lat="44.59085" lon="5.98814">
        <ele>1641.11</ele>
        <time>2015-10-22T09:00:46Z</time>
      </trkpt>
      <trkpt lat="44.59085" lon="5.98814">
        <ele>1641.11</ele>
        <time>2015-10-22T09:01:13Z</time>
      </trkpt>
      <trkpt lat="44.59082" lon="5.98812">
        <ele>1641.11</ele>
        <time>2015-10-22T09:01:30Z</time>
      </trkpt>
      <trkpt lat="44.59082" lon="5.9881">
        <ele>1641.59</ele>
        <time>2015-10-22T09:01:50Z</time>
      </trkpt>
      <trkpt lat="44.59082" lon="5.98811">
        <ele>1641.59</ele>
        <time>2015-10-22T09:02:11Z</time>
      </trkpt>
      <trkpt lat="44.59083" lon="5.9881">
        <ele>1641.59</ele>
        <time>2015-10-22T09:02:35Z</time>
      </trkpt>
      <trkpt lat="44.59086" lon="5.98811">
        <ele>1640.63</ele>
        <time>2015-10-22T09:02:47Z</time>
      </trkpt>
      <trkpt lat="44.59087" lon="5.98812">
        <ele>1640.63</ele>
        <time>2015-10-22T09:03:11Z</time>
      </trkpt>
      <trkpt lat="44.59085" lon="5.98808">
        <ele>1641.59</ele>
        <time>2015-10-22T09:03:22Z</time>
      </trkpt>
      <trkpt lat="44.59085" lon="5.98811">
        <ele>1642.07</ele>
        <time>2015-10-22T09:03:32Z</time>
      </trkpt>
      <trkpt lat="44.59087" lon="5.98811">
        <ele>1642.07</ele>
        <time>2015-10-22T09:03:54Z</time>
      </trkpt>
      <trkpt lat="44.59087" lon="5.98812">
        <ele>1641.59</ele>
        <time>2015-10-22T09:04:17Z</time>
      </trkpt>
      <trkpt lat="44.59087" lon="5.98812">
        <ele>1641.59</ele>
        <time>2015-10-22T09:04:51Z</time>
      </trkpt>
      <trkpt lat="44.59087" lon="5.98812">
        <ele>1643.03</ele>
        <time>2015-10-22T09:05:14Z</time>
      </trkpt>
      <trkpt lat="44.59088" lon="5.98807">
        <ele>1643.03</ele>
        <time>2015-10-22T09:05:25Z</time>
      </trkpt>
      <trkpt lat="44.59094" lon="5.98799">
        <ele>1643.99</ele>
        <time>2015-10-22T09:05:38Z</time>
      </trkpt>
      <trkpt lat="44.591" lon="5.9879">
        <ele>1645.43</ele>
        <time>2015-10-22T09:05:52Z</time>
      </trkpt>
      <trkpt lat="44.59105" lon="5.98781">
        <ele>1648.8</ele>
        <time>2015-10-22T09:06:07Z</time>
      </trkpt>
      <trkpt lat="44.59111" lon="5.98774">
        <ele>1649.76</ele>
        <time>2015-10-22T09:06:19Z</time>
      </trkpt>
      <trkpt lat="44.59118" lon="5.98764">
        <ele>1652.64</ele>
        <time>2015-10-22T09:06:34Z</time>
      </trkpt>
      <trkpt lat="44.59126" lon="5.98756">
        <ele>1654.09</ele>
        <time>2015-10-22T09:06:49Z</time>
      </trkpt>
      <trkpt lat="44.5913" lon="5.98751">
        <ele>1655.05</ele>
        <time>2015-10-22T09:07:01Z</time>
      </trkpt>
      <trkpt lat="44.59136" lon="5.98741">
        <ele>1657.93</ele>
        <time>2015-10-22T09:07:17Z</time>
      </trkpt>
      <trkpt lat="44.59143" lon="5.98731">
        <ele>1659.85</ele>
        <time>2015-10-22T09:07:33Z</time>
      </trkpt>
      <trkpt lat="44.59149" lon="5.98722">
        <ele>1662.26</ele>
        <time>2015-10-22T09:07:49Z</time>
      </trkpt>
      <trkpt lat="44.59154" lon="5.98716">
        <ele>1664.18</ele>
        <time>2015-10-22T09:08:02Z</time>
      </trkpt>
      <trkpt lat="44.59158" lon="5.98707">
        <ele>1667.54</ele>
        <time>2015-10-22T09:08:17Z</time>
      </trkpt>
      <trkpt lat="44.59165" lon="5.98702">
        <ele>1668.51</ele>
        <time>2015-10-22T09:08:31Z</time>
      </trkpt>
      <trkpt lat="44.59171" lon="5.98694">
        <ele>1670.91</ele>
        <time>2015-10-22T09:08:47Z</time>
      </trkpt>
      <trkpt lat="44.59176" lon="5.98684">
        <ele>1673.31</ele>
        <time>2015-10-22T09:09:03Z</time>
      </trkpt>
      <trkpt lat="44.59181" lon="5.98675">
        <ele>1675.23</ele>
        <time>2015-10-22T09:09:16Z</time>
      </trkpt>
      <trkpt lat="44.59187" lon="5.98667">
        <ele>1677.64</ele>
        <time>2015-10-22T09:09:33Z</time>
      </trkpt>
      <trkpt lat="44.59195" lon="5.98659">
        <ele>1679.56</ele>
        <time>2015-10-22T09:09:50Z</time>
      </trkpt>
      <trkpt lat="44.59202" lon="5.98645">
        <ele>1682.93</ele>
        <time>2015-10-22T09:10:10Z</time>
      </trkpt>
      <trkpt lat="44.59209" lon="5.98634">
        <ele>1684.37</ele>
        <time>2015-10-22T09:10:26Z</time>
      </trkpt>
      <trkpt lat="44.59219" lon="5.98629">
        <ele>1683.89</ele>
        <time>2015-10-22T09:10:40Z</time>
      </trkpt>
      <trkpt lat="44.59224" lon="5.98619">
        <ele>1686.77</ele>
        <time>2015-10-22T09:10:56Z</time>
      </trkpt>
      <trkpt lat="44.5923" lon="5.98611">
        <ele>1688.69</ele>
        <time>2015-10-22T09:11:11Z</time>
      </trkpt>
      <trkpt lat="44.59236" lon="5.98603">
        <ele>1690.62</ele>
        <time>2015-10-22T09:11:24Z</time>
      </trkpt>
      <trkpt lat="44.59244" lon="5.98595">
        <ele>1693.02</ele>
        <time>2015-10-22T09:11:41Z</time>
      </trkpt>
      <trkpt lat="44.5925" lon="5.98585">
        <ele>1694.94</ele>
        <time>2015-10-22T09:11:57Z</time>
      </trkpt>
      <trkpt lat="44.59256" lon="5.98576">
        <ele>1696.86</ele>
        <time>2015-10-22T09:12:11Z</time>
      </trkpt>
      <trkpt lat="44.59265" lon="5.98568">
        <ele>1698.31</ele>
        <time>2015-10-22T09:12:25Z</time>
      </trkpt>
      <trkpt lat="44.59267" lon="5.98567">
        <ele>1698.79</ele>
        <time>2015-10-22T09:12:30Z</time>
      </trkpt>
      <trkpt lat="44.59275" lon="5.98556">
        <ele>1700.71</ele>
        <time>2015-10-22T09:12:48Z</time>
      </trkpt>
      <trkpt lat="44.59282" lon="5.98547">
        <ele>1702.63</ele>
        <time>2015-10-22T09:13:02Z</time>
      </trkpt>
      <trkpt lat="44.59289" lon="5.9854">
        <ele>1704.55</ele>
        <time>2015-10-22T09:13:17Z</time>
      </trkpt>
      <trkpt lat="44.59294" lon="5.98529">
        <ele>1706.96</ele>
        <time>2015-10-22T09:13:32Z</time>
      </trkpt>
      <trkpt lat="44.59299" lon="5.98522">
        <ele>1708.88</ele>
        <time>2015-10-22T09:13:46Z</time>
      </trkpt>
      <trkpt lat="44.59306" lon="5.98515">
        <ele>1710.8</ele>
        <time>2015-10-22T09:14:00Z</time>
      </trkpt>
      <trkpt lat="44.59311" lon="5.98505">
        <ele>1713.69</ele>
        <time>2015-10-22T09:14:17Z</time>
      </trkpt>
      <trkpt lat="44.59316" lon="5.98495">
        <ele>1716.09</ele>
        <time>2015-10-22T09:14:31Z</time>
      </trkpt>
      <trkpt lat="44.59325" lon="5.98486">
        <ele>1717.53</ele>
        <time>2015-10-22T09:14:47Z</time>
      </trkpt>
      <trkpt lat="44.59329" lon="5.98478">
        <ele>1719.46</ele>
        <time>2015-10-22T09:15:00Z</time>
      </trkpt>
      <trkpt lat="44.59335" lon="5.98472">
        <ele>1720.9</ele>
        <time>2015-10-22T09:15:12Z</time>
      </trkpt>
      <trkpt lat="44.59342" lon="5.98463">
        <ele>1723.3</ele>
        <time>2015-10-22T09:15:28Z</time>
      </trkpt>
      <trkpt lat="44.59349" lon="5.98457">
        <ele>1725.22</ele>
        <time>2015-10-22T09:15:42Z</time>
      </trkpt>
      <trkpt lat="44.59355" lon="5.98446">
        <ele>1727.63</ele>
        <time>2015-10-22T09:15:59Z</time>
      </trkpt>
      <trkpt lat="44.59357" lon="5.98437">
        <ele>1730.03</ele>
        <time>2015-10-22T09:16:11Z</time>
      </trkpt>
      <trkpt lat="44.5936" lon="5.9843">
        <ele>1732.91</ele>
        <time>2015-10-22T09:16:22Z</time>
      </trkpt>
      <trkpt lat="44.59366" lon="5.9842">
        <ele>1733.88</ele>
        <time>2015-10-22T09:16:40Z</time>
      </trkpt>
      <trkpt lat="44.5937" lon="5.9841">
        <ele>1736.28</ele>
        <time>2015-10-22T09:16:54Z</time>
      </trkpt>
      <trkpt lat="44.59374" lon="5.98401">
        <ele>1738.2</ele>
        <time>2015-10-22T09:17:07Z</time>
      </trkpt>
      <trkpt lat="44.59381" lon="5.98392">
        <ele>1740.12</ele>
        <time>2015-10-22T09:17:23Z</time>
      </trkpt>
      <trkpt lat="44.59385" lon="5.98383">
        <ele>1742.05</ele>
        <time>2015-10-22T09:17:35Z</time>
      </trkpt>
      <trkpt lat="44.59393" lon="5.98379">
        <ele>1743.49</ele>
        <time>2015-10-22T09:17:49Z</time>
      </trkpt>
      <trkpt lat="44.59393" lon="5.98377">
        <ele>1743.49</ele>
        <time>2015-10-22T09:18:01Z</time>
      </trkpt>
      <trkpt lat="44.59394" lon="5.98377">
        <ele>1743.49</ele>
        <time>2015-10-22T09:18:18Z</time>
      </trkpt>
      <trkpt lat="44.59395" lon="5.98379">
        <ele>1743.49</ele>
        <time>2015-10-22T09:18:49Z</time>
      </trkpt>
      <trkpt lat="44.59394" lon="5.98379">
        <ele>1743.49</ele>
        <time>2015-10-22T09:19:16Z</time>
      </trkpt>
      <trkpt lat="44.59395" lon="5.98379">
        <ele>1743.49</ele>
        <time>2015-10-22T09:19:41Z</time>
      </trkpt>
      <trkpt lat="44.59395" lon="5.98379">
        <ele>1743.01</ele>
        <time>2015-10-22T09:20:07Z</time>
      </trkpt>
      <trkpt lat="44.59395" lon="5.9838">
        <ele>1743.01</ele>
        <time>2015-10-22T09:20:30Z</time>
      </trkpt>
      <trkpt lat="44.59395" lon="5.9838">
        <ele>1742.53</ele>
        <time>2015-10-22T09:20:55Z</time>
      </trkpt>
      <trkpt lat="44.59395" lon="5.98379">
        <ele>1742.53</ele>
        <time>2015-10-22T09:21:13Z</time>
      </trkpt>
      <trkpt lat="44.59395" lon="5.98378">
        <ele>1743.01</ele>
        <time>2015-10-22T09:21:35Z</time>
      </trkpt>
      <trkpt lat="44.59395" lon="5.98378">
        <ele>1743.49</ele>
        <time>2015-10-22T09:22:03Z</time>
      </trkpt>
      <trkpt lat="44.59395" lon="5.98378">
        <ele>1743.01</ele>
        <time>2015-10-22T09:22:33Z</time>
      </trkpt>
      <trkpt lat="44.59394" lon="5.98378">
        <ele>1743.01</ele>
        <time>2015-10-22T09:23:07Z</time>
      </trkpt>
      <trkpt lat="44.59394" lon="5.98377">
        <ele>1743.49</ele>
        <time>2015-10-22T09:23:36Z</time>
      </trkpt>
      <trkpt lat="44.59394" lon="5.98377">
        <ele>1742.53</ele>
        <time>2015-10-22T09:24:01Z</time>
      </trkpt>
      <trkpt lat="44.59394" lon="5.98378">
        <ele>1743.97</ele>
        <time>2015-10-22T09:24:27Z</time>
      </trkpt>
      <trkpt lat="44.59394" lon="5.98377">
        <ele>1742.53</ele>
        <time>2015-10-22T09:24:55Z</time>
      </trkpt>
      <trkpt lat="44.59394" lon="5.98378">
        <ele>1743.01</ele>
        <time>2015-10-22T09:25:18Z</time>
      </trkpt>
      <trkpt lat="44.59393" lon="5.98377">
        <ele>1743.01</ele>
        <time>2015-10-22T09:25:44Z</time>
      </trkpt>
      <trkpt lat="44.59393" lon="5.98377">
        <ele>1743.01</ele>
        <time>2015-10-22T09:26:10Z</time>
      </trkpt>
      <trkpt lat="44.59392" lon="5.98383">
        <ele>1743.01</ele>
        <time>2015-10-22T09:26:27Z</time>
      </trkpt>
      <trkpt lat="44.59388" lon="5.98387">
        <ele>1741.57</ele>
        <time>2015-10-22T09:26:33Z</time>
      </trkpt>
      <trkpt lat="44.59387" lon="5.98388">
        <ele>1741.08</ele>
        <time>2015-10-22T09:26:35Z</time>
      </trkpt>
      <trkpt lat="44.59384" lon="5.98389">
        <ele>1741.57</ele>
        <time>2015-10-22T09:26:52Z</time>
      </trkpt>
      <trkpt lat="44.59389" lon="5.98386">
        <ele>1741.08</ele>
        <time>2015-10-22T09:27:11Z</time>
      </trkpt>
      <trkpt lat="44.59396" lon="5.98376">
        <ele>1743.49</ele>
        <time>2015-10-22T09:27:26Z</time>
      </trkpt>
      <trkpt lat="44.594" lon="5.98366">
        <ele>1745.41</ele>
        <time>2015-10-22T09:27:40Z</time>
      </trkpt>
      <trkpt lat="44.59405" lon="5.98362">
        <ele>1747.33</ele>
        <time>2015-10-22T09:27:52Z</time>
      </trkpt>
      <trkpt lat="44.59413" lon="5.98354">
        <ele>1749.74</ele>
        <time>2015-10-22T09:28:08Z</time>
      </trkpt>
      <trkpt lat="44.59416" lon="5.98349">
        <ele>1751.66</ele>
        <time>2015-10-22T09:28:21Z</time>
      </trkpt>
      <trkpt lat="44.5942" lon="5.98345">
        <ele>1753.1</ele>
        <time>2015-10-22T09:28:34Z</time>
      </trkpt>
      <trkpt lat="44.59424" lon="5.98338">
        <ele>1755.5</ele>
        <time>2015-10-22T09:28:50Z</time>
      </trkpt>
      <trkpt lat="44.59429" lon="5.98332">
        <ele>1757.43</ele>
        <time>2015-10-22T09:29:03Z</time>
      </trkpt>
      <trkpt lat="44.59431" lon="5.98326">
        <ele>1759.83</ele>
        <time>2015-10-22T09:29:16Z</time>
      </trkpt>
      <trkpt lat="44.59439" lon="5.98323">
        <ele>1761.75</ele>
        <time>2015-10-22T09:29:28Z</time>
      </trkpt>
      <trkpt lat="44.59444" lon="5.98319">
        <ele>1763.2</ele>
        <time>2015-10-22T09:29:41Z</time>
      </trkpt>
      <trkpt lat="44.59447" lon="5.98312">
        <ele>1765.12</ele>
        <time>2015-10-22T09:29:52Z</time>
      </trkpt>
      <trkpt lat="44.59451" lon="5.983">
        <ele>1768.48</ele>
        <time>2015-10-22T09:30:09Z</time>
      </trkpt>
      <trkpt lat="44.59454" lon="5.98295">
        <ele>1770.41</ele>
        <time>2015-10-22T09:30:20Z</time>
      </trkpt>
      <trkpt lat="44.59457" lon="5.9829">
        <ele>1773.77</ele>
        <time>2015-10-22T09:30:30Z</time>
      </trkpt>
      <trkpt lat="44.5946" lon="5.98282">
        <ele>1774.25</ele>
        <time>2015-10-22T09:30:44Z</time>
      </trkpt>
      <trkpt lat="44.59462" lon="5.98272">
        <ele>1776.17</ele>
        <time>2015-10-22T09:30:57Z</time>
      </trkpt>
      <trkpt lat="44.59465" lon="5.98267">
        <ele>1778.58</ele>
        <time>2015-10-22T09:31:09Z</time>
      </trkpt>
      <trkpt lat="44.59468" lon="5.98259">
        <ele>1780.98</ele>
        <time>2015-10-22T09:31:24Z</time>
      </trkpt>
      <trkpt lat="44.5947" lon="5.98251">
        <ele>1783.38</ele>
        <time>2015-10-22T09:31:37Z</time>
      </trkpt>
      <trkpt lat="44.59475" lon="5.98246">
        <ele>1785.79</ele>
        <time>2015-10-22T09:31:50Z</time>
      </trkpt>
      <trkpt lat="44.5948" lon="5.98237">
        <ele>1787.71</ele>
        <time>2015-10-22T09:32:04Z</time>
      </trkpt>
      <trkpt lat="44.59485" lon="5.9823">
        <ele>1790.59</ele>
        <time>2015-10-22T09:32:21Z</time>
      </trkpt>
      <trkpt lat="44.5949" lon="5.98225">
        <ele>1793.48</ele>
        <time>2015-10-22T09:32:31Z</time>
      </trkpt>
      <trkpt lat="44.59492" lon="5.98222">
        <ele>1792.52</ele>
        <time>2015-10-22T09:32:35Z</time>
      </trkpt>
      <trkpt lat="44.59503" lon="5.98215">
        <ele>1792.52</ele>
        <time>2015-10-22T09:32:51Z</time>
      </trkpt>
      <trkpt lat="44.59512" lon="5.98216">
        <ele>1793</ele>
        <time>2015-10-22T09:33:05Z</time>
      </trkpt>
      <trkpt lat="44.59516" lon="5.98207">
        <ele>1796.36</ele>
        <time>2015-10-22T09:33:19Z</time>
      </trkpt>
      <trkpt lat="44.5952" lon="5.98199">
        <ele>1798.76</ele>
        <time>2015-10-22T09:33:33Z</time>
      </trkpt>
      <trkpt lat="44.59524" lon="5.98191">
        <ele>1801.17</ele>
        <time>2015-10-22T09:33:45Z</time>
      </trkpt>
      <trkpt lat="44.5953" lon="5.98184">
        <ele>1804.05</ele>
        <time>2015-10-22T09:34:01Z</time>
      </trkpt>
      <trkpt lat="44.59535" lon="5.98182">
        <ele>1805.49</ele>
        <time>2015-10-22T09:34:16Z</time>
      </trkpt>
      <trkpt lat="44.59542" lon="5.98177">
        <ele>1807.42</ele>
        <time>2015-10-22T09:34:28Z</time>
      </trkpt>
      <trkpt lat="44.59549" lon="5.98169">
        <ele>1808.86</ele>
        <time>2015-10-22T09:34:42Z</time>
      </trkpt>
      <trkpt lat="44.59557" lon="5.98163">
        <ele>1811.74</ele>
        <time>2015-10-22T09:34:55Z</time>
      </trkpt>
      <trkpt lat="44.59565" lon="5.98157">
        <ele>1813.18</ele>
        <time>2015-10-22T09:35:10Z</time>
      </trkpt>
      <trkpt lat="44.59577" lon="5.98151">
        <ele>1813.18</ele>
        <time>2015-10-22T09:35:26Z</time>
      </trkpt>
      <trkpt lat="44.59587" lon="5.98146">
        <ele>1814.15</ele>
        <time>2015-10-22T09:35:40Z</time>
      </trkpt>
      <trkpt lat="44.59598" lon="5.98141">
        <ele>1814.15</ele>
        <time>2015-10-22T09:35:55Z</time>
      </trkpt>
      <trkpt lat="44.59606" lon="5.98135">
        <ele>1816.55</ele>
        <time>2015-10-22T09:36:09Z</time>
      </trkpt>
      <trkpt lat="44.59616" lon="5.98128">
        <ele>1817.99</ele>
        <time>2015-10-22T09:36:24Z</time>
      </trkpt>
      <trkpt lat="44.59623" lon="5.98122">
        <ele>1818.95</ele>
        <time>2015-10-22T09:36:34Z</time>
      </trkpt>
      <trkpt lat="44.59632" lon="5.98117">
        <ele>1819.91</ele>
        <time>2015-10-22T09:36:47Z</time>
      </trkpt>
      <trkpt lat="44.5964" lon="5.98111">
        <ele>1821.84</ele>
        <time>2015-10-22T09:37:02Z</time>
      </trkpt>
      <trkpt lat="44.59647" lon="5.98104">
        <ele>1823.76</ele>
        <time>2015-10-22T09:37:16Z</time>
      </trkpt>
      <trkpt lat="44.59652" lon="5.98098">
        <ele>1825.68</ele>
        <time>2015-10-22T09:37:27Z</time>
      </trkpt>
      <trkpt lat="44.59657" lon="5.9809">
        <ele>1828.08</ele>
        <time>2015-10-22T09:37:41Z</time>
      </trkpt>
      <trkpt lat="44.59662" lon="5.98083">
        <ele>1830.01</ele>
        <time>2015-10-22T09:37:55Z</time>
      </trkpt>
      <trkpt lat="44.59667" lon="5.98074">
        <ele>1832.89</ele>
        <time>2015-10-22T09:38:11Z</time>
      </trkpt>
      <trkpt lat="44.59673" lon="5.98067">
        <ele>1835.29</ele>
        <time>2015-10-22T09:38:25Z</time>
      </trkpt>
      <trkpt lat="44.59679" lon="5.98058">
        <ele>1838.18</ele>
        <time>2015-10-22T09:38:42Z</time>
      </trkpt>
      <trkpt lat="44.59683" lon="5.98052">
        <ele>1840.1</ele>
        <time>2015-10-22T09:38:54Z</time>
      </trkpt>
      <trkpt lat="44.59686" lon="5.98044">
        <ele>1842.5</ele>
        <time>2015-10-22T09:39:07Z</time>
      </trkpt>
      <trkpt lat="44.59687" lon="5.98039">
        <ele>1844.91</ele>
        <time>2015-10-22T09:39:20Z</time>
      </trkpt>
      <trkpt lat="44.59691" lon="5.98032">
        <ele>1847.31</ele>
        <time>2015-10-22T09:39:33Z</time>
      </trkpt>
      <trkpt lat="44.59693" lon="5.98025">
        <ele>1849.71</ele>
        <time>2015-10-22T09:39:47Z</time>
      </trkpt>
      <trkpt lat="44.59696" lon="5.98019">
        <ele>1852.6</ele>
        <time>2015-10-22T09:40:01Z</time>
      </trkpt>
      <trkpt lat="44.59698" lon="5.98011">
        <ele>1855</ele>
        <time>2015-10-22T09:40:12Z</time>
      </trkpt>
      <trkpt lat="44.59702" lon="5.98006">
        <ele>1856.92</ele>
        <time>2015-10-22T09:40:23Z</time>
      </trkpt>
      <trkpt lat="44.59707" lon="5.97999">
        <ele>1859.81</ele>
        <time>2015-10-22T09:40:35Z</time>
      </trkpt>
      <trkpt lat="44.59711" lon="5.97995">
        <ele>1858.85</ele>
        <time>2015-10-22T09:40:48Z</time>
      </trkpt>
      <trkpt lat="44.59719" lon="5.97989">
        <ele>1859.33</ele>
        <time>2015-10-22T09:41:02Z</time>
      </trkpt>
      <trkpt lat="44.59726" lon="5.97981">
        <ele>1861.25</ele>
        <time>2015-10-22T09:41:17Z</time>
      </trkpt>
      <trkpt lat="44.59733" lon="5.9797">
        <ele>1864.13</ele>
        <time>2015-10-22T09:41:33Z</time>
      </trkpt>
      <trkpt lat="44.59737" lon="5.97964">
        <ele>1866.06</ele>
        <time>2015-10-22T09:41:44Z</time>
      </trkpt>
      <trkpt lat="44.59741" lon="5.97957">
        <ele>1867.98</ele>
        <time>2015-10-22T09:41:56Z</time>
      </trkpt>
      <trkpt lat="44.59747" lon="5.97948">
        <ele>1869.9</ele>
        <time>2015-10-22T09:42:10Z</time>
      </trkpt>
      <trkpt lat="44.59752" lon="5.97938">
        <ele>1871.82</ele>
        <time>2015-10-22T09:42:26Z</time>
      </trkpt>
      <trkpt lat="44.59757" lon="5.9793">
        <ele>1873.75</ele>
        <time>2015-10-22T09:42:38Z</time>
      </trkpt>
      <trkpt lat="44.59762" lon="5.97922">
        <ele>1876.15</ele>
        <time>2015-10-22T09:42:53Z</time>
      </trkpt>
      <trkpt lat="44.59765" lon="5.97912">
        <ele>1878.07</ele>
        <time>2015-10-22T09:43:07Z</time>
      </trkpt>
      <trkpt lat="44.59771" lon="5.97902">
        <ele>1880.48</ele>
        <time>2015-10-22T09:43:23Z</time>
      </trkpt>
      <trkpt lat="44.59779" lon="5.9789">
        <ele>1881.92</ele>
        <time>2015-10-22T09:43:39Z</time>
      </trkpt>
      <trkpt lat="44.59786" lon="5.97882">
        <ele>1883.84</ele>
        <time>2015-10-22T09:43:54Z</time>
      </trkpt>
      <trkpt lat="44.5979" lon="5.97875">
        <ele>1885.28</ele>
        <time>2015-10-22T09:44:06Z</time>
      </trkpt>
      <trkpt lat="44.59793" lon="5.97864">
        <ele>1887.69</ele>
        <time>2015-10-22T09:44:24Z</time>
      </trkpt>
      <trkpt lat="44.59799" lon="5.97857">
        <ele>1892.01</ele>
        <time>2015-10-22T09:44:38Z</time>
      </trkpt>
      <trkpt lat="44.59806" lon="5.9785">
        <ele>1891.53</ele>
        <time>2015-10-22T09:44:52Z</time>
      </trkpt>
      <trkpt lat="44.59814" lon="5.97841">
        <ele>1892.01</ele>
        <time>2015-10-22T09:45:08Z</time>
      </trkpt>
      <trkpt lat="44.5982" lon="5.97831">
        <ele>1892.97</ele>
        <time>2015-10-22T09:45:22Z</time>
      </trkpt>
      <trkpt lat="44.59823" lon="5.97824">
        <ele>1893.45</ele>
        <time>2015-10-22T09:45:38Z</time>
      </trkpt>
      <trkpt lat="44.59828" lon="5.97815">
        <ele>1894.42</ele>
        <time>2015-10-22T09:45:49Z</time>
      </trkpt>
      <trkpt lat="44.59834" lon="5.97801">
        <ele>1896.34</ele>
        <time>2015-10-22T09:46:04Z</time>
      </trkpt>
      <trkpt lat="44.59835" lon="5.97795">
        <ele>1896.34</ele>
        <time>2015-10-22T09:46:19Z</time>
      </trkpt>
      <trkpt lat="44.59838" lon="5.97782">
        <ele>1897.78</ele>
        <time>2015-10-22T09:46:34Z</time>
      </trkpt>
      <trkpt lat="44.59842" lon="5.9777">
        <ele>1899.22</ele>
        <time>2015-10-22T09:46:49Z</time>
      </trkpt>
      <trkpt lat="44.59842" lon="5.97771">
        <ele>1900.18</ele>
        <time>2015-10-22T09:47:03Z</time>
      </trkpt>
      <trkpt lat="44.59844" lon="5.97771">
        <ele>1899.7</ele>
        <time>2015-10-22T09:47:19Z</time>
      </trkpt>
      <trkpt lat="44.59847" lon="5.97772">
        <ele>1899.7</ele>
        <time>2015-10-22T09:47:47Z</time>
      </trkpt>
      <trkpt lat="44.59847" lon="5.97774">
        <ele>1899.7</ele>
        <time>2015-10-22T09:48:16Z</time>
      </trkpt>
      <trkpt lat="44.59846" lon="5.97773">
        <ele>1899.22</ele>
        <time>2015-10-22T09:48:45Z</time>
      </trkpt>
      <trkpt lat="44.59846" lon="5.97773">
        <ele>1899.22</ele>
        <time>2015-10-22T09:49:19Z</time>
      </trkpt>
      <trkpt lat="44.59843" lon="5.97772">
        <ele>1899.22</ele>
        <time>2015-10-22T09:49:39Z</time>
      </trkpt>
      <trkpt lat="44.59846" lon="5.97773">
        <ele>1899.22</ele>
        <time>2015-10-22T09:50:06Z</time>
      </trkpt>
      <trkpt lat="44.59845" lon="5.97772">
        <ele>1899.22</ele>
        <time>2015-10-22T09:50:36Z</time>
      </trkpt>
      <trkpt lat="44.59845" lon="5.97771">
        <ele>1899.22</ele>
        <time>2015-10-22T09:51:02Z</time>
      </trkpt>
      <trkpt lat="44.59843" lon="5.97771">
        <ele>1898.74</ele>
        <time>2015-10-22T09:51:26Z</time>
      </trkpt>
      <trkpt lat="44.59843" lon="5.97771">
        <ele>1898.74</ele>
        <time>2015-10-22T09:51:53Z</time>
      </trkpt>
      <trkpt lat="44.59845" lon="5.97773">
        <ele>1898.74</ele>
        <time>2015-10-22T09:52:27Z</time>
      </trkpt>
      <trkpt lat="44.59845" lon="5.97772">
        <ele>1899.22</ele>
        <time>2015-10-22T09:52:59Z</time>
      </trkpt>
      <trkpt lat="44.59846" lon="5.97772">
        <ele>1898.74</ele>
        <time>2015-10-22T09:53:29Z</time>
      </trkpt>
      <trkpt lat="44.59844" lon="5.97773">
        <ele>1898.74</ele>
        <time>2015-10-22T09:53:50Z</time>
      </trkpt>
      <trkpt lat="44.59843" lon="5.97771">
        <ele>1898.74</ele>
        <time>2015-10-22T09:54:24Z</time>
      </trkpt>
      <trkpt lat="44.59843" lon="5.97772">
        <ele>1898.74</ele>
        <time>2015-10-22T09:54:51Z</time>
      </trkpt>
      <trkpt lat="44.59843" lon="5.9777">
        <ele>1898.74</ele>
        <time>2015-10-22T09:55:11Z</time>
      </trkpt>
      <trkpt lat="44.59842" lon="5.97777">
        <ele>1897.78</ele>
        <time>2015-10-22T09:55:25Z</time>
      </trkpt>
      <trkpt lat="44.5984" lon="5.97781">
        <ele>1896.82</ele>
        <time>2015-10-22T09:55:39Z</time>
      </trkpt>
      <trkpt lat="44.59839" lon="5.97788">
        <ele>1896.34</ele>
        <time>2015-10-22T09:55:56Z</time>
      </trkpt>
      <trkpt lat="44.59835" lon="5.97795">
        <ele>1895.86</ele>
        <time>2015-10-22T09:56:09Z</time>
      </trkpt>
      <trkpt lat="44.59835" lon="5.97793">
        <ele>1896.34</ele>
        <time>2015-10-22T09:56:28Z</time>
      </trkpt>
      <trkpt lat="44.59837" lon="5.97794">
        <ele>1897.3</ele>
        <time>2015-10-22T09:56:45Z</time>
      </trkpt>
      <trkpt lat="44.59837" lon="5.97794">
        <ele>1895.86</ele>
        <time>2015-10-22T09:57:08Z</time>
      </trkpt>
      <trkpt lat="44.59837" lon="5.97791">
        <ele>1895.86</ele>
        <time>2015-10-22T09:57:26Z</time>
      </trkpt>
      <trkpt lat="44.59835" lon="5.97797">
        <ele>1895.38</ele>
        <time>2015-10-22T09:57:41Z</time>
      </trkpt>
      <trkpt lat="44.59833" lon="5.97803">
        <ele>1895.38</ele>
        <time>2015-10-22T09:58:04Z</time>
      </trkpt>
      <trkpt lat="44.59833" lon="5.97805">
        <ele>1894.9</ele>
        <time>2015-10-22T09:58:20Z</time>
      </trkpt>
      <trkpt lat="44.59832" lon="5.97803">
        <ele>1894.9</ele>
        <time>2015-10-22T09:58:40Z</time>
      </trkpt>
      <trkpt lat="44.59833" lon="5.97803">
        <ele>1893.45</ele>
        <time>2015-10-22T09:58:55Z</time>
      </trkpt>
      <trkpt lat="44.59834" lon="5.97806">
        <ele>1892.97</ele>
        <time>2015-10-22T09:59:20Z</time>
      </trkpt>
      <trkpt lat="44.59834" lon="5.97806">
        <ele>1892.97</ele>
        <time>2015-10-22T09:59:54Z</time>
      </trkpt>
      <trkpt lat="44.59832" lon="5.97804">
        <ele>1894.42</ele>
        <time>2015-10-22T10:00:06Z</time>
      </trkpt>
      <trkpt lat="44.59833" lon="5.97801">
        <ele>1894.42</ele>
        <time>2015-10-22T10:00:17Z</time>
      </trkpt>
      <trkpt lat="44.59836" lon="5.97794">
        <ele>1894.42</ele>
        <time>2015-10-22T10:00:33Z</time>
      </trkpt>
      <trkpt lat="44.5984" lon="5.97783">
        <ele>1896.34</ele>
        <time>2015-10-22T10:00:47Z</time>
      </trkpt>
      <trkpt lat="44.59841" lon="5.97779">
        <ele>1895.38</ele>
        <time>2015-10-22T10:00:51Z</time>
      </trkpt>
      <trkpt lat="44.59843" lon="5.97769">
        <ele>1897.78</ele>
        <time>2015-10-22T10:01:05Z</time>
      </trkpt>
      <trkpt lat="44.59845" lon="5.9776">
        <ele>1899.7</ele>
        <time>2015-10-22T10:01:18Z</time>
      </trkpt>
      <trkpt lat="44.59851" lon="5.9775">
        <ele>1900.66</ele>
        <time>2015-10-22T10:01:33Z</time>
      </trkpt>
      <trkpt lat="44.59856" lon="5.9774">
        <ele>1902.11</ele>
        <time>2015-10-22T10:01:48Z</time>
      </trkpt>
      <trkpt lat="44.59859" lon="5.97728">
        <ele>1903.07</ele>
        <time>2015-10-22T10:02:02Z</time>
      </trkpt>
      <trkpt lat="44.59864" lon="5.97715">
        <ele>1904.51</ele>
        <time>2015-10-22T10:02:18Z</time>
      </trkpt>
      <trkpt lat="44.59868" lon="5.97704">
        <ele>1905.95</ele>
        <time>2015-10-22T10:02:32Z</time>
      </trkpt>
      <trkpt lat="44.5987" lon="5.97692">
        <ele>1908.83</ele>
        <time>2015-10-22T10:02:47Z</time>
      </trkpt>
      <trkpt lat="44.59871" lon="5.97683">
        <ele>1911.72</ele>
        <time>2015-10-22T10:03:03Z</time>
      </trkpt>
      <trkpt lat="44.59872" lon="5.97671">
        <ele>1914.12</ele>
        <time>2015-10-22T10:03:18Z</time>
      </trkpt>
      <trkpt lat="44.59874" lon="5.97661">
        <ele>1916.04</ele>
        <time>2015-10-22T10:03:32Z</time>
      </trkpt>
      <trkpt lat="44.59875" lon="5.97655">
        <ele>1918.93</ele>
        <time>2015-10-22T10:03:45Z</time>
      </trkpt>
      <trkpt lat="44.59877" lon="5.9765">
        <ele>1921.33</ele>
        <time>2015-10-22T10:03:58Z</time>
      </trkpt>
      <trkpt lat="44.59879" lon="5.97643">
        <ele>1923.25</ele>
        <time>2015-10-22T10:04:12Z</time>
      </trkpt>
      <trkpt lat="44.59877" lon="5.97634">
        <ele>1925.66</ele>
        <time>2015-10-22T10:04:26Z</time>
      </trkpt>
      <trkpt lat="44.59879" lon="5.97623">
        <ele>1927.58</ele>
        <time>2015-10-22T10:04:40Z</time>
      </trkpt>
      <trkpt lat="44.59881" lon="5.97612">
        <ele>1929.02</ele>
        <time>2015-10-22T10:04:55Z</time>
      </trkpt>
      <trkpt lat="44.59883" lon="5.97603">
        <ele>1930.46</ele>
        <time>2015-10-22T10:05:07Z</time>
      </trkpt>
      <trkpt lat="44.59884" lon="5.97592">
        <ele>1932.87</ele>
        <time>2015-10-22T10:05:22Z</time>
      </trkpt>
      <trkpt lat="44.59885" lon="5.9758">
        <ele>1934.79</ele>
        <time>2015-10-22T10:05:37Z</time>
      </trkpt>
      <trkpt lat="44.59887" lon="5.97571">
        <ele>1936.71</ele>
        <time>2015-10-22T10:05:50Z</time>
      </trkpt>
      <trkpt lat="44.59889" lon="5.97562">
        <ele>1938.64</ele>
        <time>2015-10-22T10:06:04Z</time>
      </trkpt>
      <trkpt lat="44.59891" lon="5.97552">
        <ele>1941.52</ele>
        <time>2015-10-22T10:06:20Z</time>
      </trkpt>
      <trkpt lat="44.59894" lon="5.97538">
        <ele>1943.92</ele>
        <time>2015-10-22T10:06:36Z</time>
      </trkpt>
      <trkpt lat="44.59895" lon="5.97528">
        <ele>1947.29</ele>
        <time>2015-10-22T10:06:50Z</time>
      </trkpt>
      <trkpt lat="44.59896" lon="5.97516">
        <ele>1947.29</ele>
        <time>2015-10-22T10:07:02Z</time>
      </trkpt>
      <trkpt lat="44.59897" lon="5.9751">
        <ele>1949.21</ele>
        <time>2015-10-22T10:07:14Z</time>
      </trkpt>
      <trkpt lat="44.59898" lon="5.97503">
        <ele>1950.65</ele>
        <time>2015-10-22T10:07:27Z</time>
      </trkpt>
      <trkpt lat="44.599" lon="5.97497">
        <ele>1952.09</ele>
        <time>2015-10-22T10:07:40Z</time>
      </trkpt>
      <trkpt lat="44.599" lon="5.97491">
        <ele>1953.54</ele>
        <time>2015-10-22T10:07:52Z</time>
      </trkpt>
      <trkpt lat="44.59901" lon="5.97486">
        <ele>1955.94</ele>
        <time>2015-10-22T10:08:05Z</time>
      </trkpt>
      <trkpt lat="44.59901" lon="5.97483">
        <ele>1955.94</ele>
        <time>2015-10-22T10:08:25Z</time>
      </trkpt>
      <trkpt lat="44.59902" lon="5.97484">
        <ele>1957.38</ele>
        <time>2015-10-22T10:08:44Z</time>
      </trkpt>
      <trkpt lat="44.59902" lon="5.97485">
        <ele>1956.42</ele>
        <time>2015-10-22T10:09:06Z</time>
      </trkpt>
      <trkpt lat="44.59903" lon="5.97485">
        <ele>1956.42</ele>
        <time>2015-10-22T10:09:37Z</time>
      </trkpt>
      <trkpt lat="44.59904" lon="5.97471">
        <ele>1956.9</ele>
        <time>2015-10-22T10:09:58Z</time>
      </trkpt>
      <trkpt lat="44.59905" lon="5.97463">
        <ele>1957.38</ele>
        <time>2015-10-22T10:10:05Z</time>
      </trkpt>
      <trkpt lat="44.59908" lon="5.97448">
        <ele>1959.3</ele>
        <time>2015-10-22T10:10:19Z</time>
      </trkpt>
      <trkpt lat="44.5991" lon="5.97436">
        <ele>1961.23</ele>
        <time>2015-10-22T10:10:32Z</time>
      </trkpt>
      <trkpt lat="44.59912" lon="5.97423">
        <ele>1962.19</ele>
        <time>2015-10-22T10:10:44Z</time>
      </trkpt>
      <trkpt lat="44.59916" lon="5.97411">
        <ele>1963.63</ele>
        <time>2015-10-22T10:11:00Z</time>
      </trkpt>
      <trkpt lat="44.59919" lon="5.97397">
        <ele>1964.59</ele>
        <time>2015-10-22T10:11:15Z</time>
      </trkpt>
      <trkpt lat="44.59922" lon="5.97384">
        <ele>1965.55</ele>
        <time>2015-10-22T10:11:31Z</time>
      </trkpt>
      <trkpt lat="44.59923" lon="5.97372">
        <ele>1967.48</ele>
        <time>2015-10-22T10:11:44Z</time>
      </trkpt>
      <trkpt lat="44.59925" lon="5.97361">
        <ele>1968.44</ele>
        <time>2015-10-22T10:11:59Z</time>
      </trkpt>
      <trkpt lat="44.59926" lon="5.97348">
        <ele>1970.84</ele>
        <time>2015-10-22T10:12:14Z</time>
      </trkpt>
      <trkpt lat="44.59927" lon="5.97338">
        <ele>1971.8</ele>
        <time>2015-10-22T10:12:26Z</time>
      </trkpt>
      <trkpt lat="44.5993" lon="5.97325">
        <ele>1972.28</ele>
        <time>2015-10-22T10:12:39Z</time>
      </trkpt>
      <trkpt lat="44.5993" lon="5.97322">
        <ele>1973.24</ele>
        <time>2015-10-22T10:12:55Z</time>
      </trkpt>
      <trkpt lat="44.5993" lon="5.97307">
        <ele>1975.65</ele>
        <time>2015-10-22T10:13:09Z</time>
      </trkpt>
      <trkpt lat="44.59931" lon="5.97295">
        <ele>1977.09</ele>
        <time>2015-10-22T10:13:22Z</time>
      </trkpt>
      <trkpt lat="44.59931" lon="5.97286">
        <ele>1978.53</ele>
        <time>2015-10-22T10:13:34Z</time>
      </trkpt>
      <trkpt lat="44.59931" lon="5.97272">
        <ele>1979.01</ele>
        <time>2015-10-22T10:13:48Z</time>
      </trkpt>
      <trkpt lat="44.59931" lon="5.97257">
        <ele>1979.49</ele>
        <time>2015-10-22T10:14:03Z</time>
      </trkpt>
      <trkpt lat="44.59928" lon="5.9725">
        <ele>1981.9</ele>
        <time>2015-10-22T10:14:16Z</time>
      </trkpt>
      <trkpt lat="44.59924" lon="5.9724">
        <ele>1984.78</ele>
        <time>2015-10-22T10:14:30Z</time>
      </trkpt>
      <trkpt lat="44.59921" lon="5.97226">
        <ele>1986.22</ele>
        <time>2015-10-22T10:14:46Z</time>
      </trkpt>
      <trkpt lat="44.5992" lon="5.97213">
        <ele>1987.18</ele>
        <time>2015-10-22T10:15:00Z</time>
      </trkpt>
      <trkpt lat="44.59917" lon="5.97201">
        <ele>1988.14</ele>
        <time>2015-10-22T10:15:13Z</time>
      </trkpt>
      <trkpt lat="44.59914" lon="5.97188">
        <ele>1989.59</ele>
        <time>2015-10-22T10:15:28Z</time>
      </trkpt>
      <trkpt lat="44.59912" lon="5.97176">
        <ele>1990.55</ele>
        <time>2015-10-22T10:15:42Z</time>
      </trkpt>
      <trkpt lat="44.59913" lon="5.97168">
        <ele>1990.07</ele>
        <time>2015-10-22T10:15:52Z</time>
      </trkpt>
      <trkpt lat="44.5991" lon="5.97156">
        <ele>1991.51</ele>
        <time>2015-10-22T10:16:06Z</time>
      </trkpt>
      <trkpt lat="44.59908" lon="5.97144">
        <ele>1991.03</ele>
        <time>2015-10-22T10:16:20Z</time>
      </trkpt>
      <trkpt lat="44.59906" lon="5.9714">
        <ele>1990.55</ele>
        <time>2015-10-22T10:16:35Z</time>
      </trkpt>
      <trkpt lat="44.59903" lon="5.97127">
        <ele>1991.03</ele>
        <time>2015-10-22T10:16:51Z</time>
      </trkpt>
      <trkpt lat="44.59902" lon="5.97118">
        <ele>1990.55</ele>
        <time>2015-10-22T10:17:04Z</time>
      </trkpt>
      <trkpt lat="44.59899" lon="5.97107">
        <ele>1990.07</ele>
        <time>2015-10-22T10:17:17Z</time>
      </trkpt>
      <trkpt lat="44.59894" lon="5.97092">
        <ele>1991.51</ele>
        <time>2015-10-22T10:17:33Z</time>
      </trkpt>
      <trkpt lat="44.59889" lon="5.97076">
        <ele>1992.47</ele>
        <time>2015-10-22T10:17:50Z</time>
      </trkpt>
      <trkpt lat="44.59886" lon="5.97062">
        <ele>1991.99</ele>
        <time>2015-10-22T10:18:05Z</time>
      </trkpt>
      <trkpt lat="44.5988" lon="5.97051">
        <ele>1991.03</ele>
        <time>2015-10-22T10:18:21Z</time>
      </trkpt>
      <trkpt lat="44.59879" lon="5.97038">
        <ele>1988.14</ele>
        <time>2015-10-22T10:18:35Z</time>
      </trkpt>
      <trkpt lat="44.59875" lon="5.97022">
        <ele>1987.66</ele>
        <time>2015-10-22T10:18:49Z</time>
      </trkpt>
      <trkpt lat="44.59872" lon="5.97005">
        <ele>1988.62</ele>
        <time>2015-10-22T10:19:05Z</time>
      </trkpt>
      <trkpt lat="44.59871" lon="5.97002">
        <ele>1988.14</ele>
        <time>2015-10-22T10:19:09Z</time>
      </trkpt>
      <trkpt lat="44.59871" lon="5.96995">
        <ele>1988.14</ele>
        <time>2015-10-22T10:19:15Z</time>
      </trkpt>
      <trkpt lat="44.59869" lon="5.96979">
        <ele>1989.59</ele>
        <time>2015-10-22T10:19:30Z</time>
      </trkpt>
      <trkpt lat="44.59869" lon="5.96959">
        <ele>1989.1</ele>
        <time>2015-10-22T10:19:48Z</time>
      </trkpt>
      <trkpt lat="44.59869" lon="5.96942">
        <ele>1988.62</ele>
        <time>2015-10-22T10:20:03Z</time>
      </trkpt>
      <trkpt lat="44.59869" lon="5.96924">
        <ele>1988.62</ele>
        <time>2015-10-22T10:20:18Z</time>
      </trkpt>
      <trkpt lat="44.5987" lon="5.9691">
        <ele>1988.62</ele>
        <time>2015-10-22T10:20:32Z</time>
      </trkpt>
      <trkpt lat="44.59871" lon="5.96893">
        <ele>1989.1</ele>
        <time>2015-10-22T10:20:48Z</time>
      </trkpt>
      <trkpt lat="44.59872" lon="5.96885">
        <ele>1989.59</ele>
        <time>2015-10-22T10:21:00Z</time>
      </trkpt>
      <trkpt lat="44.59872" lon="5.96882">
        <ele>1989.1</ele>
        <time>2015-10-22T10:21:13Z</time>
      </trkpt>
      <trkpt lat="44.59872" lon="5.96881">
        <ele>1989.1</ele>
        <time>2015-10-22T10:21:36Z</time>
      </trkpt>
      <trkpt lat="44.59872" lon="5.96882">
        <ele>1989.1</ele>
        <time>2015-10-22T10:21:59Z</time>
      </trkpt>
      <trkpt lat="44.59871" lon="5.96882">
        <ele>1988.62</ele>
        <time>2015-10-22T10:22:14Z</time>
      </trkpt>
      <trkpt lat="44.59872" lon="5.96884">
        <ele>1989.1</ele>
        <time>2015-10-22T10:22:28Z</time>
      </trkpt>
      <trkpt lat="44.59872" lon="5.96888">
        <ele>1989.1</ele>
        <time>2015-10-22T10:22:43Z</time>
      </trkpt>
      <trkpt lat="44.59872" lon="5.96886">
        <ele>1989.1</ele>
        <time>2015-10-22T10:23:06Z</time>
      </trkpt>
      <trkpt lat="44.59873" lon="5.96885">
        <ele>1988.62</ele>
        <time>2015-10-22T10:23:24Z</time>
      </trkpt>
      <trkpt lat="44.59873" lon="5.96885">
        <ele>1988.62</ele>
        <time>2015-10-22T10:23:49Z</time>
      </trkpt>
      <trkpt lat="44.59873" lon="5.96885">
        <ele>1988.62</ele>
        <time>2015-10-22T10:24:19Z</time>
      </trkpt>
      <trkpt lat="44.59873" lon="5.96885">
        <ele>1989.1</ele>
        <time>2015-10-22T10:24:36Z</time>
      </trkpt>
      <trkpt lat="44.59873" lon="5.96886">
        <ele>1989.1</ele>
        <time>2015-10-22T10:24:56Z</time>
      </trkpt>
      <trkpt lat="44.59873" lon="5.96886">
        <ele>1988.62</ele>
        <time>2015-10-22T10:25:15Z</time>
      </trkpt>
      <trkpt lat="44.59873" lon="5.96885">
        <ele>1989.1</ele>
        <time>2015-10-22T10:25:38Z</time>
      </trkpt>
      <trkpt lat="44.59873" lon="5.96886">
        <ele>1988.62</ele>
        <time>2015-10-22T10:26:01Z</time>
      </trkpt>
      <trkpt lat="44.59874" lon="5.96885">
        <ele>1988.14</ele>
        <time>2015-10-22T10:26:16Z</time>
      </trkpt>
      <trkpt lat="44.59874" lon="5.96886">
        <ele>1988.62</ele>
        <time>2015-10-22T10:26:43Z</time>
      </trkpt>
      <trkpt lat="44.59874" lon="5.96882">
        <ele>1988.62</ele>
        <time>2015-10-22T10:27:02Z</time>
      </trkpt>
      <trkpt lat="44.59874" lon="5.96883">
        <ele>1989.1</ele>
        <time>2015-10-22T10:27:20Z</time>
      </trkpt>
      <trkpt lat="44.59873" lon="5.96884">
        <ele>1989.1</ele>
        <time>2015-10-22T10:27:54Z</time>
      </trkpt>
      <trkpt lat="44.59873" lon="5.96884">
        <ele>1988.62</ele>
        <time>2015-10-22T10:28:25Z</time>
      </trkpt>
      <trkpt lat="44.59872" lon="5.96884">
        <ele>1989.1</ele>
        <time>2015-10-22T10:29:05Z</time>
      </trkpt>
      <trkpt lat="44.59873" lon="5.96885">
        <ele>1989.1</ele>
        <time>2015-10-22T10:29:42Z</time>
      </trkpt>
      <trkpt lat="44.59873" lon="5.96884">
        <ele>1989.1</ele>
        <time>2015-10-22T10:30:10Z</time>
      </trkpt>
      <trkpt lat="44.59873" lon="5.96884">
        <ele>1988.62</ele>
        <time>2015-10-22T10:30:38Z</time>
      </trkpt>
      <trkpt lat="44.59873" lon="5.96885">
        <ele>1989.1</ele>
        <time>2015-10-22T10:30:52Z</time>
      </trkpt>
      <trkpt lat="44.59873" lon="5.96885">
        <ele>1989.1</ele>
        <time>2015-10-22T10:31:25Z</time>
      </trkpt>
      <trkpt lat="44.59874" lon="5.96885">
        <ele>1989.1</ele>
        <time>2015-10-22T10:31:59Z</time>
      </trkpt>
      <trkpt lat="44.59873" lon="5.96885">
        <ele>1989.1</ele>
        <time>2015-10-22T10:32:25Z</time>
      </trkpt>
      <trkpt lat="44.59873" lon="5.96885">
        <ele>1988.62</ele>
        <time>2015-10-22T10:32:52Z</time>
      </trkpt>
      <trkpt lat="44.59873" lon="5.96885">
        <ele>1989.1</ele>
        <time>2015-10-22T10:33:23Z</time>
      </trkpt>
      <trkpt lat="44.59873" lon="5.96885">
        <ele>1989.1</ele>
        <time>2015-10-22T10:33:45Z</time>
      </trkpt>
      <trkpt lat="44.59872" lon="5.96884">
        <ele>1988.62</ele>
        <time>2015-10-22T10:34:11Z</time>
      </trkpt>
      <trkpt lat="44.59871" lon="5.96882">
        <ele>1988.62</ele>
        <time>2015-10-22T10:34:26Z</time>
      </trkpt>
      <trkpt lat="44.5987" lon="5.96873">
        <ele>1986.7</ele>
        <time>2015-10-22T10:34:40Z</time>
      </trkpt>
      <trkpt lat="44.59869" lon="5.96866">
        <ele>1984.3</ele>
        <time>2015-10-22T10:34:51Z</time>
      </trkpt>
      <trkpt lat="44.59867" lon="5.96862">
        <ele>1981.9</ele>
        <time>2015-10-22T10:35:03Z</time>
      </trkpt>
      <trkpt lat="44.59863" lon="5.96863">
        <ele>1979.97</ele>
        <time>2015-10-22T10:35:15Z</time>
      </trkpt>
      <trkpt lat="44.59859" lon="5.96864">
        <ele>1977.57</ele>
        <time>2015-10-22T10:35:31Z</time>
      </trkpt>
      <trkpt lat="44.59858" lon="5.96862">
        <ele>1976.61</ele>
        <time>2015-10-22T10:35:48Z</time>
      </trkpt>
      <trkpt lat="44.59856" lon="5.96861">
        <ele>1975.17</ele>
        <time>2015-10-22T10:35:59Z</time>
      </trkpt>
      <trkpt lat="44.59858" lon="5.96855">
        <ele>1973.72</ele>
        <time>2015-10-22T10:36:18Z</time>
      </trkpt>
      <trkpt lat="44.59856" lon="5.96851">
        <ele>1971.32</ele>
        <time>2015-10-22T10:36:31Z</time>
      </trkpt>
      <trkpt lat="44.59857" lon="5.96844">
        <ele>1969.4</ele>
        <time>2015-10-22T10:36:43Z</time>
      </trkpt>
      <trkpt lat="44.59859" lon="5.96835">
        <ele>1966.51</ele>
        <time>2015-10-22T10:36:56Z</time>
      </trkpt>
      <trkpt lat="44.59859" lon="5.96832">
        <ele>1965.55</ele>
        <time>2015-10-22T10:37:00Z</time>
      </trkpt>
      <trkpt lat="44.59858" lon="5.96829">
        <ele>1964.11</ele>
        <time>2015-10-22T10:37:06Z</time>
      </trkpt>
      <trkpt lat="44.59855" lon="5.96829">
        <ele>1962.19</ele>
        <time>2015-10-22T10:37:18Z</time>
      </trkpt>
      <trkpt lat="44.59855" lon="5.96823">
        <ele>1960.75</ele>
        <time>2015-10-22T10:37:28Z</time>
      </trkpt>
      <trkpt lat="44.59858" lon="5.96814">
        <ele>1957.86</ele>
        <time>2015-10-22T10:37:41Z</time>
      </trkpt>
      <trkpt lat="44.59858" lon="5.96805">
        <ele>1954.98</ele>
        <time>2015-10-22T10:37:55Z</time>
      </trkpt>
      <trkpt lat="44.59857" lon="5.968">
        <ele>1951.61</ele>
        <time>2015-10-22T10:38:05Z</time>
      </trkpt>
      <trkpt lat="44.59857" lon="5.96802">
        <ele>1951.61</ele>
        <time>2015-10-22T10:38:28Z</time>
      </trkpt>
      <trkpt lat="44.59855" lon="5.96801">
        <ele>1952.09</ele>
        <time>2015-10-22T10:38:51Z</time>
      </trkpt>
      <trkpt lat="44.59855" lon="5.968">
        <ele>1952.09</ele>
        <time>2015-10-22T10:39:07Z</time>
      </trkpt>
      <trkpt lat="44.59857" lon="5.96798">
        <ele>1952.09</ele>
        <time>2015-10-22T10:39:23Z</time>
      </trkpt>
      <trkpt lat="44.59858" lon="5.96801">
        <ele>1952.09</ele>
        <time>2015-10-22T10:39:43Z</time>
      </trkpt>
      <trkpt lat="44.59856" lon="5.96799">
        <ele>1952.09</ele>
        <time>2015-10-22T10:40:00Z</time>
      </trkpt>
      <trkpt lat="44.59856" lon="5.96801">
        <ele>1951.61</ele>
        <time>2015-10-22T10:40:15Z</time>
      </trkpt>
      <trkpt lat="44.59856" lon="5.96801">
        <ele>1951.13</ele>
        <time>2015-10-22T10:40:37Z</time>
      </trkpt>
      <trkpt lat="44.59856" lon="5.96793">
        <ele>1949.69</ele>
        <time>2015-10-22T10:40:47Z</time>
      </trkpt>
      <trkpt lat="44.59854" lon="5.96785">
        <ele>1948.25</ele>
        <time>2015-10-22T10:40:59Z</time>
      </trkpt>
      <trkpt lat="44.59853" lon="5.96779">
        <ele>1944.88</ele>
        <time>2015-10-22T10:41:09Z</time>
      </trkpt>
      <trkpt lat="44.59853" lon="5.96771">
        <ele>1942.96</ele>
        <time>2015-10-22T10:41:17Z</time>
      </trkpt>
      <trkpt lat="44.59851" lon="5.96763">
        <ele>1940.08</ele>
        <time>2015-10-22T10:41:30Z</time>
      </trkpt>
      <trkpt lat="44.59853" lon="5.96754">
        <ele>1937.19</ele>
        <time>2015-10-22T10:41:42Z</time>
      </trkpt>
      <trkpt lat="44.59852" lon="5.96747">
        <ele>1933.83</ele>
        <time>2015-10-22T10:41:53Z</time>
      </trkpt>
      <trkpt lat="44.59848" lon="5.9674">
        <ele>1930.95</ele>
        <time>2015-10-22T10:42:04Z</time>
      </trkpt>
      <trkpt lat="44.59846" lon="5.96732">
        <ele>1927.58</ele>
        <time>2015-10-22T10:42:15Z</time>
      </trkpt>
      <trkpt lat="44.59844" lon="5.96725">
        <ele>1924.22</ele>
        <time>2015-10-22T10:42:26Z</time>
      </trkpt>
      <trkpt lat="44.59842" lon="5.96716">
        <ele>1921.33</ele>
        <time>2015-10-22T10:42:36Z</time>
      </trkpt>
      <trkpt lat="44.59841" lon="5.96707">
        <ele>1917.97</ele>
        <time>2015-10-22T10:42:47Z</time>
      </trkpt>
      <trkpt lat="44.59843" lon="5.96703">
        <ele>1917.01</ele>
        <time>2015-10-22T10:42:51Z</time>
      </trkpt>
      <trkpt lat="44.5984" lon="5.96689">
        <ele>1913.16</ele>
        <time>2015-10-22T10:43:03Z</time>
      </trkpt>
      <trkpt lat="44.59838" lon="5.96676">
        <ele>1910.28</ele>
        <time>2015-10-22T10:43:15Z</time>
      </trkpt>
      <trkpt lat="44.59836" lon="5.96665">
        <ele>1906.91</ele>
        <time>2015-10-22T10:43:28Z</time>
      </trkpt>
      <trkpt lat="44.59837" lon="5.96656">
        <ele>1904.03</ele>
        <time>2015-10-22T10:43:38Z</time>
      </trkpt>
      <trkpt lat="44.59837" lon="5.96647">
        <ele>1900.66</ele>
        <time>2015-10-22T10:43:47Z</time>
      </trkpt>
      <trkpt lat="44.59837" lon="5.9664">
        <ele>1898.74</ele>
        <time>2015-10-22T10:44:01Z</time>
      </trkpt>
      <trkpt lat="44.59835" lon="5.96633">
        <ele>1896.34</ele>
        <time>2015-10-22T10:44:20Z</time>
      </trkpt>
      <trkpt lat="44.59835" lon="5.96621">
        <ele>1893.45</ele>
        <time>2015-10-22T10:44:33Z</time>
      </trkpt>
      <trkpt lat="44.59835" lon="5.96618">
        <ele>1892.97</ele>
        <time>2015-10-22T10:44:47Z</time>
      </trkpt>
      <trkpt lat="44.59834" lon="5.96609">
        <ele>1890.57</ele>
        <time>2015-10-22T10:44:59Z</time>
      </trkpt>
      <trkpt lat="44.59836" lon="5.96599">
        <ele>1888.17</ele>
        <time>2015-10-22T10:45:10Z</time>
      </trkpt>
      <trkpt lat="44.59836" lon="5.96585">
        <ele>1884.8</ele>
        <time>2015-10-22T10:45:23Z</time>
      </trkpt>
      <trkpt lat="44.59839" lon="5.96572">
        <ele>1881.44</ele>
        <time>2015-10-22T10:45:35Z</time>
      </trkpt>
      <trkpt lat="44.59843" lon="5.96562">
        <ele>1879.03</ele>
        <time>2015-10-22T10:45:48Z</time>
      </trkpt>
      <trkpt lat="44.59844" lon="5.96553">
        <ele>1878.07</ele>
        <time>2015-10-22T10:46:02Z</time>
      </trkpt>
      <trkpt lat="44.59847" lon="5.96539">
        <ele>1875.19</ele>
        <time>2015-10-22T10:46:16Z</time>
      </trkpt>
      <trkpt lat="44.59852" lon="5.96526">
        <ele>1872.79</ele>
        <time>2015-10-22T10:46:30Z</time>
      </trkpt>
      <trkpt lat="44.59855" lon="5.96522">
        <ele>1871.82</ele>
        <time>2015-10-22T10:46:35Z</time>
      </trkpt>
      <trkpt lat="44.59862" lon="5.9651">
        <ele>1870.38</ele>
        <time>2015-10-22T10:46:49Z</time>
      </trkpt>
      <trkpt lat="44.59865" lon="5.965">
        <ele>1870.86</ele>
        <time>2015-10-22T10:47:03Z</time>
      </trkpt>
      <trkpt lat="44.59868" lon="5.96494">
        <ele>1868.46</ele>
        <time>2015-10-22T10:47:13Z</time>
      </trkpt>
      <trkpt lat="44.59868" lon="5.96493">
        <ele>1867.98</ele>
        <time>2015-10-22T10:47:26Z</time>
      </trkpt>
      <trkpt lat="44.59869" lon="5.96493">
        <ele>1867.5</ele>
        <time>2015-10-22T10:47:47Z</time>
      </trkpt>
      <trkpt lat="44.5987" lon="5.96486">
        <ele>1867.5</ele>
        <time>2015-10-22T10:48:00Z</time>
      </trkpt>
      <trkpt lat="44.59875" lon="5.96469">
        <ele>1866.06</ele>
        <time>2015-10-22T10:48:14Z</time>
      </trkpt>
      <trkpt lat="44.59882" lon="5.96461">
        <ele>1866.06</ele>
        <time>2015-10-22T10:48:27Z</time>
      </trkpt>
      <trkpt lat="44.59883" lon="5.96455">
        <ele>1866.06</ele>
        <time>2015-10-22T10:48:40Z</time>
      </trkpt>
      <trkpt lat="44.59887" lon="5.96442">
        <ele>1865.09</ele>
        <time>2015-10-22T10:48:55Z</time>
      </trkpt>
      <trkpt lat="44.59887" lon="5.96442">
        <ele>1865.09</ele>
        <time>2015-10-22T10:49:10Z</time>
      </trkpt>
      <trkpt lat="44.59889" lon="5.96436">
        <ele>1865.09</ele>
        <time>2015-10-22T10:49:24Z</time>
      </trkpt>
      <trkpt lat="44.59889" lon="5.96436">
        <ele>1864.61</ele>
        <time>2015-10-22T10:49:37Z</time>
      </trkpt>
      <trkpt lat="44.59889" lon="5.96438">
        <ele>1864.61</ele>
        <time>2015-10-22T10:50:06Z</time>
      </trkpt>
      <trkpt lat="44.5989" lon="5.96438">
        <ele>1864.61</ele>
        <time>2015-10-22T10:50:39Z</time>
      </trkpt>
      <trkpt lat="44.59888" lon="5.9644">
        <ele>1864.61</ele>
        <time>2015-10-22T10:51:07Z</time>
      </trkpt>
      <trkpt lat="44.59888" lon="5.96441">
        <ele>1864.13</ele>
        <time>2015-10-22T10:51:26Z</time>
      </trkpt>
      <trkpt lat="44.59887" lon="5.96441">
        <ele>1865.09</ele>
        <time>2015-10-22T10:52:04Z</time>
      </trkpt>
      <trkpt lat="44.59887" lon="5.96441">
        <ele>1865.58</ele>
        <time>2015-10-22T10:52:20Z</time>
      </trkpt>
      <trkpt lat="44.59887" lon="5.96441">
        <ele>1865.09</ele>
        <time>2015-10-22T10:52:39Z</time>
      </trkpt>
      <trkpt lat="44.59886" lon="5.96441">
        <ele>1865.58</ele>
        <time>2015-10-22T10:53:15Z</time>
      </trkpt>
      <trkpt lat="44.59886" lon="5.96442">
        <ele>1866.06</ele>
        <time>2015-10-22T10:53:53Z</time>
      </trkpt>
      <trkpt lat="44.59886" lon="5.9644">
        <ele>1865.58</ele>
        <time>2015-10-22T10:54:25Z</time>
      </trkpt>
      <trkpt lat="44.59885" lon="5.96439">
        <ele>1866.06</ele>
        <time>2015-10-22T10:54:58Z</time>
      </trkpt>
      <trkpt lat="44.59886" lon="5.9644">
        <ele>1866.06</ele>
        <time>2015-10-22T10:55:33Z</time>
      </trkpt>
      <trkpt lat="44.59886" lon="5.9644">
        <ele>1865.58</ele>
        <time>2015-10-22T10:56:02Z</time>
      </trkpt>
      <trkpt lat="44.59887" lon="5.96436">
        <ele>1867.02</ele>
        <time>2015-10-22T10:56:39Z</time>
      </trkpt>
      <trkpt lat="44.59889" lon="5.96438">
        <ele>1867.02</ele>
        <time>2015-10-22T10:57:10Z</time>
      </trkpt>
      <trkpt lat="44.59888" lon="5.9644">
        <ele>1867.02</ele>
        <time>2015-10-22T10:57:41Z</time>
      </trkpt>
      <trkpt lat="44.59888" lon="5.96442">
        <ele>1866.54</ele>
        <time>2015-10-22T10:58:08Z</time>
      </trkpt>
      <trkpt lat="44.59888" lon="5.96442">
        <ele>1866.54</ele>
        <time>2015-10-22T10:58:35Z</time>
      </trkpt>
      <trkpt lat="44.59889" lon="5.96441">
        <ele>1867.02</ele>
        <time>2015-10-22T10:59:09Z</time>
      </trkpt>
      <trkpt lat="44.5989" lon="5.9644">
        <ele>1867.02</ele>
        <time>2015-10-22T10:59:44Z</time>
      </trkpt>
      <trkpt lat="44.59889" lon="5.96441">
        <ele>1867.02</ele>
        <time>2015-10-22T11:00:19Z</time>
      </trkpt>
      <trkpt lat="44.5989" lon="5.96441">
        <ele>1867.02</ele>
        <time>2015-10-22T11:00:50Z</time>
      </trkpt>
      <trkpt lat="44.59889" lon="5.96441">
        <ele>1867.02</ele>
        <time>2015-10-22T11:01:21Z</time>
      </trkpt>
      <trkpt lat="44.5989" lon="5.96442">
        <ele>1866.54</ele>
        <time>2015-10-22T11:01:53Z</time>
      </trkpt>
      <trkpt lat="44.5989" lon="5.96442">
        <ele>1866.54</ele>
        <time>2015-10-22T11:02:28Z</time>
      </trkpt>
      <trkpt lat="44.59889" lon="5.96443">
        <ele>1867.02</ele>
        <time>2015-10-22T11:03:02Z</time>
      </trkpt>
      <trkpt lat="44.59888" lon="5.96442">
        <ele>1867.02</ele>
        <time>2015-10-22T11:03:35Z</time>
      </trkpt>
      <trkpt lat="44.59889" lon="5.9644">
        <ele>1867.5</ele>
        <time>2015-10-22T11:04:07Z</time>
      </trkpt>
      <trkpt lat="44.59889" lon="5.9644">
        <ele>1867.02</ele>
        <time>2015-10-22T11:04:40Z</time>
      </trkpt>
      <trkpt lat="44.59889" lon="5.96441">
        <ele>1867.5</ele>
        <time>2015-10-22T11:05:23Z</time>
      </trkpt>
      <trkpt lat="44.59889" lon="5.96439">
        <ele>1867.5</ele>
        <time>2015-10-22T11:06:01Z</time>
      </trkpt>
      <trkpt lat="44.59888" lon="5.96441">
        <ele>1867.02</ele>
        <time>2015-10-22T11:06:35Z</time>
      </trkpt>
      <trkpt lat="44.59888" lon="5.96441">
        <ele>1867.02</ele>
        <time>2015-10-22T11:07:09Z</time>
      </trkpt>
      <trkpt lat="44.59889" lon="5.96439">
        <ele>1866.54</ele>
        <time>2015-10-22T11:07:49Z</time>
      </trkpt>
      <trkpt lat="44.5989" lon="5.96441">
        <ele>1867.02</ele>
        <time>2015-10-22T11:08:31Z</time>
      </trkpt>
      <trkpt lat="44.5989" lon="5.96441">
        <ele>1867.02</ele>
        <time>2015-10-22T11:09:06Z</time>
      </trkpt>
      <trkpt lat="44.59891" lon="5.96442">
        <ele>1867.02</ele>
        <time>2015-10-22T11:09:36Z</time>
      </trkpt>
      <trkpt lat="44.59891" lon="5.96442">
        <ele>1867.02</ele>
        <time>2015-10-22T11:10:16Z</time>
      </trkpt>
      <trkpt lat="44.5989" lon="5.96443">
        <ele>1866.54</ele>
        <time>2015-10-22T11:10:53Z</time>
      </trkpt>
      <trkpt lat="44.5989" lon="5.96442">
        <ele>1866.54</ele>
        <time>2015-10-22T11:11:22Z</time>
      </trkpt>
      <trkpt lat="44.5989" lon="5.96442">
        <ele>1866.06</ele>
        <time>2015-10-22T11:11:59Z</time>
      </trkpt>
      <trkpt lat="44.5989" lon="5.96442">
        <ele>1866.06</ele>
        <time>2015-10-22T11:12:32Z</time>
      </trkpt>
      <trkpt lat="44.5989" lon="5.96443">
        <ele>1866.06</ele>
        <time>2015-10-22T11:13:07Z</time>
      </trkpt>
      <trkpt lat="44.5989" lon="5.96443">
        <ele>1866.06</ele>
        <time>2015-10-22T11:13:40Z</time>
      </trkpt>
      <trkpt lat="44.59889" lon="5.96444">
        <ele>1866.06</ele>
        <time>2015-10-22T11:14:15Z</time>
      </trkpt>
      <trkpt lat="44.59889" lon="5.96444">
        <ele>1866.06</ele>
        <time>2015-10-22T11:14:56Z</time>
      </trkpt>
      <trkpt lat="44.5989" lon="5.96444">
        <ele>1866.06</ele>
        <time>2015-10-22T11:15:37Z</time>
      </trkpt>
      <trkpt lat="44.59889" lon="5.96442">
        <ele>1866.06</ele>
        <time>2015-10-22T11:16:04Z</time>
      </trkpt>
      <trkpt lat="44.59891" lon="5.96443">
        <ele>1866.06</ele>
        <time>2015-10-22T11:16:37Z</time>
      </trkpt>
      <trkpt lat="44.59891" lon="5.96443">
        <ele>1866.06</ele>
        <time>2015-10-22T11:17:06Z</time>
      </trkpt>
      <trkpt lat="44.59891" lon="5.96443">
        <ele>1866.06</ele>
        <time>2015-10-22T11:17:52Z</time>
      </trkpt>
      <trkpt lat="44.5989" lon="5.96443">
        <ele>1866.54</ele>
        <time>2015-10-22T11:18:30Z</time>
      </trkpt>
      <trkpt lat="44.59891" lon="5.96443">
        <ele>1866.54</ele>
        <time>2015-10-22T11:19:00Z</time>
      </trkpt>
      <trkpt lat="44.59891" lon="5.96443">
        <ele>1866.54</ele>
        <time>2015-10-22T11:19:31Z</time>
      </trkpt>
      <trkpt lat="44.59891" lon="5.96443">
        <ele>1866.54</ele>
        <time>2015-10-22T11:20:04Z</time>
      </trkpt>
      <trkpt lat="44.5989" lon="5.96443">
        <ele>1866.06</ele>
        <time>2015-10-22T11:20:35Z</time>
      </trkpt>
      <trkpt lat="44.59891" lon="5.96443">
        <ele>1866.54</ele>
        <time>2015-10-22T11:21:15Z</time>
      </trkpt>
      <trkpt lat="44.59891" lon="5.96443">
        <ele>1866.06</ele>
        <time>2015-10-22T11:21:52Z</time>
      </trkpt>
      <trkpt lat="44.5989" lon="5.96443">
        <ele>1866.54</ele>
        <time>2015-10-22T11:22:26Z</time>
      </trkpt>
      <trkpt lat="44.5989" lon="5.96445">
        <ele>1866.06</ele>
        <time>2015-10-22T11:23:07Z</time>
      </trkpt>
      <trkpt lat="44.59892" lon="5.96444">
        <ele>1866.54</ele>
        <time>2015-10-22T11:23:46Z</time>
      </trkpt>
      <trkpt lat="44.59892" lon="5.96443">
        <ele>1866.54</ele>
        <time>2015-10-22T11:24:20Z</time>
      </trkpt>
      <trkpt lat="44.59891" lon="5.96443">
        <ele>1866.54</ele>
        <time>2015-10-22T11:24:51Z</time>
      </trkpt>
      <trkpt lat="44.5989" lon="5.96444">
        <ele>1867.5</ele>
        <time>2015-10-22T11:25:24Z</time>
      </trkpt>
      <trkpt lat="44.59891" lon="5.96444">
        <ele>1866.06</ele>
        <time>2015-10-22T11:25:58Z</time>
      </trkpt>
      <trkpt lat="44.5989" lon="5.96442">
        <ele>1866.06</ele>
        <time>2015-10-22T11:26:38Z</time>
      </trkpt>
      <trkpt lat="44.5989" lon="5.96444">
        <ele>1866.06</ele>
        <time>2015-10-22T11:27:18Z</time>
      </trkpt>
      <trkpt lat="44.59891" lon="5.96443">
        <ele>1866.06</ele>
        <time>2015-10-22T11:27:59Z</time>
      </trkpt>
      <trkpt lat="44.59891" lon="5.96443">
        <ele>1866.06</ele>
        <time>2015-10-22T11:28:36Z</time>
      </trkpt>
      <trkpt lat="44.59891" lon="5.96444">
        <ele>1866.06</ele>
        <time>2015-10-22T11:29:08Z</time>
      </trkpt>
      <trkpt lat="44.59891" lon="5.96444">
        <ele>1866.06</ele>
        <time>2015-10-22T11:29:38Z</time>
      </trkpt>
      <trkpt lat="44.59891" lon="5.96444">
        <ele>1865.58</ele>
        <time>2015-10-22T11:30:10Z</time>
      </trkpt>
      <trkpt lat="44.5989" lon="5.96443">
        <ele>1866.06</ele>
        <time>2015-10-22T11:30:37Z</time>
      </trkpt>
      <trkpt lat="44.59889" lon="5.96443">
        <ele>1865.58</ele>
        <time>2015-10-22T11:31:10Z</time>
      </trkpt>
      <trkpt lat="44.59889" lon="5.96442">
        <ele>1865.58</ele>
        <time>2015-10-22T11:31:38Z</time>
      </trkpt>
      <trkpt lat="44.5989" lon="5.96441">
        <ele>1865.09</ele>
        <time>2015-10-22T11:32:09Z</time>
      </trkpt>
      <trkpt lat="44.59889" lon="5.96443">
        <ele>1865.58</ele>
        <time>2015-10-22T11:32:45Z</time>
      </trkpt>
      <trkpt lat="44.59889" lon="5.96443">
        <ele>1866.54</ele>
        <time>2015-10-22T11:33:29Z</time>
      </trkpt>
      <trkpt lat="44.5989" lon="5.96442">
        <ele>1865.58</ele>
        <time>2015-10-22T11:33:57Z</time>
      </trkpt>
      <trkpt lat="44.5989" lon="5.96442">
        <ele>1865.58</ele>
        <time>2015-10-22T11:34:30Z</time>
      </trkpt>
      <trkpt lat="44.5989" lon="5.96442">
        <ele>1865.58</ele>
        <time>2015-10-22T11:35:11Z</time>
      </trkpt>
      <trkpt lat="44.59891" lon="5.96443">
        <ele>1865.58</ele>
        <time>2015-10-22T11:35:46Z</time>
      </trkpt>
      <trkpt lat="44.59891" lon="5.96442">
        <ele>1865.58</ele>
        <time>2015-10-22T11:36:21Z</time>
      </trkpt>
      <trkpt lat="44.59891" lon="5.9644">
        <ele>1865.58</ele>
        <time>2015-10-22T11:36:56Z</time>
      </trkpt>
      <trkpt lat="44.59892" lon="5.9644">
        <ele>1865.58</ele>
        <time>2015-10-22T11:37:30Z</time>
      </trkpt>
      <trkpt lat="44.59892" lon="5.96443">
        <ele>1866.06</ele>
        <time>2015-10-22T11:37:58Z</time>
      </trkpt>
      <trkpt lat="44.59892" lon="5.96442">
        <ele>1865.09</ele>
        <time>2015-10-22T11:38:23Z</time>
      </trkpt>
      <trkpt lat="44.59892" lon="5.96441">
        <ele>1865.09</ele>
        <time>2015-10-22T11:38:53Z</time>
      </trkpt>
      <trkpt lat="44.59892" lon="5.96441">
        <ele>1865.58</ele>
        <time>2015-10-22T11:39:31Z</time>
      </trkpt>
      <trkpt lat="44.59893" lon="5.96443">
        <ele>1865.58</ele>
        <time>2015-10-22T11:40:05Z</time>
      </trkpt>
      <trkpt lat="44.59893" lon="5.96441">
        <ele>1866.54</ele>
        <time>2015-10-22T11:40:20Z</time>
      </trkpt>
      <trkpt lat="44.59893" lon="5.96441">
        <ele>1866.54</ele>
        <time>2015-10-22T11:40:39Z</time>
      </trkpt>
      <trkpt lat="44.59893" lon="5.96441">
        <ele>1866.54</ele>
        <time>2015-10-22T11:40:54Z</time>
      </trkpt>
      <trkpt lat="44.59891" lon="5.96442">
        <ele>1866.54</ele>
        <time>2015-10-22T11:41:24Z</time>
      </trkpt>
      <trkpt lat="44.59891" lon="5.96443">
        <ele>1866.06</ele>
        <time>2015-10-22T11:41:57Z</time>
      </trkpt>
      <trkpt lat="44.5989" lon="5.96441">
        <ele>1866.54</ele>
        <time>2015-10-22T11:42:21Z</time>
      </trkpt>
      <trkpt lat="44.5989" lon="5.96443">
        <ele>1866.54</ele>
        <time>2015-10-22T11:42:42Z</time>
      </trkpt>
      <trkpt lat="44.59893" lon="5.96443">
        <ele>1867.5</ele>
        <time>2015-10-22T11:43:09Z</time>
      </trkpt>
      <trkpt lat="44.59894" lon="5.96441">
        <ele>1868.94</ele>
        <time>2015-10-22T11:43:35Z</time>
      </trkpt>
      <trkpt lat="44.59894" lon="5.9644">
        <ele>1867.5</ele>
        <time>2015-10-22T11:43:56Z</time>
      </trkpt>
      <trkpt lat="44.59894" lon="5.9644">
        <ele>1867.5</ele>
        <time>2015-10-22T11:44:15Z</time>
      </trkpt>
      <trkpt lat="44.59893" lon="5.96445">
        <ele>1867.5</ele>
        <time>2015-10-22T11:44:32Z</time>
      </trkpt>
      <trkpt lat="44.59888" lon="5.96454">
        <ele>1867.98</ele>
        <time>2015-10-22T11:44:47Z</time>
      </trkpt>
      <trkpt lat="44.59884" lon="5.96463">
        <ele>1867.98</ele>
        <time>2015-10-22T11:45:01Z</time>
      </trkpt>
      <trkpt lat="44.59881" lon="5.96465">
        <ele>1867.98</ele>
        <time>2015-10-22T11:45:15Z</time>
      </trkpt>
      <trkpt lat="44.5988" lon="5.96471">
        <ele>1867.98</ele>
        <time>2015-10-22T11:45:26Z</time>
      </trkpt>
      <trkpt lat="44.59878" lon="5.96482">
        <ele>1867.98</ele>
        <time>2015-10-22T11:45:38Z</time>
      </trkpt>
      <trkpt lat="44.59878" lon="5.96492">
        <ele>1867.98</ele>
        <time>2015-10-22T11:45:50Z</time>
      </trkpt>
      <trkpt lat="44.5988" lon="5.96503">
        <ele>1868.94</ele>
        <time>2015-10-22T11:46:01Z</time>
      </trkpt>
      <trkpt lat="44.59882" lon="5.96508">
        <ele>1868.46</ele>
        <time>2015-10-22T11:46:14Z</time>
      </trkpt>
      <trkpt lat="44.59886" lon="5.96515">
        <ele>1867.5</ele>
        <time>2015-10-22T11:46:31Z</time>
      </trkpt>
      <trkpt lat="44.59893" lon="5.96515">
        <ele>1866.06</ele>
        <time>2015-10-22T11:46:44Z</time>
      </trkpt>
      <trkpt lat="44.59893" lon="5.96516">
        <ele>1864.61</ele>
        <time>2015-10-22T11:46:59Z</time>
      </trkpt>
      <trkpt lat="44.59896" lon="5.96514">
        <ele>1864.61</ele>
        <time>2015-10-22T11:47:14Z</time>
      </trkpt>
      <trkpt lat="44.59901" lon="5.96515">
        <ele>1862.69</ele>
        <time>2015-10-22T11:47:28Z</time>
      </trkpt>
      <trkpt lat="44.59902" lon="5.96516">
        <ele>1862.21</ele>
        <time>2015-10-22T11:47:51Z</time>
      </trkpt>
      <trkpt lat="44.59902" lon="5.96519">
        <ele>1862.21</ele>
        <time>2015-10-22T11:48:08Z</time>
      </trkpt>
      <trkpt lat="44.59904" lon="5.96517">
        <ele>1861.73</ele>
        <time>2015-10-22T11:48:31Z</time>
      </trkpt>
      <trkpt lat="44.59909" lon="5.96518">
        <ele>1860.29</ele>
        <time>2015-10-22T11:48:44Z</time>
      </trkpt>
      <trkpt lat="44.59917" lon="5.96522">
        <ele>1856.92</ele>
        <time>2015-10-22T11:48:57Z</time>
      </trkpt>
      <trkpt lat="44.59924" lon="5.96525">
        <ele>1854.04</ele>
        <time>2015-10-22T11:49:09Z</time>
      </trkpt>
      <trkpt lat="44.59934" lon="5.96533">
        <ele>1850.68</ele>
        <time>2015-10-22T11:49:25Z</time>
      </trkpt>
      <trkpt lat="44.59942" lon="5.9653">
        <ele>1847.79</ele>
        <time>2015-10-22T11:49:39Z</time>
      </trkpt>
      <trkpt lat="44.5995" lon="5.96537">
        <ele>1844.91</ele>
        <time>2015-10-22T11:49:52Z</time>
      </trkpt>
      <trkpt lat="44.59955" lon="5.96539">
        <ele>1842.5</ele>
        <time>2015-10-22T11:50:04Z</time>
      </trkpt>
      <trkpt lat="44.59962" lon="5.96539">
        <ele>1839.14</ele>
        <time>2015-10-22T11:50:16Z</time>
      </trkpt>
      <trkpt lat="44.5997" lon="5.96543">
        <ele>1836.26</ele>
        <time>2015-10-22T11:50:31Z</time>
      </trkpt>
      <trkpt lat="44.59975" lon="5.96545">
        <ele>1832.89</ele>
        <time>2015-10-22T11:50:44Z</time>
      </trkpt>
      <trkpt lat="44.59981" lon="5.96551">
        <ele>1830.49</ele>
        <time>2015-10-22T11:50:55Z</time>
      </trkpt>
      <trkpt lat="44.59986" lon="5.96549">
        <ele>1828.08</ele>
        <time>2015-10-22T11:51:08Z</time>
      </trkpt>
      <trkpt lat="44.5999" lon="5.96551">
        <ele>1825.2</ele>
        <time>2015-10-22T11:51:20Z</time>
      </trkpt>
      <trkpt lat="44.59994" lon="5.96548">
        <ele>1822.8</ele>
        <time>2015-10-22T11:51:31Z</time>
      </trkpt>
      <trkpt lat="44.60001" lon="5.96548">
        <ele>1819.43</ele>
        <time>2015-10-22T11:51:43Z</time>
      </trkpt>
      <trkpt lat="44.60008" lon="5.96551">
        <ele>1816.55</ele>
        <time>2015-10-22T11:51:55Z</time>
      </trkpt>
      <trkpt lat="44.60013" lon="5.96548">
        <ele>1813.18</ele>
        <time>2015-10-22T11:52:06Z</time>
      </trkpt>
      <trkpt lat="44.60015" lon="5.96546">
        <ele>1811.26</ele>
        <time>2015-10-22T11:52:19Z</time>
      </trkpt>
      <trkpt lat="44.60022" lon="5.96544">
        <ele>1808.38</ele>
        <time>2015-10-22T11:52:31Z</time>
      </trkpt>
      <trkpt lat="44.60027" lon="5.96545">
        <ele>1805.01</ele>
        <time>2015-10-22T11:52:44Z</time>
      </trkpt>
      <trkpt lat="44.60033" lon="5.96546">
        <ele>1802.13</ele>
        <time>2015-10-22T11:52:55Z</time>
      </trkpt>
      <trkpt lat="44.60038" lon="5.96546">
        <ele>1798.76</ele>
        <time>2015-10-22T11:53:06Z</time>
      </trkpt>
      <trkpt lat="44.60041" lon="5.9654">
        <ele>1795.88</ele>
        <time>2015-10-22T11:53:16Z</time>
      </trkpt>
      <trkpt lat="44.60049" lon="5.96545">
        <ele>1793</ele>
        <time>2015-10-22T11:53:29Z</time>
      </trkpt>
      <trkpt lat="44.60055" lon="5.9655">
        <ele>1789.63</ele>
        <time>2015-10-22T11:53:42Z</time>
      </trkpt>
      <trkpt lat="44.60061" lon="5.96551">
        <ele>1788.19</ele>
        <time>2015-10-22T11:53:49Z</time>
      </trkpt>
      <trkpt lat="44.60068" lon="5.96552">
        <ele>1784.82</ele>
        <time>2015-10-22T11:53:59Z</time>
      </trkpt>
      <trkpt lat="44.60073" lon="5.96554">
        <ele>1781.94</ele>
        <time>2015-10-22T11:54:08Z</time>
      </trkpt>
      <trkpt lat="44.60077" lon="5.96555">
        <ele>1779.54</ele>
        <time>2015-10-22T11:54:22Z</time>
      </trkpt>
      <trkpt lat="44.60083" lon="5.96554">
        <ele>1776.65</ele>
        <time>2015-10-22T11:54:35Z</time>
      </trkpt>
      <trkpt lat="44.60089" lon="5.96554">
        <ele>1773.29</ele>
        <time>2015-10-22T11:54:45Z</time>
      </trkpt>
      <trkpt lat="44.60095" lon="5.96551">
        <ele>1770.89</ele>
        <time>2015-10-22T11:54:56Z</time>
      </trkpt>
      <trkpt lat="44.60102" lon="5.96553">
        <ele>1767.04</ele>
        <time>2015-10-22T11:55:06Z</time>
      </trkpt>
      <trkpt lat="44.60103" lon="5.96552">
        <ele>1767.04</ele>
        <time>2015-10-22T11:55:07Z</time>
      </trkpt>
      <trkpt lat="44.60108" lon="5.96554">
        <ele>1763.68</ele>
        <time>2015-10-22T11:55:17Z</time>
      </trkpt>
      <trkpt lat="44.6011" lon="5.96564">
        <ele>1760.79</ele>
        <time>2015-10-22T11:55:27Z</time>
      </trkpt>
      <trkpt lat="44.60117" lon="5.96571">
        <ele>1757.43</ele>
        <time>2015-10-22T11:55:38Z</time>
      </trkpt>
      <trkpt lat="44.60118" lon="5.96572">
        <ele>1757.43</ele>
        <time>2015-10-22T11:55:40Z</time>
      </trkpt>
      <trkpt lat="44.60122" lon="5.96575">
        <ele>1756.47</ele>
        <time>2015-10-22T11:55:44Z</time>
      </trkpt>
      <trkpt lat="44.60128" lon="5.96586">
        <ele>1753.58</ele>
        <time>2015-10-22T11:55:57Z</time>
      </trkpt>
      <trkpt lat="44.60134" lon="5.96594">
        <ele>1750.22</ele>
        <time>2015-10-22T11:56:10Z</time>
      </trkpt>
      <trkpt lat="44.60137" lon="5.96601">
        <ele>1748.29</ele>
        <time>2015-10-22T11:56:25Z</time>
      </trkpt>
      <trkpt lat="44.60139" lon="5.96607">
        <ele>1747.33</ele>
        <time>2015-10-22T11:56:40Z</time>
      </trkpt>
      <trkpt lat="44.60139" lon="5.96613">
        <ele>1746.85</ele>
        <time>2015-10-22T11:57:07Z</time>
      </trkpt>
      <trkpt lat="44.60145" lon="5.96615">
        <ele>1744.45</ele>
        <time>2015-10-22T11:57:21Z</time>
      </trkpt>
      <trkpt lat="44.60149" lon="5.96613">
        <ele>1744.45</ele>
        <time>2015-10-22T11:57:44Z</time>
      </trkpt>
      <trkpt lat="44.60157" lon="5.96615">
        <ele>1741.57</ele>
        <time>2015-10-22T11:57:59Z</time>
      </trkpt>
      <trkpt lat="44.6016" lon="5.96627">
        <ele>1739.64</ele>
        <time>2015-10-22T11:58:12Z</time>
      </trkpt>
      <trkpt lat="44.60163" lon="5.96637">
        <ele>1736.76</ele>
        <time>2015-10-22T11:58:24Z</time>
      </trkpt>
      <trkpt lat="44.60164" lon="5.9664">
        <ele>1735.8</ele>
        <time>2015-10-22T11:58:35Z</time>
      </trkpt>
      <trkpt lat="44.60167" lon="5.96646">
        <ele>1732.43</ele>
        <time>2015-10-22T11:58:48Z</time>
      </trkpt>
      <trkpt lat="44.6017" lon="5.9665">
        <ele>1729.07</ele>
        <time>2015-10-22T11:58:59Z</time>
      </trkpt>
      <trkpt lat="44.60174" lon="5.96644">
        <ele>1725.7</ele>
        <time>2015-10-22T11:59:12Z</time>
      </trkpt>
      <trkpt lat="44.60182" lon="5.96645">
        <ele>1722.34</ele>
        <time>2015-10-22T11:59:25Z</time>
      </trkpt>
      <trkpt lat="44.60189" lon="5.96647">
        <ele>1719.94</ele>
        <time>2015-10-22T11:59:38Z</time>
      </trkpt>
      <trkpt lat="44.60193" lon="5.96656">
        <ele>1717.05</ele>
        <time>2015-10-22T11:59:51Z</time>
      </trkpt>
      <trkpt lat="44.60199" lon="5.96665">
        <ele>1714.17</ele>
        <time>2015-10-22T12:00:03Z</time>
      </trkpt>
      <trkpt lat="44.602" lon="5.96668">
        <ele>1713.69</ele>
        <time>2015-10-22T12:00:16Z</time>
      </trkpt>
      <trkpt lat="44.60202" lon="5.9668">
        <ele>1712.73</ele>
        <time>2015-10-22T12:00:28Z</time>
      </trkpt>
      <trkpt lat="44.6021" lon="5.96685">
        <ele>1709.84</ele>
        <time>2015-10-22T12:00:43Z</time>
      </trkpt>
      <trkpt lat="44.60213" lon="5.96686">
        <ele>1708.4</ele>
        <time>2015-10-22T12:00:59Z</time>
      </trkpt>
      <trkpt lat="44.60212" lon="5.96685">
        <ele>1707.92</ele>
        <time>2015-10-22T12:01:14Z</time>
      </trkpt>
      <trkpt lat="44.60213" lon="5.96685">
        <ele>1707.92</ele>
        <time>2015-10-22T12:01:34Z</time>
      </trkpt>
      <trkpt lat="44.60214" lon="5.96685">
        <ele>1707.92</ele>
        <time>2015-10-22T12:01:54Z</time>
      </trkpt>
      <trkpt lat="44.60213" lon="5.96686">
        <ele>1707.92</ele>
        <time>2015-10-22T12:02:17Z</time>
      </trkpt>
      <trkpt lat="44.60213" lon="5.96686">
        <ele>1707.44</ele>
        <time>2015-10-22T12:02:42Z</time>
      </trkpt>
      <trkpt lat="44.60214" lon="5.96686">
        <ele>1707.92</ele>
        <time>2015-10-22T12:03:03Z</time>
      </trkpt>
      <trkpt lat="44.60212" lon="5.96685">
        <ele>1707.92</ele>
        <time>2015-10-22T12:03:24Z</time>
      </trkpt>
      <trkpt lat="44.60213" lon="5.96684">
        <ele>1707.92</ele>
        <time>2015-10-22T12:03:43Z</time>
      </trkpt>
      <trkpt lat="44.60213" lon="5.96681">
        <ele>1707.92</ele>
        <time>2015-10-22T12:04:04Z</time>
      </trkpt>
      <trkpt lat="44.60216" lon="5.96684">
        <ele>1707.92</ele>
        <time>2015-10-22T12:04:33Z</time>
      </trkpt>
      <trkpt lat="44.60214" lon="5.96687">
        <ele>1707.92</ele>
        <time>2015-10-22T12:04:46Z</time>
      </trkpt>
      <trkpt lat="44.60213" lon="5.96686">
        <ele>1707.92</ele>
        <time>2015-10-22T12:05:05Z</time>
      </trkpt>
      <trkpt lat="44.60215" lon="5.96684">
        <ele>1707.92</ele>
        <time>2015-10-22T12:05:25Z</time>
      </trkpt>
      <trkpt lat="44.60218" lon="5.9668">
        <ele>1706.96</ele>
        <time>2015-10-22T12:05:38Z</time>
      </trkpt>
      <trkpt lat="44.60227" lon="5.9668">
        <ele>1704.07</ele>
        <time>2015-10-22T12:05:53Z</time>
      </trkpt>
      <trkpt lat="44.60235" lon="5.9668">
        <ele>1700.71</ele>
        <time>2015-10-22T12:06:05Z</time>
      </trkpt>
      <trkpt lat="44.60244" lon="5.96685">
        <ele>1697.83</ele>
        <time>2015-10-22T12:06:19Z</time>
      </trkpt>
      <trkpt lat="44.6025" lon="5.96685">
        <ele>1694.46</ele>
        <time>2015-10-22T12:06:32Z</time>
      </trkpt>
      <trkpt lat="44.60256" lon="5.96694">
        <ele>1692.54</ele>
        <time>2015-10-22T12:06:44Z</time>
      </trkpt>
      <trkpt lat="44.6026" lon="5.96702">
        <ele>1690.14</ele>
        <time>2015-10-22T12:06:56Z</time>
      </trkpt>
      <trkpt lat="44.60266" lon="5.96711">
        <ele>1687.25</ele>
        <time>2015-10-22T12:07:09Z</time>
      </trkpt>
      <trkpt lat="44.60269" lon="5.96724">
        <ele>1683.89</ele>
        <time>2015-10-22T12:07:24Z</time>
      </trkpt>
      <trkpt lat="44.60272" lon="5.96736">
        <ele>1680.52</ele>
        <time>2015-10-22T12:07:37Z</time>
      </trkpt>
      <trkpt lat="44.60268" lon="5.96749">
        <ele>1677.64</ele>
        <time>2015-10-22T12:07:52Z</time>
      </trkpt>
      <trkpt lat="44.60271" lon="5.96752">
        <ele>1674.75</ele>
        <time>2015-10-22T12:08:05Z</time>
      </trkpt>
      <trkpt lat="44.60277" lon="5.9675">
        <ele>1671.87</ele>
        <time>2015-10-22T12:08:16Z</time>
      </trkpt>
      <trkpt lat="44.60285" lon="5.96748">
        <ele>1668.99</ele>
        <time>2015-10-22T12:08:30Z</time>
      </trkpt>
      <trkpt lat="44.60295" lon="5.96747">
        <ele>1666.1</ele>
        <time>2015-10-22T12:08:44Z</time>
      </trkpt>
      <trkpt lat="44.60299" lon="5.96747">
        <ele>1664.18</ele>
        <time>2015-10-22T12:08:55Z</time>
      </trkpt>
      <trkpt lat="44.60304" lon="5.96744">
        <ele>1663.22</ele>
        <time>2015-10-22T12:09:08Z</time>
      </trkpt>
      <trkpt lat="44.60312" lon="5.96742">
        <ele>1659.85</ele>
        <time>2015-10-22T12:09:21Z</time>
      </trkpt>
      <trkpt lat="44.6032" lon="5.96744">
        <ele>1656.49</ele>
        <time>2015-10-22T12:09:33Z</time>
      </trkpt>
      <trkpt lat="44.60325" lon="5.96741">
        <ele>1655.53</ele>
        <time>2015-10-22T12:09:46Z</time>
      </trkpt>
      <trkpt lat="44.60328" lon="5.96747">
        <ele>1654.09</ele>
        <time>2015-10-22T12:10:01Z</time>
      </trkpt>
      <trkpt lat="44.60333" lon="5.96757">
        <ele>1651.68</ele>
        <time>2015-10-22T12:10:15Z</time>
      </trkpt>
      <trkpt lat="44.60339" lon="5.96767">
        <ele>1649.28</ele>
        <time>2015-10-22T12:10:30Z</time>
      </trkpt>
      <trkpt lat="44.60345" lon="5.96784">
        <ele>1646.4</ele>
        <time>2015-10-22T12:10:46Z</time>
      </trkpt>
      <trkpt lat="44.60348" lon="5.96794">
        <ele>1643.99</ele>
        <time>2015-10-22T12:10:57Z</time>
      </trkpt>
      <trkpt lat="44.6035" lon="5.96804">
        <ele>1641.59</ele>
        <time>2015-10-22T12:11:10Z</time>
      </trkpt>
      <trkpt lat="44.60356" lon="5.96814">
        <ele>1638.7</ele>
        <time>2015-10-22T12:11:24Z</time>
      </trkpt>
      <trkpt lat="44.60365" lon="5.96825">
        <ele>1635.34</ele>
        <time>2015-10-22T12:11:40Z</time>
      </trkpt>
      <trkpt lat="44.60371" lon="5.96834">
        <ele>1633.42</ele>
        <time>2015-10-22T12:11:53Z</time>
      </trkpt>
      <trkpt lat="44.60376" lon="5.96844">
        <ele>1630.53</ele>
        <time>2015-10-22T12:12:05Z</time>
      </trkpt>
      <trkpt lat="44.60379" lon="5.96856">
        <ele>1628.13</ele>
        <time>2015-10-22T12:12:20Z</time>
      </trkpt>
      <trkpt lat="44.60385" lon="5.96869">
        <ele>1625.25</ele>
        <time>2015-10-22T12:12:32Z</time>
      </trkpt>
      <trkpt lat="44.60391" lon="5.96883">
        <ele>1622.36</ele>
        <time>2015-10-22T12:12:46Z</time>
      </trkpt>
      <trkpt lat="44.60395" lon="5.96891">
        <ele>1619.96</ele>
        <time>2015-10-22T12:12:58Z</time>
      </trkpt>
      <trkpt lat="44.60398" lon="5.96891">
        <ele>1619</ele>
        <time>2015-10-22T12:13:15Z</time>
      </trkpt>
      <trkpt lat="44.60398" lon="5.96893">
        <ele>1619</ele>
        <time>2015-10-22T12:13:32Z</time>
      </trkpt>
      <trkpt lat="44.60396" lon="5.96892">
        <ele>1619</ele>
        <time>2015-10-22T12:13:49Z</time>
      </trkpt>
      <trkpt lat="44.60396" lon="5.96894">
        <ele>1618.52</ele>
        <time>2015-10-22T12:14:04Z</time>
      </trkpt>
      <trkpt lat="44.60395" lon="5.96893">
        <ele>1618.52</ele>
        <time>2015-10-22T12:14:26Z</time>
      </trkpt>
      <trkpt lat="44.60394" lon="5.96899">
        <ele>1618.52</ele>
        <time>2015-10-22T12:14:50Z</time>
      </trkpt>
      <trkpt lat="44.60394" lon="5.96899">
        <ele>1618.52</ele>
        <time>2015-10-22T12:15:17Z</time>
      </trkpt>
      <trkpt lat="44.60394" lon="5.96899">
        <ele>1619</ele>
        <time>2015-10-22T12:15:45Z</time>
      </trkpt>
      <trkpt lat="44.60397" lon="5.96902">
        <ele>1619.48</ele>
        <time>2015-10-22T12:16:21Z</time>
      </trkpt>
      <trkpt lat="44.60395" lon="5.96904">
        <ele>1619.96</ele>
        <time>2015-10-22T12:16:38Z</time>
      </trkpt>
      <trkpt lat="44.60396" lon="5.969">
        <ele>1620.44</ele>
        <time>2015-10-22T12:16:56Z</time>
      </trkpt>
      <trkpt lat="44.60399" lon="5.96903">
        <ele>1619.96</ele>
        <time>2015-10-22T12:17:17Z</time>
      </trkpt>
      <trkpt lat="44.604" lon="5.96922">
        <ele>1619</ele>
        <time>2015-10-22T12:17:31Z</time>
      </trkpt>
      <trkpt lat="44.60402" lon="5.96946">
        <ele>1619</ele>
        <time>2015-10-22T12:17:48Z</time>
      </trkpt>
      <trkpt lat="44.60403" lon="5.9695">
        <ele>1619.48</ele>
        <time>2015-10-22T12:17:52Z</time>
      </trkpt>
      <trkpt lat="44.60406" lon="5.96966">
        <ele>1619.96</ele>
        <time>2015-10-22T12:18:08Z</time>
      </trkpt>
      <trkpt lat="44.60413" lon="5.96984">
        <ele>1619.96</ele>
        <time>2015-10-22T12:18:22Z</time>
      </trkpt>
      <trkpt lat="44.60422" lon="5.97001">
        <ele>1619.96</ele>
        <time>2015-10-22T12:18:39Z</time>
      </trkpt>
      <trkpt lat="44.60427" lon="5.97017">
        <ele>1619.48</ele>
        <time>2015-10-22T12:18:53Z</time>
      </trkpt>
      <trkpt lat="44.60432" lon="5.97034">
        <ele>1619.96</ele>
        <time>2015-10-22T12:19:09Z</time>
      </trkpt>
      <trkpt lat="44.60437" lon="5.97048">
        <ele>1620.92</ele>
        <time>2015-10-22T12:19:23Z</time>
      </trkpt>
      <trkpt lat="44.60442" lon="5.97064">
        <ele>1622.36</ele>
        <time>2015-10-22T12:19:38Z</time>
      </trkpt>
      <trkpt lat="44.60445" lon="5.97082">
        <ele>1623.32</ele>
        <time>2015-10-22T12:19:50Z</time>
      </trkpt>
      <trkpt lat="44.60448" lon="5.97102">
        <ele>1624.28</ele>
        <time>2015-10-22T12:20:07Z</time>
      </trkpt>
      <trkpt lat="44.6045" lon="5.97114">
        <ele>1625.73</ele>
        <time>2015-10-22T12:20:19Z</time>
      </trkpt>
      <trkpt lat="44.60452" lon="5.97127">
        <ele>1626.21</ele>
        <time>2015-10-22T12:20:31Z</time>
      </trkpt>
      <trkpt lat="44.60454" lon="5.97143">
        <ele>1627.17</ele>
        <time>2015-10-22T12:20:45Z</time>
      </trkpt>
      <trkpt lat="44.60458" lon="5.9716">
        <ele>1628.13</ele>
        <time>2015-10-22T12:21:01Z</time>
      </trkpt>
      <trkpt lat="44.60462" lon="5.97173">
        <ele>1628.13</ele>
        <time>2015-10-22T12:21:13Z</time>
      </trkpt>
      <trkpt lat="44.60466" lon="5.97193">
        <ele>1629.09</ele>
        <time>2015-10-22T12:21:29Z</time>
      </trkpt>
      <trkpt lat="44.60468" lon="5.97208">
        <ele>1630.53</ele>
        <time>2015-10-22T12:21:43Z</time>
      </trkpt>
      <trkpt lat="44.6047" lon="5.97223">
        <ele>1632.46</ele>
        <time>2015-10-22T12:21:57Z</time>
      </trkpt>
      <trkpt lat="44.60473" lon="5.97238">
        <ele>1633.9</ele>
        <time>2015-10-22T12:22:11Z</time>
      </trkpt>
      <trkpt lat="44.60474" lon="5.97252">
        <ele>1634.86</ele>
        <time>2015-10-22T12:22:24Z</time>
      </trkpt>
      <trkpt lat="44.60476" lon="5.97264">
        <ele>1635.82</ele>
        <time>2015-10-22T12:22:37Z</time>
      </trkpt>
      <trkpt lat="44.60477" lon="5.97275">
        <ele>1637.74</ele>
        <time>2015-10-22T12:22:50Z</time>
      </trkpt>
      <trkpt lat="44.60478" lon="5.97291">
        <ele>1639.19</ele>
        <time>2015-10-22T12:23:05Z</time>
      </trkpt>
      <trkpt lat="44.60479" lon="5.97307">
        <ele>1640.63</ele>
        <time>2015-10-22T12:23:19Z</time>
      </trkpt>
      <trkpt lat="44.6048" lon="5.97323">
        <ele>1641.59</ele>
        <time>2015-10-22T12:23:35Z</time>
      </trkpt>
      <trkpt lat="44.6048" lon="5.97342">
        <ele>1642.55</ele>
        <time>2015-10-22T12:23:52Z</time>
      </trkpt>
      <trkpt lat="44.60479" lon="5.9736">
        <ele>1644.47</ele>
        <time>2015-10-22T12:24:08Z</time>
      </trkpt>
      <trkpt lat="44.60476" lon="5.97382">
        <ele>1646.4</ele>
        <time>2015-10-22T12:24:27Z</time>
      </trkpt>
      <trkpt lat="44.60476" lon="5.97398">
        <ele>1647.36</ele>
        <time>2015-10-22T12:24:41Z</time>
      </trkpt>
      <trkpt lat="44.60472" lon="5.97413">
        <ele>1648.32</ele>
        <time>2015-10-22T12:24:56Z</time>
      </trkpt>
      <trkpt lat="44.60471" lon="5.97427">
        <ele>1649.76</ele>
        <time>2015-10-22T12:25:09Z</time>
      </trkpt>
      <trkpt lat="44.60465" lon="5.97444">
        <ele>1651.68</ele>
        <time>2015-10-22T12:25:26Z</time>
      </trkpt>
      <trkpt lat="44.60462" lon="5.97458">
        <ele>1653.6</ele>
        <time>2015-10-22T12:25:41Z</time>
      </trkpt>
      <trkpt lat="44.60457" lon="5.97472">
        <ele>1656.49</ele>
        <time>2015-10-22T12:25:57Z</time>
      </trkpt>
      <trkpt lat="44.60452" lon="5.97486">
        <ele>1656.97</ele>
        <time>2015-10-22T12:26:12Z</time>
      </trkpt>
      <trkpt lat="44.60447" lon="5.97498">
        <ele>1658.89</ele>
        <time>2015-10-22T12:26:27Z</time>
      </trkpt>
      <trkpt lat="44.60442" lon="5.97509">
        <ele>1660.81</ele>
        <time>2015-10-22T12:26:41Z</time>
      </trkpt>
      <trkpt lat="44.60437" lon="5.9752">
        <ele>1662.74</ele>
        <time>2015-10-22T12:26:56Z</time>
      </trkpt>
      <trkpt lat="44.60433" lon="5.97531">
        <ele>1664.66</ele>
        <time>2015-10-22T12:27:11Z</time>
      </trkpt>
      <trkpt lat="44.60426" lon="5.97544">
        <ele>1666.58</ele>
        <time>2015-10-22T12:27:28Z</time>
      </trkpt>
      <trkpt lat="44.6042" lon="5.97556">
        <ele>1668.02</ele>
        <time>2015-10-22T12:27:42Z</time>
      </trkpt>
      <trkpt lat="44.60414" lon="5.97566">
        <ele>1669.47</ele>
        <time>2015-10-22T12:27:55Z</time>
      </trkpt>
      <trkpt lat="44.60412" lon="5.97573">
        <ele>1670.43</ele>
        <time>2015-10-22T12:28:03Z</time>
      </trkpt>
      <trkpt lat="44.60407" lon="5.97585">
        <ele>1671.87</ele>
        <time>2015-10-22T12:28:17Z</time>
      </trkpt>
      <trkpt lat="44.604" lon="5.97599">
        <ele>1673.31</ele>
        <time>2015-10-22T12:28:32Z</time>
      </trkpt>
      <trkpt lat="44.60394" lon="5.97612">
        <ele>1675.23</ele>
        <time>2015-10-22T12:28:47Z</time>
      </trkpt>
      <trkpt lat="44.60388" lon="5.97627">
        <ele>1675.72</ele>
        <time>2015-10-22T12:29:02Z</time>
      </trkpt>
      <trkpt lat="44.60383" lon="5.97644">
        <ele>1676.2</ele>
        <time>2015-10-22T12:29:19Z</time>
      </trkpt>
      <trkpt lat="44.60376" lon="5.97655">
        <ele>1677.16</ele>
        <time>2015-10-22T12:29:33Z</time>
      </trkpt>
      <trkpt lat="44.60376" lon="5.97659">
        <ele>1677.16</ele>
        <time>2015-10-22T12:29:45Z</time>
      </trkpt>
      <trkpt lat="44.60375" lon="5.97656">
        <ele>1677.64</ele>
        <time>2015-10-22T12:30:02Z</time>
      </trkpt>
      <trkpt lat="44.60375" lon="5.97656">
        <ele>1677.64</ele>
        <time>2015-10-22T12:30:24Z</time>
      </trkpt>
      <trkpt lat="44.60376" lon="5.97654">
        <ele>1677.64</ele>
        <time>2015-10-22T12:30:38Z</time>
      </trkpt>
      <trkpt lat="44.60376" lon="5.97655">
        <ele>1677.64</ele>
        <time>2015-10-22T12:30:53Z</time>
      </trkpt>
      <trkpt lat="44.60376" lon="5.97655">
        <ele>1677.64</ele>
        <time>2015-10-22T12:31:12Z</time>
      </trkpt>
      <trkpt lat="44.60375" lon="5.97655">
        <ele>1677.64</ele>
        <time>2015-10-22T12:31:30Z</time>
      </trkpt>
      <trkpt lat="44.60376" lon="5.97658">
        <ele>1677.16</ele>
        <time>2015-10-22T12:31:47Z</time>
      </trkpt>
      <trkpt lat="44.60375" lon="5.97657">
        <ele>1677.16</ele>
        <time>2015-10-22T12:32:15Z</time>
      </trkpt>
      <trkpt lat="44.60375" lon="5.97656">
        <ele>1677.16</ele>
        <time>2015-10-22T12:32:32Z</time>
      </trkpt>
      <trkpt lat="44.60375" lon="5.97654">
        <ele>1677.16</ele>
        <time>2015-10-22T12:32:51Z</time>
      </trkpt>
      <trkpt lat="44.60374" lon="5.97654">
        <ele>1677.16</ele>
        <time>2015-10-22T12:33:08Z</time>
      </trkpt>
      <trkpt lat="44.60375" lon="5.97655">
        <ele>1677.16</ele>
        <time>2015-10-22T12:33:31Z</time>
      </trkpt>
      <trkpt lat="44.60375" lon="5.97657">
        <ele>1677.16</ele>
        <time>2015-10-22T12:34:03Z</time>
      </trkpt>
      <trkpt lat="44.60375" lon="5.97655">
        <ele>1676.68</ele>
        <time>2015-10-22T12:34:33Z</time>
      </trkpt>
      <trkpt lat="44.60375" lon="5.97657">
        <ele>1676.68</ele>
        <time>2015-10-22T12:34:57Z</time>
      </trkpt>
      <trkpt lat="44.60374" lon="5.97657">
        <ele>1676.68</ele>
        <time>2015-10-22T12:35:15Z</time>
      </trkpt>
      <trkpt lat="44.60375" lon="5.97656">
        <ele>1677.16</ele>
        <time>2015-10-22T12:35:37Z</time>
      </trkpt>
      <trkpt lat="44.60375" lon="5.97655">
        <ele>1676.68</ele>
        <time>2015-10-22T12:36:07Z</time>
      </trkpt>
      <trkpt lat="44.60374" lon="5.97656">
        <ele>1676.68</ele>
        <time>2015-10-22T12:36:28Z</time>
      </trkpt>
      <trkpt lat="44.60375" lon="5.97657">
        <ele>1676.68</ele>
        <time>2015-10-22T12:36:50Z</time>
      </trkpt>
      <trkpt lat="44.6037" lon="5.97673">
        <ele>1676.2</ele>
        <time>2015-10-22T12:37:05Z</time>
      </trkpt>
      <trkpt lat="44.60367" lon="5.97681">
        <ele>1676.68</ele>
        <time>2015-10-22T12:37:13Z</time>
      </trkpt>
      <trkpt lat="44.60357" lon="5.97697">
        <ele>1678.12</ele>
        <time>2015-10-22T12:37:29Z</time>
      </trkpt>
      <trkpt lat="44.6035" lon="5.97709">
        <ele>1679.08</ele>
        <time>2015-10-22T12:37:42Z</time>
      </trkpt>
      <trkpt lat="44.60342" lon="5.97719">
        <ele>1680.04</ele>
        <time>2015-10-22T12:37:56Z</time>
      </trkpt>
      <trkpt lat="44.60333" lon="5.97735">
        <ele>1681.48</ele>
        <time>2015-10-22T12:38:13Z</time>
      </trkpt>
      <trkpt lat="44.60325" lon="5.9775">
        <ele>1682.44</ele>
        <time>2015-10-22T12:38:28Z</time>
      </trkpt>
      <trkpt lat="44.60315" lon="5.97765">
        <ele>1682.44</ele>
        <time>2015-10-22T12:38:44Z</time>
      </trkpt>
      <trkpt lat="44.60307" lon="5.97782">
        <ele>1681.48</ele>
        <time>2015-10-22T12:38:59Z</time>
      </trkpt>
      <trkpt lat="44.60298" lon="5.97799">
        <ele>1681.48</ele>
        <time>2015-10-22T12:39:15Z</time>
      </trkpt>
      <trkpt lat="44.60291" lon="5.97819">
        <ele>1680.52</ele>
        <time>2015-10-22T12:39:33Z</time>
      </trkpt>
      <trkpt lat="44.60286" lon="5.97837">
        <ele>1679.56</ele>
        <time>2015-10-22T12:39:48Z</time>
      </trkpt>
      <trkpt lat="44.60279" lon="5.97855">
        <ele>1678.6</ele>
        <time>2015-10-22T12:40:03Z</time>
      </trkpt>
      <trkpt lat="44.60275" lon="5.97872">
        <ele>1678.12</ele>
        <time>2015-10-22T12:40:18Z</time>
      </trkpt>
      <trkpt lat="44.6027" lon="5.97886">
        <ele>1677.64</ele>
        <time>2015-10-22T12:40:35Z</time>
      </trkpt>
      <trkpt lat="44.60263" lon="5.97904">
        <ele>1677.64</ele>
        <time>2015-10-22T12:40:50Z</time>
      </trkpt>
      <trkpt lat="44.60258" lon="5.97917">
        <ele>1678.12</ele>
        <time>2015-10-22T12:41:03Z</time>
      </trkpt>
      <trkpt lat="44.60252" lon="5.97931">
        <ele>1678.12</ele>
        <time>2015-10-22T12:41:17Z</time>
      </trkpt>
      <trkpt lat="44.60244" lon="5.97948">
        <ele>1678.6</ele>
        <time>2015-10-22T12:41:32Z</time>
      </trkpt>
      <trkpt lat="44.60238" lon="5.97958">
        <ele>1678.6</ele>
        <time>2015-10-22T12:41:46Z</time>
      </trkpt>
      <trkpt lat="44.60233" lon="5.97966">
        <ele>1679.08</ele>
        <time>2015-10-22T12:42:01Z</time>
      </trkpt>
      <trkpt lat="44.60227" lon="5.97981">
        <ele>1680.04</ele>
        <time>2015-10-22T12:42:15Z</time>
      </trkpt>
      <trkpt lat="44.6022" lon="5.97999">
        <ele>1680.04</ele>
        <time>2015-10-22T12:42:29Z</time>
      </trkpt>
      <trkpt lat="44.60213" lon="5.98012">
        <ele>1681</ele>
        <time>2015-10-22T12:42:43Z</time>
      </trkpt>
      <trkpt lat="44.60208" lon="5.98024">
        <ele>1682.44</ele>
        <time>2015-10-22T12:42:56Z</time>
      </trkpt>
      <trkpt lat="44.60201" lon="5.98041">
        <ele>1682.44</ele>
        <time>2015-10-22T12:43:11Z</time>
      </trkpt>
      <trkpt lat="44.60193" lon="5.98058">
        <ele>1682.44</ele>
        <time>2015-10-22T12:43:26Z</time>
      </trkpt>
      <trkpt lat="44.60187" lon="5.98076">
        <ele>1682.93</ele>
        <time>2015-10-22T12:43:41Z</time>
      </trkpt>
      <trkpt lat="44.60186" lon="5.98082">
        <ele>1682.93</ele>
        <time>2015-10-22T12:43:46Z</time>
      </trkpt>
      <trkpt lat="44.60181" lon="5.98089">
        <ele>1682.93</ele>
        <time>2015-10-22T12:43:53Z</time>
      </trkpt>
      <trkpt lat="44.60181" lon="5.98092">
        <ele>1683.41</ele>
        <time>2015-10-22T12:43:56Z</time>
      </trkpt>
      <trkpt lat="44.60177" lon="5.98101">
        <ele>1683.41</ele>
        <time>2015-10-22T12:44:03Z</time>
      </trkpt>
      <trkpt lat="44.60174" lon="5.98104">
        <ele>1683.89</ele>
        <time>2015-10-22T12:44:07Z</time>
      </trkpt>
      <trkpt lat="44.60172" lon="5.98108">
        <ele>1683.89</ele>
        <time>2015-10-22T12:44:11Z</time>
      </trkpt>
      <trkpt lat="44.60166" lon="5.9812">
        <ele>1684.37</ele>
        <time>2015-10-22T12:44:23Z</time>
      </trkpt>
      <trkpt lat="44.60163" lon="5.98126">
        <ele>1684.85</ele>
        <time>2015-10-22T12:44:28Z</time>
      </trkpt>
      <trkpt lat="44.6016" lon="5.98129">
        <ele>1684.85</ele>
        <time>2015-10-22T12:44:32Z</time>
      </trkpt>
      <trkpt lat="44.60159" lon="5.98131">
        <ele>1685.33</ele>
        <time>2015-10-22T12:44:34Z</time>
      </trkpt>
      <trkpt lat="44.60154" lon="5.98143">
        <ele>1685.33</ele>
        <time>2015-10-22T12:44:45Z</time>
      </trkpt>
      <trkpt lat="44.60148" lon="5.98154">
        <ele>1685.81</ele>
        <time>2015-10-22T12:44:56Z</time>
      </trkpt>
      <trkpt lat="44.60146" lon="5.98163">
        <ele>1685.81</ele>
        <time>2015-10-22T12:45:04Z</time>
      </trkpt>
      <trkpt lat="44.60142" lon="5.9818">
        <ele>1685.33</ele>
        <time>2015-10-22T12:45:17Z</time>
      </trkpt>
      <trkpt lat="44.60139" lon="5.9819">
        <ele>1684.85</ele>
        <time>2015-10-22T12:45:32Z</time>
      </trkpt>
      <trkpt lat="44.60137" lon="5.98197">
        <ele>1684.85</ele>
        <time>2015-10-22T12:45:38Z</time>
      </trkpt>
      <trkpt lat="44.60135" lon="5.98213">
        <ele>1685.81</ele>
        <time>2015-10-22T12:45:51Z</time>
      </trkpt>
      <trkpt lat="44.60132" lon="5.98229">
        <ele>1685.81</ele>
        <time>2015-10-22T12:46:03Z</time>
      </trkpt>
      <trkpt lat="44.60132" lon="5.98234">
        <ele>1686.29</ele>
        <time>2015-10-22T12:46:07Z</time>
      </trkpt>
      <trkpt lat="44.60128" lon="5.98247">
        <ele>1686.29</ele>
        <time>2015-10-22T12:46:19Z</time>
      </trkpt>
      <trkpt lat="44.60128" lon="5.9825">
        <ele>1686.29</ele>
        <time>2015-10-22T12:46:21Z</time>
      </trkpt>
      <trkpt lat="44.60126" lon="5.9826">
        <ele>1687.25</ele>
        <time>2015-10-22T12:46:30Z</time>
      </trkpt>
      <trkpt lat="44.60124" lon="5.98275">
        <ele>1688.69</ele>
        <time>2015-10-22T12:46:44Z</time>
      </trkpt>
      <trkpt lat="44.60123" lon="5.98276">
        <ele>1689.17</ele>
        <time>2015-10-22T12:46:46Z</time>
      </trkpt>
      <trkpt lat="44.60119" lon="5.98287">
        <ele>1688.21</ele>
        <time>2015-10-22T12:46:54Z</time>
      </trkpt>
      <trkpt lat="44.60115" lon="5.98296">
        <ele>1687.73</ele>
        <time>2015-10-22T12:47:02Z</time>
      </trkpt>
      <trkpt lat="44.60111" lon="5.98302">
        <ele>1686.77</ele>
        <time>2015-10-22T12:47:15Z</time>
      </trkpt>
      <trkpt lat="44.60111" lon="5.98302">
        <ele>1687.25</ele>
        <time>2015-10-22T12:47:16Z</time>
      </trkpt>
      <trkpt lat="44.60109" lon="5.98303">
        <ele>1687.25</ele>
        <time>2015-10-22T12:47:18Z</time>
      </trkpt>
      <trkpt lat="44.60107" lon="5.98305">
        <ele>1687.25</ele>
        <time>2015-10-22T12:47:21Z</time>
      </trkpt>
      <trkpt lat="44.60099" lon="5.98312">
        <ele>1687.25</ele>
        <time>2015-10-22T12:47:32Z</time>
      </trkpt>
      <trkpt lat="44.60096" lon="5.98315">
        <ele>1687.73</ele>
        <time>2015-10-22T12:47:36Z</time>
      </trkpt>
      <trkpt lat="44.60086" lon="5.98323">
        <ele>1687.73</ele>
        <time>2015-10-22T12:47:48Z</time>
      </trkpt>
      <trkpt lat="44.60076" lon="5.98329">
        <ele>1688.69</ele>
        <time>2015-10-22T12:47:59Z</time>
      </trkpt>
      <trkpt lat="44.60072" lon="5.9833">
        <ele>1688.69</ele>
        <time>2015-10-22T12:48:04Z</time>
      </trkpt>
      <trkpt lat="44.60068" lon="5.98329">
        <ele>1689.17</ele>
        <time>2015-10-22T12:48:08Z</time>
      </trkpt>
      <trkpt lat="44.6006" lon="5.98332">
        <ele>1690.14</ele>
        <time>2015-10-22T12:48:17Z</time>
      </trkpt>
      <trkpt lat="44.60056" lon="5.98334">
        <ele>1690.14</ele>
        <time>2015-10-22T12:48:21Z</time>
      </trkpt>
      <trkpt lat="44.60042" lon="5.9834">
        <ele>1691.1</ele>
        <time>2015-10-22T12:48:37Z</time>
      </trkpt>
      <trkpt lat="44.6004" lon="5.9834">
        <ele>1691.58</ele>
        <time>2015-10-22T12:48:39Z</time>
      </trkpt>
      <trkpt lat="44.60026" lon="5.98349">
        <ele>1691.58</ele>
        <time>2015-10-22T12:48:55Z</time>
      </trkpt>
      <trkpt lat="44.60011" lon="5.98353">
        <ele>1691.58</ele>
        <time>2015-10-22T12:49:11Z</time>
      </trkpt>
      <trkpt lat="44.60001" lon="5.98358">
        <ele>1692.06</ele>
        <time>2015-10-22T12:49:22Z</time>
      </trkpt>
      <trkpt lat="44.59999" lon="5.98358">
        <ele>1691.58</ele>
        <time>2015-10-22T12:49:25Z</time>
      </trkpt>
      <trkpt lat="44.59993" lon="5.9836">
        <ele>1691.58</ele>
        <time>2015-10-22T12:49:32Z</time>
      </trkpt>
      <trkpt lat="44.5999" lon="5.98361">
        <ele>1692.06</ele>
        <time>2015-10-22T12:49:35Z</time>
      </trkpt>
      <trkpt lat="44.59983" lon="5.98361">
        <ele>1693.02</ele>
        <time>2015-10-22T12:49:44Z</time>
      </trkpt>
      <trkpt lat="44.59972" lon="5.9836">
        <ele>1695.9</ele>
        <time>2015-10-22T12:49:57Z</time>
      </trkpt>
      <trkpt lat="44.59966" lon="5.98361">
        <ele>1694.94</ele>
        <time>2015-10-22T12:50:03Z</time>
      </trkpt>
      <trkpt lat="44.59952" lon="5.98363">
        <ele>1695.42</ele>
        <time>2015-10-22T12:50:18Z</time>
      </trkpt>
      <trkpt lat="44.59937" lon="5.98366">
        <ele>1695.9</ele>
        <time>2015-10-22T12:50:33Z</time>
      </trkpt>
      <trkpt lat="44.59936" lon="5.98366">
        <ele>1695.9</ele>
        <time>2015-10-22T12:50:34Z</time>
      </trkpt>
      <trkpt lat="44.59924" lon="5.98368">
        <ele>1696.38</ele>
        <time>2015-10-22T12:50:49Z</time>
      </trkpt>
      <trkpt lat="44.59913" lon="5.98369">
        <ele>1696.38</ele>
        <time>2015-10-22T12:51:03Z</time>
      </trkpt>
      <trkpt lat="44.59913" lon="5.98369">
        <ele>1696.38</ele>
        <time>2015-10-22T12:51:04Z</time>
      </trkpt>
      <trkpt lat="44.59911" lon="5.98369">
        <ele>1696.38</ele>
        <time>2015-10-22T12:51:06Z</time>
      </trkpt>
      <trkpt lat="44.59896" lon="5.98369">
        <ele>1696.38</ele>
        <time>2015-10-22T12:51:22Z</time>
      </trkpt>
      <trkpt lat="44.59884" lon="5.98368">
        <ele>1696.38</ele>
        <time>2015-10-22T12:51:35Z</time>
      </trkpt>
      <trkpt lat="44.59877" lon="5.9837">
        <ele>1696.38</ele>
        <time>2015-10-22T12:51:43Z</time>
      </trkpt>
      <trkpt lat="44.59874" lon="5.98371">
        <ele>1696.38</ele>
        <time>2015-10-22T12:51:45Z</time>
      </trkpt>
      <trkpt lat="44.5986" lon="5.98374">
        <ele>1696.86</ele>
        <time>2015-10-22T12:52:01Z</time>
      </trkpt>
      <trkpt lat="44.59858" lon="5.98373">
        <ele>1696.86</ele>
        <time>2015-10-22T12:52:03Z</time>
      </trkpt>
      <trkpt lat="44.59842" lon="5.98376">
        <ele>1696.86</ele>
        <time>2015-10-22T12:52:20Z</time>
      </trkpt>
      <trkpt lat="44.5983" lon="5.98376">
        <ele>1697.34</ele>
        <time>2015-10-22T12:52:33Z</time>
      </trkpt>
      <trkpt lat="44.59815" lon="5.98379">
        <ele>1698.31</ele>
        <time>2015-10-22T12:52:50Z</time>
      </trkpt>
      <trkpt lat="44.59811" lon="5.9838">
        <ele>1698.79</ele>
        <time>2015-10-22T12:52:54Z</time>
      </trkpt>
      <trkpt lat="44.59806" lon="5.98381">
        <ele>1699.27</ele>
        <time>2015-10-22T12:52:59Z</time>
      </trkpt>
      <trkpt lat="44.59792" lon="5.98381">
        <ele>1700.71</ele>
        <time>2015-10-22T12:53:15Z</time>
      </trkpt>
      <trkpt lat="44.59778" lon="5.98383">
        <ele>1701.67</ele>
        <time>2015-10-22T12:53:30Z</time>
      </trkpt>
      <trkpt lat="44.59767" lon="5.98388">
        <ele>1702.15</ele>
        <time>2015-10-22T12:53:44Z</time>
      </trkpt>
      <trkpt lat="44.59755" lon="5.98391">
        <ele>1702.63</ele>
        <time>2015-10-22T12:53:58Z</time>
      </trkpt>
      <trkpt lat="44.59745" lon="5.98393">
        <ele>1704.07</ele>
        <time>2015-10-22T12:54:11Z</time>
      </trkpt>
      <trkpt lat="44.59735" lon="5.98392">
        <ele>1706</ele>
        <time>2015-10-22T12:54:25Z</time>
      </trkpt>
      <trkpt lat="44.59726" lon="5.98392">
        <ele>1707.44</ele>
        <time>2015-10-22T12:54:37Z</time>
      </trkpt>
      <trkpt lat="44.59723" lon="5.98392">
        <ele>1707.92</ele>
        <time>2015-10-22T12:54:41Z</time>
      </trkpt>
      <trkpt lat="44.59719" lon="5.98392">
        <ele>1708.4</ele>
        <time>2015-10-22T12:54:46Z</time>
      </trkpt>
      <trkpt lat="44.5971" lon="5.9839">
        <ele>1709.84</ele>
        <time>2015-10-22T12:54:58Z</time>
      </trkpt>
      <trkpt lat="44.59697" lon="5.98388">
        <ele>1711.28</ele>
        <time>2015-10-22T12:55:13Z</time>
      </trkpt>
      <trkpt lat="44.59694" lon="5.98388">
        <ele>1711.28</ele>
        <time>2015-10-22T12:55:16Z</time>
      </trkpt>
      <trkpt lat="44.59689" lon="5.98392">
        <ele>1711.28</ele>
        <time>2015-10-22T12:55:23Z</time>
      </trkpt>
      <trkpt lat="44.59679" lon="5.98392">
        <ele>1711.28</ele>
        <time>2015-10-22T12:55:34Z</time>
      </trkpt>
      <trkpt lat="44.59673" lon="5.98392">
        <ele>1711.76</ele>
        <time>2015-10-22T12:55:42Z</time>
      </trkpt>
      <trkpt lat="44.59664" lon="5.9839">
        <ele>1712.25</ele>
        <time>2015-10-22T12:55:52Z</time>
      </trkpt>
      <trkpt lat="44.59657" lon="5.98393">
        <ele>1712.25</ele>
        <time>2015-10-22T12:55:59Z</time>
      </trkpt>
      <trkpt lat="44.59648" lon="5.98395">
        <ele>1713.21</ele>
        <time>2015-10-22T12:56:11Z</time>
      </trkpt>
      <trkpt lat="44.59638" lon="5.98392">
        <ele>1714.65</ele>
        <time>2015-10-22T12:56:22Z</time>
      </trkpt>
      <trkpt lat="44.59628" lon="5.98392">
        <ele>1717.53</ele>
        <time>2015-10-22T12:56:35Z</time>
      </trkpt>
      <trkpt lat="44.5962" lon="5.98389">
        <ele>1719.46</ele>
        <time>2015-10-22T12:56:46Z</time>
      </trkpt>
      <trkpt lat="44.59612" lon="5.98383">
        <ele>1721.86</ele>
        <time>2015-10-22T12:57:01Z</time>
      </trkpt>
      <trkpt lat="44.59606" lon="5.98375">
        <ele>1724.74</ele>
        <time>2015-10-22T12:57:15Z</time>
      </trkpt>
      <trkpt lat="44.59599" lon="5.98367">
        <ele>1728.11</ele>
        <time>2015-10-22T12:57:30Z</time>
      </trkpt>
      <trkpt lat="44.59593" lon="5.9836">
        <ele>1730.51</ele>
        <time>2015-10-22T12:57:44Z</time>
      </trkpt>
      <trkpt lat="44.59585" lon="5.98356">
        <ele>1732.43</ele>
        <time>2015-10-22T12:57:57Z</time>
      </trkpt>
      <trkpt lat="44.59584" lon="5.98355">
        <ele>1732.43</ele>
        <time>2015-10-22T12:57:58Z</time>
      </trkpt>
      <trkpt lat="44.59572" lon="5.98352">
        <ele>1732.91</ele>
        <time>2015-10-22T12:58:12Z</time>
      </trkpt>
      <trkpt lat="44.5956" lon="5.98345">
        <ele>1733.39</ele>
        <time>2015-10-22T12:58:27Z</time>
      </trkpt>
      <trkpt lat="44.59551" lon="5.98339">
        <ele>1734.84</ele>
        <time>2015-10-22T12:58:40Z</time>
      </trkpt>
      <trkpt lat="44.59544" lon="5.98335">
        <ele>1735.8</ele>
        <time>2015-10-22T12:58:49Z</time>
      </trkpt>
      <trkpt lat="44.59542" lon="5.98335">
        <ele>1735.8</ele>
        <time>2015-10-22T12:58:51Z</time>
      </trkpt>
      <trkpt lat="44.59535" lon="5.98335">
        <ele>1735.32</ele>
        <time>2015-10-22T12:58:58Z</time>
      </trkpt>
      <trkpt lat="44.59522" lon="5.98342">
        <ele>1733.39</ele>
        <time>2015-10-22T12:59:13Z</time>
      </trkpt>
      <trkpt lat="44.59506" lon="5.98345">
        <ele>1735.32</ele>
        <time>2015-10-22T12:59:30Z</time>
      </trkpt>
      <trkpt lat="44.59494" lon="5.98352">
        <ele>1736.28</ele>
        <time>2015-10-22T12:59:45Z</time>
      </trkpt>
      <trkpt lat="44.59486" lon="5.98362">
        <ele>1734.84</ele>
        <time>2015-10-22T13:00:00Z</time>
      </trkpt>
      <trkpt lat="44.59483" lon="5.98365">
        <ele>1733.88</ele>
        <time>2015-10-22T13:00:05Z</time>
      </trkpt>
      <trkpt lat="44.59471" lon="5.98379">
        <ele>1732.43</ele>
        <time>2015-10-22T13:00:24Z</time>
      </trkpt>
      <trkpt lat="44.5946" lon="5.98389">
        <ele>1731.47</ele>
        <time>2015-10-22T13:00:38Z</time>
      </trkpt>
      <trkpt lat="44.59448" lon="5.98405">
        <ele>1728.59</ele>
        <time>2015-10-22T13:00:55Z</time>
      </trkpt>
      <trkpt lat="44.59436" lon="5.98415">
        <ele>1726.18</ele>
        <time>2015-10-22T13:01:11Z</time>
      </trkpt>
      <trkpt lat="44.59423" lon="5.98428">
        <ele>1723.78</ele>
        <time>2015-10-22T13:01:28Z</time>
      </trkpt>
      <trkpt lat="44.5941" lon="5.98442">
        <ele>1720.9</ele>
        <time>2015-10-22T13:01:45Z</time>
      </trkpt>
      <trkpt lat="44.59407" lon="5.98447">
        <ele>1718.97</ele>
        <time>2015-10-22T13:01:53Z</time>
      </trkpt>
      <trkpt lat="44.59401" lon="5.98457">
        <ele>1716.09</ele>
        <time>2015-10-22T13:02:03Z</time>
      </trkpt>
      <trkpt lat="44.59394" lon="5.98469">
        <ele>1713.21</ele>
        <time>2015-10-22T13:02:16Z</time>
      </trkpt>
      <trkpt lat="44.59386" lon="5.9848">
        <ele>1710.32</ele>
        <time>2015-10-22T13:02:27Z</time>
      </trkpt>
      <trkpt lat="44.59381" lon="5.98483">
        <ele>1709.84</ele>
        <time>2015-10-22T13:02:33Z</time>
      </trkpt>
      <trkpt lat="44.59374" lon="5.98497">
        <ele>1706</ele>
        <time>2015-10-22T13:02:46Z</time>
      </trkpt>
      <trkpt lat="44.59366" lon="5.98508">
        <ele>1703.11</ele>
        <time>2015-10-22T13:02:57Z</time>
      </trkpt>
      <trkpt lat="44.59351" lon="5.98524">
        <ele>1699.75</ele>
        <time>2015-10-22T13:03:14Z</time>
      </trkpt>
      <trkpt lat="44.59348" lon="5.98528">
        <ele>1698.79</ele>
        <time>2015-10-22T13:03:19Z</time>
      </trkpt>
      <trkpt lat="44.59343" lon="5.98537">
        <ele>1696.38</ele>
        <time>2015-10-22T13:03:26Z</time>
      </trkpt>
      <trkpt lat="44.59331" lon="5.98548">
        <ele>1693.5</ele>
        <time>2015-10-22T13:03:39Z</time>
      </trkpt>
      <trkpt lat="44.5932" lon="5.98562">
        <ele>1690.62</ele>
        <time>2015-10-22T13:03:53Z</time>
      </trkpt>
      <trkpt lat="44.59307" lon="5.98575">
        <ele>1687.25</ele>
        <time>2015-10-22T13:04:08Z</time>
      </trkpt>
      <trkpt lat="44.5929" lon="5.9859">
        <ele>1684.85</ele>
        <time>2015-10-22T13:04:25Z</time>
      </trkpt>
      <trkpt lat="44.59283" lon="5.98603">
        <ele>1681.96</ele>
        <time>2015-10-22T13:04:36Z</time>
      </trkpt>
      <trkpt lat="44.59274" lon="5.98611">
        <ele>1680.52</ele>
        <time>2015-10-22T13:04:45Z</time>
      </trkpt>
      <trkpt lat="44.59273" lon="5.98616">
        <ele>1679.08</ele>
        <time>2015-10-22T13:04:50Z</time>
      </trkpt>
      <trkpt lat="44.59264" lon="5.98625">
        <ele>1676.68</ele>
        <time>2015-10-22T13:05:02Z</time>
      </trkpt>
      <trkpt lat="44.59258" lon="5.98629">
        <ele>1675.72</ele>
        <time>2015-10-22T13:05:08Z</time>
      </trkpt>
      <trkpt lat="44.59249" lon="5.98641">
        <ele>1672.83</ele>
        <time>2015-10-22T13:05:19Z</time>
      </trkpt>
      <trkpt lat="44.59248" lon="5.98646">
        <ele>1671.39</ele>
        <time>2015-10-22T13:05:23Z</time>
      </trkpt>
      <trkpt lat="44.59247" lon="5.98649">
        <ele>1670.43</ele>
        <time>2015-10-22T13:05:26Z</time>
      </trkpt>
      <trkpt lat="44.5924" lon="5.9866">
        <ele>1667.06</ele>
        <time>2015-10-22T13:05:37Z</time>
      </trkpt>
      <trkpt lat="44.59232" lon="5.98673">
        <ele>1664.18</ele>
        <time>2015-10-22T13:05:49Z</time>
      </trkpt>
      <trkpt lat="44.59225" lon="5.98687">
        <ele>1660.81</ele>
        <time>2015-10-22T13:06:00Z</time>
      </trkpt>
      <trkpt lat="44.59224" lon="5.98688">
        <ele>1660.33</ele>
        <time>2015-10-22T13:06:02Z</time>
      </trkpt>
      <trkpt lat="44.59212" lon="5.98702">
        <ele>1659.37</ele>
        <time>2015-10-22T13:06:15Z</time>
      </trkpt>
      <trkpt lat="44.59209" lon="5.98704">
        <ele>1657.45</ele>
        <time>2015-10-22T13:06:18Z</time>
      </trkpt>
      <trkpt lat="44.59198" lon="5.98716">
        <ele>1655.53</ele>
        <time>2015-10-22T13:06:31Z</time>
      </trkpt>
      <trkpt lat="44.59193" lon="5.98728">
        <ele>1652.16</ele>
        <time>2015-10-22T13:06:42Z</time>
      </trkpt>
      <trkpt lat="44.59193" lon="5.98728">
        <ele>1651.68</ele>
        <time>2015-10-22T13:06:43Z</time>
      </trkpt>
      <trkpt lat="44.59186" lon="5.98736">
        <ele>1650.24</ele>
        <time>2015-10-22T13:06:51Z</time>
      </trkpt>
      <trkpt lat="44.59182" lon="5.98739">
        <ele>1649.76</ele>
        <time>2015-10-22T13:06:55Z</time>
      </trkpt>
      <trkpt lat="44.59178" lon="5.98743">
        <ele>1648.8</ele>
        <time>2015-10-22T13:06:59Z</time>
      </trkpt>
      <trkpt lat="44.59173" lon="5.98755">
        <ele>1645.43</ele>
        <time>2015-10-22T13:07:10Z</time>
      </trkpt>
      <trkpt lat="44.59173" lon="5.98757">
        <ele>1644.47</ele>
        <time>2015-10-22T13:07:13Z</time>
      </trkpt>
      <trkpt lat="44.59165" lon="5.98769">
        <ele>1642.07</ele>
        <time>2015-10-22T13:07:24Z</time>
      </trkpt>
      <trkpt lat="44.5916" lon="5.98774">
        <ele>1641.11</ele>
        <time>2015-10-22T13:07:28Z</time>
      </trkpt>
      <trkpt lat="44.59152" lon="5.98786">
        <ele>1638.7</ele>
        <time>2015-10-22T13:07:37Z</time>
      </trkpt>
      <trkpt lat="44.59142" lon="5.98792">
        <ele>1637.26</ele>
        <time>2015-10-22T13:07:48Z</time>
      </trkpt>
      <trkpt lat="44.59131" lon="5.98798">
        <ele>1636.78</ele>
        <time>2015-10-22T13:07:59Z</time>
      </trkpt>
      <trkpt lat="44.59123" lon="5.98803">
        <ele>1636.78</ele>
        <time>2015-10-22T13:08:08Z</time>
      </trkpt>
      <trkpt lat="44.5912" lon="5.98805">
        <ele>1636.78</ele>
        <time>2015-10-22T13:08:12Z</time>
      </trkpt>
      <trkpt lat="44.59108" lon="5.98811">
        <ele>1635.82</ele>
        <time>2015-10-22T13:08:24Z</time>
      </trkpt>
      <trkpt lat="44.59098" lon="5.98815">
        <ele>1635.82</ele>
        <time>2015-10-22T13:08:32Z</time>
      </trkpt>
      <trkpt lat="44.59093" lon="5.98818">
        <ele>1636.3</ele>
        <time>2015-10-22T13:08:38Z</time>
      </trkpt>
      <trkpt lat="44.5909" lon="5.98818">
        <ele>1636.3</ele>
        <time>2015-10-22T13:08:40Z</time>
      </trkpt>
      <trkpt lat="44.59084" lon="5.9882">
        <ele>1635.82</ele>
        <time>2015-10-22T13:08:47Z</time>
      </trkpt>
      <trkpt lat="44.59079" lon="5.98814">
        <ele>1636.3</ele>
        <time>2015-10-22T13:09:01Z</time>
      </trkpt>
      <trkpt lat="44.59079" lon="5.98815">
        <ele>1636.3</ele>
        <time>2015-10-22T13:09:18Z</time>
      </trkpt>
      <trkpt lat="44.5908" lon="5.98816">
        <ele>1636.3</ele>
        <time>2015-10-22T13:09:51Z</time>
      </trkpt>
      <trkpt lat="44.5908" lon="5.98815">
        <ele>1636.3</ele>
        <time>2015-10-22T13:10:13Z</time>
      </trkpt>
      <trkpt lat="44.5908" lon="5.98814">
        <ele>1635.82</ele>
        <time>2015-10-22T13:10:38Z</time>
      </trkpt>
      <trkpt lat="44.5908" lon="5.98814">
        <ele>1635.82</ele>
        <time>2015-10-22T13:10:59Z</time>
      </trkpt>
      <trkpt lat="44.59079" lon="5.98815">
        <ele>1635.34</ele>
        <time>2015-10-22T13:11:19Z</time>
      </trkpt>
      <trkpt lat="44.5908" lon="5.98814">
        <ele>1635.34</ele>
        <time>2015-10-22T13:11:37Z</time>
      </trkpt>
      <trkpt lat="44.5908" lon="5.98814">
        <ele>1635.82</ele>
        <time>2015-10-22T13:12:01Z</time>
      </trkpt>
      <trkpt lat="44.5908" lon="5.98816">
        <ele>1635.82</ele>
        <time>2015-10-22T13:12:27Z</time>
      </trkpt>
      <trkpt lat="44.5908" lon="5.98816">
        <ele>1635.34</ele>
        <time>2015-10-22T13:12:43Z</time>
      </trkpt>
      <trkpt lat="44.59079" lon="5.98818">
        <ele>1635.34</ele>
        <time>2015-10-22T13:13:06Z</time>
      </trkpt>
      <trkpt lat="44.59079" lon="5.98817">
        <ele>1635.82</ele>
        <time>2015-10-22T13:13:24Z</time>
      </trkpt>
      <trkpt lat="44.59079" lon="5.98814">
        <ele>1635.82</ele>
        <time>2015-10-22T13:13:37Z</time>
      </trkpt>
      <trkpt lat="44.59081" lon="5.98815">
        <ele>1636.3</ele>
        <time>2015-10-22T13:13:54Z</time>
      </trkpt>
      <trkpt lat="44.59082" lon="5.98816">
        <ele>1637.26</ele>
        <time>2015-10-22T13:14:18Z</time>
      </trkpt>
      <trkpt lat="44.59081" lon="5.98815">
        <ele>1635.82</ele>
        <time>2015-10-22T13:14:46Z</time>
      </trkpt>
      <trkpt lat="44.59088" lon="5.98817">
        <ele>1635.34</ele>
        <time>2015-10-22T13:15:11Z</time>
      </trkpt>
      <trkpt lat="44.59089" lon="5.98818">
        <ele>1634.86</ele>
        <time>2015-10-22T13:15:24Z</time>
      </trkpt>
      <trkpt lat="44.59088" lon="5.98818">
        <ele>1635.34</ele>
        <time>2015-10-22T13:15:57Z</time>
      </trkpt>
      <trkpt lat="44.59088" lon="5.98818">
        <ele>1636.3</ele>
        <time>2015-10-22T13:16:19Z</time>
      </trkpt>
      <trkpt lat="44.59083" lon="5.98816">
        <ele>1636.3</ele>
        <time>2015-10-22T13:16:30Z</time>
      </trkpt>
      <trkpt lat="44.59083" lon="5.98817">
        <ele>1636.3</ele>
        <time>2015-10-22T13:16:48Z</time>
      </trkpt>
      <trkpt lat="44.59081" lon="5.98816">
        <ele>1636.3</ele>
        <time>2015-10-22T13:17:24Z</time>
      </trkpt>
      <trkpt lat="44.59078" lon="5.98816">
        <ele>1635.82</ele>
        <time>2015-10-22T13:17:27Z</time>
      </trkpt>
      <trkpt lat="44.59078" lon="5.98808">
        <ele>1634.38</ele>
        <time>2015-10-22T13:17:33Z</time>
      </trkpt>
      <trkpt lat="44.59085" lon="5.98789">
        <ele>1631.01</ele>
        <time>2015-10-22T13:17:48Z</time>
      </trkpt>
      <trkpt lat="44.59087" lon="5.98775">
        <ele>1627.65</ele>
        <time>2015-10-22T13:18:00Z</time>
      </trkpt>
      <trkpt lat="44.59088" lon="5.98772">
        <ele>1627.65</ele>
        <time>2015-10-22T13:18:02Z</time>
      </trkpt>
      <trkpt lat="44.59086" lon="5.98758">
        <ele>1624.28</ele>
        <time>2015-10-22T13:18:14Z</time>
      </trkpt>
      <trkpt lat="44.59085" lon="5.98746">
        <ele>1620.92</ele>
        <time>2015-10-22T13:18:24Z</time>
      </trkpt>
      <trkpt lat="44.59086" lon="5.98744">
        <ele>1620.92</ele>
        <time>2015-10-22T13:18:25Z</time>
      </trkpt>
      <trkpt lat="44.59094" lon="5.98725">
        <ele>1618.52</ele>
        <time>2015-10-22T13:18:42Z</time>
      </trkpt>
      <trkpt lat="44.59096" lon="5.98716">
        <ele>1616.59</ele>
        <time>2015-10-22T13:18:50Z</time>
      </trkpt>
      <trkpt lat="44.59097" lon="5.98713">
        <ele>1616.11</ele>
        <time>2015-10-22T13:18:53Z</time>
      </trkpt>
      <trkpt lat="44.591" lon="5.98707">
        <ele>1615.63</ele>
        <time>2015-10-22T13:18:58Z</time>
      </trkpt>
      <trkpt lat="44.59097" lon="5.98699">
        <ele>1612.75</ele>
        <time>2015-10-22T13:19:10Z</time>
      </trkpt>
      <trkpt lat="44.59087" lon="5.98714">
        <ele>1609.86</ele>
        <time>2015-10-22T13:19:24Z</time>
      </trkpt>
      <trkpt lat="44.59083" lon="5.9872">
        <ele>1608.9</ele>
        <time>2015-10-22T13:19:31Z</time>
      </trkpt>
      <trkpt lat="44.59074" lon="5.9874">
        <ele>1606.5</ele>
        <time>2015-10-22T13:19:47Z</time>
      </trkpt>
      <trkpt lat="44.59073" lon="5.98741">
        <ele>1606.5</ele>
        <time>2015-10-22T13:19:48Z</time>
      </trkpt>
      <trkpt lat="44.59066" lon="5.98749">
        <ele>1603.62</ele>
        <time>2015-10-22T13:19:58Z</time>
      </trkpt>
      <trkpt lat="44.59065" lon="5.98734">
        <ele>1600.73</ele>
        <time>2015-10-22T13:20:11Z</time>
      </trkpt>
      <trkpt lat="44.59067" lon="5.98727">
        <ele>1599.77</ele>
        <time>2015-10-22T13:20:16Z</time>
      </trkpt>
      <trkpt lat="44.59071" lon="5.98709">
        <ele>1598.33</ele>
        <time>2015-10-22T13:20:31Z</time>
      </trkpt>
      <trkpt lat="44.59073" lon="5.98695">
        <ele>1595.93</ele>
        <time>2015-10-22T13:20:43Z</time>
      </trkpt>
      <trkpt lat="44.59074" lon="5.98691">
        <ele>1595.45</ele>
        <time>2015-10-22T13:20:47Z</time>
      </trkpt>
      <trkpt lat="44.59076" lon="5.98682">
        <ele>1594</ele>
        <time>2015-10-22T13:20:55Z</time>
      </trkpt>
      <trkpt lat="44.59079" lon="5.98664">
        <ele>1591.6</ele>
        <time>2015-10-22T13:21:09Z</time>
      </trkpt>
      <trkpt lat="44.59078" lon="5.98658">
        <ele>1590.64</ele>
        <time>2015-10-22T13:21:13Z</time>
      </trkpt>
      <trkpt lat="44.59081" lon="5.98641">
        <ele>1588.24</ele>
        <time>2015-10-22T13:21:28Z</time>
      </trkpt>
      <trkpt lat="44.59085" lon="5.98624">
        <ele>1586.79</ele>
        <time>2015-10-22T13:21:41Z</time>
      </trkpt>
      <trkpt lat="44.59088" lon="5.98605">
        <ele>1584.87</ele>
        <time>2015-10-22T13:21:54Z</time>
      </trkpt>
      <trkpt lat="44.59088" lon="5.98601">
        <ele>1583.91</ele>
        <time>2015-10-22T13:21:58Z</time>
      </trkpt>
      <trkpt lat="44.59091" lon="5.9858">
        <ele>1581.51</ele>
        <time>2015-10-22T13:22:13Z</time>
      </trkpt>
      <trkpt lat="44.59094" lon="5.98563">
        <ele>1579.1</ele>
        <time>2015-10-22T13:22:25Z</time>
      </trkpt>
      <trkpt lat="44.59096" lon="5.98544">
        <ele>1575.74</ele>
        <time>2015-10-22T13:22:39Z</time>
      </trkpt>
      <trkpt lat="44.59096" lon="5.98531">
        <ele>1572.85</ele>
        <time>2015-10-22T13:22:48Z</time>
      </trkpt>
      <trkpt lat="44.59101" lon="5.9851">
        <ele>1570.45</ele>
        <time>2015-10-22T13:23:04Z</time>
      </trkpt>
      <trkpt lat="44.59102" lon="5.98503">
        <ele>1569.49</ele>
        <time>2015-10-22T13:23:09Z</time>
      </trkpt>
      <trkpt lat="44.59103" lon="5.985">
        <ele>1569.01</ele>
        <time>2015-10-22T13:23:11Z</time>
      </trkpt>
      <trkpt lat="44.59103" lon="5.98496">
        <ele>1568.53</ele>
        <time>2015-10-22T13:23:14Z</time>
      </trkpt>
      <trkpt lat="44.59107" lon="5.98487">
        <ele>1568.05</ele>
        <time>2015-10-22T13:23:21Z</time>
      </trkpt>
      <trkpt lat="44.59108" lon="5.98479">
        <ele>1567.09</ele>
        <time>2015-10-22T13:23:27Z</time>
      </trkpt>
      <trkpt lat="44.59107" lon="5.98476">
        <ele>1566.12</ele>
        <time>2015-10-22T13:23:30Z</time>
      </trkpt>
      <trkpt lat="44.59109" lon="5.9847">
        <ele>1565.64</ele>
        <time>2015-10-22T13:23:34Z</time>
      </trkpt>
      <trkpt lat="44.59113" lon="5.98449">
        <ele>1563.24</ele>
        <time>2015-10-22T13:23:50Z</time>
      </trkpt>
      <trkpt lat="44.59115" lon="5.98446">
        <ele>1563.72</ele>
        <time>2015-10-22T13:23:53Z</time>
      </trkpt>
      <trkpt lat="44.59118" lon="5.98424">
        <ele>1561.32</ele>
        <time>2015-10-22T13:24:10Z</time>
      </trkpt>
      <trkpt lat="44.5912" lon="5.98408">
        <ele>1558.43</ele>
        <time>2015-10-22T13:24:25Z</time>
      </trkpt>
      <trkpt lat="44.59122" lon="5.98398">
        <ele>1556.99</ele>
        <time>2015-10-22T13:24:33Z</time>
      </trkpt>
      <trkpt lat="44.59127" lon="5.98383">
        <ele>1556.51</ele>
        <time>2015-10-22T13:24:45Z</time>
      </trkpt>
      <trkpt lat="44.5913" lon="5.98361">
        <ele>1553.63</ele>
        <time>2015-10-22T13:25:01Z</time>
      </trkpt>
      <trkpt lat="44.5913" lon="5.9836">
        <ele>1553.63</ele>
        <time>2015-10-22T13:25:02Z</time>
      </trkpt>
      <trkpt lat="44.59134" lon="5.98333">
        <ele>1551.22</ele>
        <time>2015-10-22T13:25:21Z</time>
      </trkpt>
      <trkpt lat="44.59136" lon="5.98313">
        <ele>1548.34</ele>
        <time>2015-10-22T13:25:36Z</time>
      </trkpt>
      <trkpt lat="44.59138" lon="5.98298">
        <ele>1545.94</ele>
        <time>2015-10-22T13:25:50Z</time>
      </trkpt>
      <trkpt lat="44.59139" lon="5.98296">
        <ele>1545.46</ele>
        <time>2015-10-22T13:25:51Z</time>
      </trkpt>
      <trkpt lat="44.59144" lon="5.98272">
        <ele>1542.57</ele>
        <time>2015-10-22T13:26:07Z</time>
      </trkpt>
      <trkpt lat="44.59148" lon="5.98249">
        <ele>1540.17</ele>
        <time>2015-10-22T13:26:25Z</time>
      </trkpt>
      <trkpt lat="44.59149" lon="5.9823">
        <ele>1537.77</ele>
        <time>2015-10-22T13:26:38Z</time>
      </trkpt>
      <trkpt lat="44.59152" lon="5.98209">
        <ele>1534.4</ele>
        <time>2015-10-22T13:26:54Z</time>
      </trkpt>
      <trkpt lat="44.59153" lon="5.98201">
        <ele>1533.92</ele>
        <time>2015-10-22T13:27:00Z</time>
      </trkpt>
      <trkpt lat="44.59156" lon="5.98179">
        <ele>1530.56</ele>
        <time>2015-10-22T13:27:15Z</time>
      </trkpt>
      <trkpt lat="44.59157" lon="5.98173">
        <ele>1529.59</ele>
        <time>2015-10-22T13:27:19Z</time>
      </trkpt>
      <trkpt lat="44.59161" lon="5.9815">
        <ele>1526.23</ele>
        <time>2015-10-22T13:27:35Z</time>
      </trkpt>
      <trkpt lat="44.59163" lon="5.98133">
        <ele>1522.87</ele>
        <time>2015-10-22T13:27:47Z</time>
      </trkpt>
      <trkpt lat="44.59166" lon="5.98124">
        <ele>1521.9</ele>
        <time>2015-10-22T13:27:53Z</time>
      </trkpt>
      <trkpt lat="44.5917" lon="5.98103">
        <ele>1518.54</ele>
        <time>2015-10-22T13:28:08Z</time>
      </trkpt>
      <trkpt lat="44.59174" lon="5.98079">
        <ele>1517.58</ele>
        <time>2015-10-22T13:28:24Z</time>
      </trkpt>
      <trkpt lat="44.59177" lon="5.98053">
        <ele>1514.69</ele>
        <time>2015-10-22T13:28:41Z</time>
      </trkpt>
      <trkpt lat="44.5918" lon="5.98034">
        <ele>1511.33</ele>
        <time>2015-10-22T13:28:53Z</time>
      </trkpt>
      <trkpt lat="44.5918" lon="5.98032">
        <ele>1511.33</ele>
        <time>2015-10-22T13:28:54Z</time>
      </trkpt>
      <trkpt lat="44.59182" lon="5.98009">
        <ele>1507.97</ele>
        <time>2015-10-22T13:29:10Z</time>
      </trkpt>
      <trkpt lat="44.59184" lon="5.98008">
        <ele>1507.48</ele>
        <time>2015-10-22T13:29:23Z</time>
      </trkpt>
      <trkpt lat="44.59185" lon="5.97998">
        <ele>1506.52</ele>
        <time>2015-10-22T13:29:39Z</time>
      </trkpt>
      <trkpt lat="44.59186" lon="5.97987">
        <ele>1504.6</ele>
        <time>2015-10-22T13:29:52Z</time>
      </trkpt>
      <trkpt lat="44.59188" lon="5.97974">
        <ele>1503.64</ele>
        <time>2015-10-22T13:30:05Z</time>
      </trkpt>
      <trkpt lat="44.59191" lon="5.97955">
        <ele>1501.24</ele>
        <time>2015-10-22T13:30:21Z</time>
      </trkpt>
      <trkpt lat="44.59193" lon="5.97937">
        <ele>1499.31</ele>
        <time>2015-10-22T13:30:37Z</time>
      </trkpt>
      <trkpt lat="44.59195" lon="5.97928">
        <ele>1498.35</ele>
        <time>2015-10-22T13:30:45Z</time>
      </trkpt>
      <trkpt lat="44.59198" lon="5.9791">
        <ele>1495.95</ele>
        <time>2015-10-22T13:31:01Z</time>
      </trkpt>
      <trkpt lat="44.592" lon="5.97904">
        <ele>1495.47</ele>
        <time>2015-10-22T13:31:06Z</time>
      </trkpt>
      <trkpt lat="44.59201" lon="5.97881">
        <ele>1493.55</ele>
        <time>2015-10-22T13:31:23Z</time>
      </trkpt>
      <trkpt lat="44.59203" lon="5.9786">
        <ele>1491.14</ele>
        <time>2015-10-22T13:31:40Z</time>
      </trkpt>
      <trkpt lat="44.59204" lon="5.9784">
        <ele>1488.74</ele>
        <time>2015-10-22T13:31:58Z</time>
      </trkpt>
      <trkpt lat="44.59206" lon="5.97819">
        <ele>1487.3</ele>
        <time>2015-10-22T13:32:15Z</time>
      </trkpt>
      <trkpt lat="44.59206" lon="5.97801">
        <ele>1484.89</ele>
        <time>2015-10-22T13:32:30Z</time>
      </trkpt>
      <trkpt lat="44.59206" lon="5.97782">
        <ele>1482.97</ele>
        <time>2015-10-22T13:32:43Z</time>
      </trkpt>
      <trkpt lat="44.59203" lon="5.97761">
        <ele>1480.57</ele>
        <time>2015-10-22T13:33:00Z</time>
      </trkpt>
      <trkpt lat="44.592" lon="5.97742">
        <ele>1478.65</ele>
        <time>2015-10-22T13:33:15Z</time>
      </trkpt>
      <trkpt lat="44.59199" lon="5.97744">
        <ele>1478.65</ele>
        <time>2015-10-22T13:33:29Z</time>
      </trkpt>
      <trkpt lat="44.59198" lon="5.97741">
        <ele>1478.16</ele>
        <time>2015-10-22T13:33:46Z</time>
      </trkpt>
      <trkpt lat="44.59199" lon="5.97743">
        <ele>1477.68</ele>
        <time>2015-10-22T13:33:59Z</time>
      </trkpt>
      <trkpt lat="44.59199" lon="5.97744">
        <ele>1477.68</ele>
        <time>2015-10-22T13:34:33Z</time>
      </trkpt>
      <trkpt lat="44.59198" lon="5.97743">
        <ele>1477.2</ele>
        <time>2015-10-22T13:35:05Z</time>
      </trkpt>
      <trkpt lat="44.59196" lon="5.97746">
        <ele>1477.2</ele>
        <time>2015-10-22T13:35:32Z</time>
      </trkpt>
      <trkpt lat="44.59198" lon="5.97741">
        <ele>1477.68</ele>
        <time>2015-10-22T13:36:00Z</time>
      </trkpt>
      <trkpt lat="44.59196" lon="5.97741">
        <ele>1477.68</ele>
        <time>2015-10-22T13:36:25Z</time>
      </trkpt>
      <trkpt lat="44.59197" lon="5.97741">
        <ele>1477.68</ele>
        <time>2015-10-22T13:36:50Z</time>
      </trkpt>
      <trkpt lat="44.59196" lon="5.97742">
        <ele>1477.68</ele>
        <time>2015-10-22T13:37:13Z</time>
      </trkpt>
      <trkpt lat="44.59196" lon="5.9774">
        <ele>1477.68</ele>
        <time>2015-10-22T13:37:50Z</time>
      </trkpt>
      <trkpt lat="44.59196" lon="5.97739">
        <ele>1477.68</ele>
        <time>2015-10-22T13:38:19Z</time>
      </trkpt>
      <trkpt lat="44.59196" lon="5.97741">
        <ele>1477.68</ele>
        <time>2015-10-22T13:38:50Z</time>
      </trkpt>
      <trkpt lat="44.59196" lon="5.97739">
        <ele>1478.16</ele>
        <time>2015-10-22T13:39:19Z</time>
      </trkpt>
      <trkpt lat="44.59195" lon="5.97741">
        <ele>1478.65</ele>
        <time>2015-10-22T13:39:51Z</time>
      </trkpt>
      <trkpt lat="44.59195" lon="5.9774">
        <ele>1479.13</ele>
        <time>2015-10-22T13:40:24Z</time>
      </trkpt>
      <trkpt lat="44.59197" lon="5.97739">
        <ele>1479.13</ele>
        <time>2015-10-22T13:40:52Z</time>
      </trkpt>
      <trkpt lat="44.59196" lon="5.97738">
        <ele>1479.13</ele>
        <time>2015-10-22T13:41:13Z</time>
      </trkpt>
      <trkpt lat="44.59199" lon="5.97739">
        <ele>1479.61</ele>
        <time>2015-10-22T13:41:26Z</time>
      </trkpt>
      <trkpt lat="44.59197" lon="5.97732">
        <ele>1479.13</ele>
        <time>2015-10-22T13:41:44Z</time>
      </trkpt>
      <trkpt lat="44.59197" lon="5.97729">
        <ele>1478.65</ele>
        <time>2015-10-22T13:41:47Z</time>
      </trkpt>
      <trkpt lat="44.59191" lon="5.97711">
        <ele>1476.24</ele>
        <time>2015-10-22T13:42:01Z</time>
      </trkpt>
      <trkpt lat="44.59187" lon="5.97692">
        <ele>1473.36</ele>
        <time>2015-10-22T13:42:16Z</time>
      </trkpt>
      <trkpt lat="44.59185" lon="5.97687">
        <ele>1472.4</ele>
        <time>2015-10-22T13:42:20Z</time>
      </trkpt>
      <trkpt lat="44.59188" lon="5.97677">
        <ele>1471.92</ele>
        <time>2015-10-22T13:42:28Z</time>
      </trkpt>
      <trkpt lat="44.59191" lon="5.97671">
        <ele>1471.44</ele>
        <time>2015-10-22T13:42:33Z</time>
      </trkpt>
      <trkpt lat="44.59191" lon="5.97667">
        <ele>1470.95</ele>
        <time>2015-10-22T13:42:36Z</time>
      </trkpt>
      <trkpt lat="44.59189" lon="5.97665">
        <ele>1470.95</ele>
        <time>2015-10-22T13:42:39Z</time>
      </trkpt>
      <trkpt lat="44.59172" lon="5.97659">
        <ele>1468.55</ele>
        <time>2015-10-22T13:42:56Z</time>
      </trkpt>
      <trkpt lat="44.59165" lon="5.97654">
        <ele>1467.59</ele>
        <time>2015-10-22T13:43:10Z</time>
      </trkpt>
      <trkpt lat="44.59162" lon="5.9765">
        <ele>1466.63</ele>
        <time>2015-10-22T13:43:15Z</time>
      </trkpt>
      <trkpt lat="44.59152" lon="5.97633">
        <ele>1463.26</ele>
        <time>2015-10-22T13:43:32Z</time>
      </trkpt>
      <trkpt lat="44.59146" lon="5.97623">
        <ele>1461.34</ele>
        <time>2015-10-22T13:43:42Z</time>
      </trkpt>
      <trkpt lat="44.5914" lon="5.97613">
        <ele>1459.42</ele>
        <time>2015-10-22T13:43:51Z</time>
      </trkpt>
      <trkpt lat="44.5913" lon="5.97595">
        <ele>1457.02</ele>
        <time>2015-10-22T13:44:08Z</time>
      </trkpt>
      <trkpt lat="44.59128" lon="5.97592">
        <ele>1456.53</ele>
        <time>2015-10-22T13:44:10Z</time>
      </trkpt>
      <trkpt lat="44.59126" lon="5.97585">
        <ele>1455.57</ele>
        <time>2015-10-22T13:44:16Z</time>
      </trkpt>
      <trkpt lat="44.59116" lon="5.97569">
        <ele>1453.65</ele>
        <time>2015-10-22T13:44:31Z</time>
      </trkpt>
      <trkpt lat="44.59107" lon="5.97563">
        <ele>1451.73</ele>
        <time>2015-10-22T13:44:40Z</time>
      </trkpt>
      <trkpt lat="44.59094" lon="5.97547">
        <ele>1448.36</ele>
        <time>2015-10-22T13:44:57Z</time>
      </trkpt>
      <trkpt lat="44.59082" lon="5.97533">
        <ele>1446.44</ele>
        <time>2015-10-22T13:45:12Z</time>
      </trkpt>
      <trkpt lat="44.5907" lon="5.97522">
        <ele>1443.08</ele>
        <time>2015-10-22T13:45:26Z</time>
      </trkpt>
      <trkpt lat="44.5906" lon="5.9751">
        <ele>1440.19</ele>
        <time>2015-10-22T13:45:39Z</time>
      </trkpt>
      <trkpt lat="44.5906" lon="5.97509">
        <ele>1440.19</ele>
        <time>2015-10-22T13:45:40Z</time>
      </trkpt>
      <trkpt lat="44.59052" lon="5.97512">
        <ele>1437.79</ele>
        <time>2015-10-22T13:45:48Z</time>
      </trkpt>
      <trkpt lat="44.59048" lon="5.97514">
        <ele>1436.83</ele>
        <time>2015-10-22T13:45:52Z</time>
      </trkpt>
      <trkpt lat="44.59041" lon="5.97523">
        <ele>1433.46</ele>
        <time>2015-10-22T13:46:02Z</time>
      </trkpt>
      <trkpt lat="44.59039" lon="5.97538">
        <ele>1430.1</ele>
        <time>2015-10-22T13:46:13Z</time>
      </trkpt>
      <trkpt lat="44.59034" lon="5.97551">
        <ele>1427.21</ele>
        <time>2015-10-22T13:46:24Z</time>
      </trkpt>
      <trkpt lat="44.59032" lon="5.97554">
        <ele>1426.25</ele>
        <time>2015-10-22T13:46:28Z</time>
      </trkpt>
      <trkpt lat="44.59028" lon="5.97561">
        <ele>1423.85</ele>
        <time>2015-10-22T13:46:35Z</time>
      </trkpt>
      <trkpt lat="44.59021" lon="5.97568">
        <ele>1420.97</ele>
        <time>2015-10-22T13:46:45Z</time>
      </trkpt>
      <trkpt lat="44.59016" lon="5.97573">
        <ele>1418.56</ele>
        <time>2015-10-22T13:46:52Z</time>
      </trkpt>
      <trkpt lat="44.59008" lon="5.97586">
        <ele>1414.72</ele>
        <time>2015-10-22T13:47:03Z</time>
      </trkpt>
      <trkpt lat="44.59002" lon="5.97595">
        <ele>1411.35</ele>
        <time>2015-10-22T13:47:12Z</time>
      </trkpt>
      <trkpt lat="44.58995" lon="5.97608">
        <ele>1408.47</ele>
        <time>2015-10-22T13:47:23Z</time>
      </trkpt>
      <trkpt lat="44.58989" lon="5.97619">
        <ele>1405.1</ele>
        <time>2015-10-22T13:47:33Z</time>
      </trkpt>
      <trkpt lat="44.58981" lon="5.97627">
        <ele>1401.74</ele>
        <time>2015-10-22T13:47:43Z</time>
      </trkpt>
      <trkpt lat="44.58976" lon="5.97631">
        <ele>1399.82</ele>
        <time>2015-10-22T13:47:55Z</time>
      </trkpt>
      <trkpt lat="44.58967" lon="5.97633">
        <ele>1396.45</ele>
        <time>2015-10-22T13:48:03Z</time>
      </trkpt>
      <trkpt lat="44.58958" lon="5.97634">
        <ele>1393.09</ele>
        <time>2015-10-22T13:48:12Z</time>
      </trkpt>
      <trkpt lat="44.58949" lon="5.97638">
        <ele>1389.72</ele>
        <time>2015-10-22T13:48:21Z</time>
      </trkpt>
      <trkpt lat="44.5894" lon="5.97642">
        <ele>1386.84</ele>
        <time>2015-10-22T13:48:30Z</time>
      </trkpt>
      <trkpt lat="44.58932" lon="5.97646">
        <ele>1383.47</ele>
        <time>2015-10-22T13:48:39Z</time>
      </trkpt>
      <trkpt lat="44.58924" lon="5.97649">
        <ele>1380.11</ele>
        <time>2015-10-22T13:48:48Z</time>
      </trkpt>
      <trkpt lat="44.58915" lon="5.97652">
        <ele>1377.23</ele>
        <time>2015-10-22T13:48:57Z</time>
      </trkpt>
      <trkpt lat="44.58906" lon="5.97656">
        <ele>1373.86</ele>
        <time>2015-10-22T13:49:07Z</time>
      </trkpt>
      <trkpt lat="44.58897" lon="5.97657">
        <ele>1370.5</ele>
        <time>2015-10-22T13:49:16Z</time>
      </trkpt>
      <trkpt lat="44.58895" lon="5.97656">
        <ele>1370.02</ele>
        <time>2015-10-22T13:49:17Z</time>
      </trkpt>
      <trkpt lat="44.58884" lon="5.97657">
        <ele>1366.65</ele>
        <time>2015-10-22T13:49:27Z</time>
      </trkpt>
      <trkpt lat="44.58876" lon="5.9766">
        <ele>1363.77</ele>
        <time>2015-10-22T13:49:36Z</time>
      </trkpt>
      <trkpt lat="44.58865" lon="5.97662">
        <ele>1360.88</ele>
        <time>2015-10-22T13:49:46Z</time>
      </trkpt>
      <trkpt lat="44.58855" lon="5.97666">
        <ele>1357.52</ele>
        <time>2015-10-22T13:49:55Z</time>
      </trkpt>
      <trkpt lat="44.58846" lon="5.97672">
        <ele>1354.63</ele>
        <time>2015-10-22T13:50:05Z</time>
      </trkpt>
      <trkpt lat="44.58837" lon="5.97677">
        <ele>1351.27</ele>
        <time>2015-10-22T13:50:13Z</time>
      </trkpt>
      <trkpt lat="44.58828" lon="5.97682">
        <ele>1348.39</ele>
        <time>2015-10-22T13:50:23Z</time>
      </trkpt>
      <trkpt lat="44.58817" lon="5.97686">
        <ele>1345.02</ele>
        <time>2015-10-22T13:50:35Z</time>
      </trkpt>
      <trkpt lat="44.58815" lon="5.97686">
        <ele>1344.54</ele>
        <time>2015-10-22T13:50:37Z</time>
      </trkpt>
      <trkpt lat="44.58805" lon="5.9769">
        <ele>1341.18</ele>
        <time>2015-10-22T13:50:46Z</time>
      </trkpt>
      <trkpt lat="44.58795" lon="5.97695">
        <ele>1338.29</ele>
        <time>2015-10-22T13:50:55Z</time>
      </trkpt>
      <trkpt lat="44.58785" lon="5.977">
        <ele>1334.93</ele>
        <time>2015-10-22T13:51:06Z</time>
      </trkpt>
      <trkpt lat="44.58783" lon="5.97702">
        <ele>1333.97</ele>
        <time>2015-10-22T13:51:08Z</time>
      </trkpt>
      <trkpt lat="44.58774" lon="5.97709">
        <ele>1331.08</ele>
        <time>2015-10-22T13:51:19Z</time>
      </trkpt>
      <trkpt lat="44.58762" lon="5.97718">
        <ele>1327.72</ele>
        <time>2015-10-22T13:51:31Z</time>
      </trkpt>
      <trkpt lat="44.58752" lon="5.97725">
        <ele>1324.83</ele>
        <time>2015-10-22T13:51:42Z</time>
      </trkpt>
      <trkpt lat="44.58743" lon="5.9773">
        <ele>1321.95</ele>
        <time>2015-10-22T13:51:52Z</time>
      </trkpt>
      <trkpt lat="44.58731" lon="5.97735">
        <ele>1319.07</ele>
        <time>2015-10-22T13:52:04Z</time>
      </trkpt>
      <trkpt lat="44.5872" lon="5.97738">
        <ele>1315.7</ele>
        <time>2015-10-22T13:52:14Z</time>
      </trkpt>
      <trkpt lat="44.58707" lon="5.97741">
        <ele>1312.82</ele>
        <time>2015-10-22T13:52:26Z</time>
      </trkpt>
      <trkpt lat="44.58696" lon="5.97748">
        <ele>1309.45</ele>
        <time>2015-10-22T13:52:38Z</time>
      </trkpt>
      <trkpt lat="44.58684" lon="5.97751">
        <ele>1306.09</ele>
        <time>2015-10-22T13:52:49Z</time>
      </trkpt>
      <trkpt lat="44.58683" lon="5.97751">
        <ele>1305.61</ele>
        <time>2015-10-22T13:52:51Z</time>
      </trkpt>
      <trkpt lat="44.58668" lon="5.97756">
        <ele>1302.24</ele>
        <time>2015-10-22T13:53:06Z</time>
      </trkpt>
      <trkpt lat="44.58653" lon="5.97759">
        <ele>1299.84</ele>
        <time>2015-10-22T13:53:21Z</time>
      </trkpt>
      <trkpt lat="44.58643" lon="5.97757">
        <ele>1296.96</ele>
        <time>2015-10-22T13:53:32Z</time>
      </trkpt>
      <trkpt lat="44.58627" lon="5.97759">
        <ele>1294.07</ele>
        <time>2015-10-22T13:53:48Z</time>
      </trkpt>
      <trkpt lat="44.58612" lon="5.97765">
        <ele>1290.71</ele>
        <time>2015-10-22T13:54:04Z</time>
      </trkpt>
      <trkpt lat="44.58595" lon="5.97766">
        <ele>1288.3</ele>
        <time>2015-10-22T13:54:20Z</time>
      </trkpt>
      <trkpt lat="44.58581" lon="5.9777">
        <ele>1285.42</ele>
        <time>2015-10-22T13:54:35Z</time>
      </trkpt>
      <trkpt lat="44.5858" lon="5.97772">
        <ele>1284.94</ele>
        <time>2015-10-22T13:54:37Z</time>
      </trkpt>
      <trkpt lat="44.58578" lon="5.97776">
        <ele>1283.5</ele>
        <time>2015-10-22T13:54:41Z</time>
      </trkpt>
      <trkpt lat="44.58575" lon="5.97784">
        <ele>1283.02</ele>
        <time>2015-10-22T13:54:47Z</time>
      </trkpt>
      <trkpt lat="44.58558" lon="5.97793">
        <ele>1279.65</ele>
        <time>2015-10-22T13:55:04Z</time>
      </trkpt>
      <trkpt lat="44.58542" lon="5.97795">
        <ele>1277.25</ele>
        <time>2015-10-22T13:55:21Z</time>
      </trkpt>
      <trkpt lat="44.58528" lon="5.978">
        <ele>1274.36</ele>
        <time>2015-10-22T13:55:37Z</time>
      </trkpt>
      <trkpt lat="44.58513" lon="5.97807">
        <ele>1271</ele>
        <time>2015-10-22T13:55:54Z</time>
      </trkpt>
      <trkpt lat="44.58511" lon="5.97805">
        <ele>1269.56</ele>
        <time>2015-10-22T13:55:58Z</time>
      </trkpt>
      <trkpt lat="44.58497" lon="5.97785">
        <ele>1266.67</ele>
        <time>2015-10-22T13:56:17Z</time>
      </trkpt>
      <trkpt lat="44.5849" lon="5.97768">
        <ele>1264.27</ele>
        <time>2015-10-22T13:56:31Z</time>
      </trkpt>
      <trkpt lat="44.58486" lon="5.9776">
        <ele>1262.83</ele>
        <time>2015-10-22T13:56:38Z</time>
      </trkpt>
      <trkpt lat="44.58471" lon="5.97749">
        <ele>1259.94</ele>
        <time>2015-10-22T13:56:54Z</time>
      </trkpt>
      <trkpt lat="44.58459" lon="5.97741">
        <ele>1257.54</ele>
        <time>2015-10-22T13:57:10Z</time>
      </trkpt>
      <trkpt lat="44.58445" lon="5.97732">
        <ele>1255.14</ele>
        <time>2015-10-22T13:57:26Z</time>
      </trkpt>
      <trkpt lat="44.58438" lon="5.97728">
        <ele>1253.7</ele>
        <time>2015-10-22T13:57:35Z</time>
      </trkpt>
      <trkpt lat="44.58435" lon="5.97728">
        <ele>1253.22</ele>
        <time>2015-10-22T13:57:38Z</time>
      </trkpt>
      <trkpt lat="44.58421" lon="5.9772">
        <ele>1250.33</ele>
        <time>2015-10-22T13:57:54Z</time>
      </trkpt>
      <trkpt lat="44.58408" lon="5.97711">
        <ele>1247.45</ele>
        <time>2015-10-22T13:58:07Z</time>
      </trkpt>
      <trkpt lat="44.58398" lon="5.97701">
        <ele>1245.53</ele>
        <time>2015-10-22T13:58:20Z</time>
      </trkpt>
      <trkpt lat="44.58397" lon="5.97696">
        <ele>1244.08</ele>
        <time>2015-10-22T13:58:24Z</time>
      </trkpt>
      <trkpt lat="44.58388" lon="5.97686">
        <ele>1241.68</ele>
        <time>2015-10-22T13:58:36Z</time>
      </trkpt>
      <trkpt lat="44.58369" lon="5.97685">
        <ele>1238.32</ele>
        <time>2015-10-22T13:58:53Z</time>
      </trkpt>
      <trkpt lat="44.58354" lon="5.97685">
        <ele>1234.95</ele>
        <time>2015-10-22T13:59:07Z</time>
      </trkpt>
      <trkpt lat="44.58343" lon="5.97686">
        <ele>1232.07</ele>
        <time>2015-10-22T13:59:18Z</time>
      </trkpt>
      <trkpt lat="44.58334" lon="5.97685">
        <ele>1230.14</ele>
        <time>2015-10-22T13:59:26Z</time>
      </trkpt>
      <trkpt lat="44.58318" lon="5.97683">
        <ele>1226.3</ele>
        <time>2015-10-22T13:59:41Z</time>
      </trkpt>
      <trkpt lat="44.58304" lon="5.97682">
        <ele>1223.42</ele>
        <time>2015-10-22T13:59:55Z</time>
      </trkpt>
      <trkpt lat="44.583" lon="5.97682">
        <ele>1222.45</ele>
        <time>2015-10-22T14:00:00Z</time>
      </trkpt>
      <trkpt lat="44.58287" lon="5.97687">
        <ele>1219.57</ele>
        <time>2015-10-22T14:00:15Z</time>
      </trkpt>
      <trkpt lat="44.58278" lon="5.97688">
        <ele>1217.17</ele>
        <time>2015-10-22T14:00:26Z</time>
      </trkpt>
      <trkpt lat="44.58263" lon="5.97692">
        <ele>1214.28</ele>
        <time>2015-10-22T14:00:42Z</time>
      </trkpt>
      <trkpt lat="44.58255" lon="5.97695">
        <ele>1212.36</ele>
        <time>2015-10-22T14:00:50Z</time>
      </trkpt>
      <trkpt lat="44.58238" lon="5.97695">
        <ele>1209.48</ele>
        <time>2015-10-22T14:01:06Z</time>
      </trkpt>
      <trkpt lat="44.58221" lon="5.97695">
        <ele>1206.11</ele>
        <time>2015-10-22T14:01:22Z</time>
      </trkpt>
      <trkpt lat="44.58207" lon="5.97696">
        <ele>1202.75</ele>
        <time>2015-10-22T14:01:37Z</time>
      </trkpt>
      <trkpt lat="44.5819" lon="5.97697">
        <ele>1200.34</ele>
        <time>2015-10-22T14:01:54Z</time>
      </trkpt>
      <trkpt lat="44.58174" lon="5.97699">
        <ele>1197.46</ele>
        <time>2015-10-22T14:02:10Z</time>
      </trkpt>
      <trkpt lat="44.58158" lon="5.97701">
        <ele>1195.06</ele>
        <time>2015-10-22T14:02:26Z</time>
      </trkpt>
      <trkpt lat="44.58142" lon="5.97704">
        <ele>1192.65</ele>
        <time>2015-10-22T14:02:43Z</time>
      </trkpt>
      <trkpt lat="44.58128" lon="5.97708">
        <ele>1190.73</ele>
        <time>2015-10-22T14:02:58Z</time>
      </trkpt>
      <trkpt lat="44.58122" lon="5.9771">
        <ele>1189.77</ele>
        <time>2015-10-22T14:03:04Z</time>
      </trkpt>
      <trkpt lat="44.58117" lon="5.97709">
        <ele>1189.29</ele>
        <time>2015-10-22T14:03:10Z</time>
      </trkpt>
      <trkpt lat="44.58109" lon="5.9771">
        <ele>1187.85</ele>
        <time>2015-10-22T14:03:22Z</time>
      </trkpt>
      <trkpt lat="44.58102" lon="5.9771">
        <ele>1187.37</ele>
        <time>2015-10-22T14:03:37Z</time>
      </trkpt>
      <trkpt lat="44.5809" lon="5.97711">
        <ele>1185.44</ele>
        <time>2015-10-22T14:03:50Z</time>
      </trkpt>
      <trkpt lat="44.58078" lon="5.97719">
        <ele>1184</ele>
        <time>2015-10-22T14:04:04Z</time>
      </trkpt>
      <trkpt lat="44.58065" lon="5.97733">
        <ele>1181.6</ele>
        <time>2015-10-22T14:04:22Z</time>
      </trkpt>
      <trkpt lat="44.58051" lon="5.97738">
        <ele>1180.16</ele>
        <time>2015-10-22T14:04:36Z</time>
      </trkpt>
      <trkpt lat="44.58043" lon="5.9774">
        <ele>1179.67</ele>
        <time>2015-10-22T14:04:48Z</time>
      </trkpt>
      <trkpt lat="44.58038" lon="5.97741">
        <ele>1178.71</ele>
        <time>2015-10-22T14:04:53Z</time>
      </trkpt>
      <trkpt lat="44.58027" lon="5.97739">
        <ele>1177.27</ele>
        <time>2015-10-22T14:05:04Z</time>
      </trkpt>
      <trkpt lat="44.58016" lon="5.97729">
        <ele>1175.83</ele>
        <time>2015-10-22T14:05:20Z</time>
      </trkpt>
      <trkpt lat="44.58009" lon="5.97721">
        <ele>1175.35</ele>
        <time>2015-10-22T14:05:31Z</time>
      </trkpt>
      <trkpt lat="44.58003" lon="5.97708">
        <ele>1174.39</ele>
        <time>2015-10-22T14:05:46Z</time>
      </trkpt>
      <trkpt lat="44.58004" lon="5.977">
        <ele>1173.91</ele>
        <time>2015-10-22T14:05:59Z</time>
      </trkpt>
      <trkpt lat="44.58005" lon="5.97699">
        <ele>1173.91</ele>
        <time>2015-10-22T14:06:11Z</time>
      </trkpt>
      <trkpt lat="44.58004" lon="5.977">
        <ele>1173.91</ele>
        <time>2015-10-22T14:06:29Z</time>
      </trkpt>
      <trkpt lat="44.58004" lon="5.97701">
        <ele>1173.91</ele>
        <time>2015-10-22T14:06:41Z</time>
      </trkpt>
      <trkpt lat="44.58004" lon="5.97701">
        <ele>1173.43</ele>
        <time>2015-10-22T14:06:55Z</time>
      </trkpt>
      <trkpt lat="44.58003" lon="5.97701">
        <ele>1173.43</ele>
        <time>2015-10-22T14:07:15Z</time>
      </trkpt>
      <trkpt lat="44.58002" lon="5.97696">
        <ele>1173.91</ele>
        <time>2015-10-22T14:07:49Z</time>
      </trkpt>
      <trkpt lat="44.57999" lon="5.97698">
        <ele>1173.43</ele>
        <time>2015-10-22T14:08:24Z</time>
      </trkpt>
      <trkpt lat="44.57999" lon="5.97696">
        <ele>1173.91</ele>
        <time>2015-10-22T14:09:05Z</time>
      </trkpt>
      <trkpt lat="44.58001" lon="5.97698">
        <ele>1173.91</ele>
        <time>2015-10-22T14:09:50Z</time>
      </trkpt>
      <trkpt lat="44.58001" lon="5.97705">
        <ele>1174.39</ele>
        <time>2015-10-22T14:10:18Z</time>
      </trkpt>
      <trkpt lat="44.58002" lon="5.97708">
        <ele>1174.39</ele>
        <time>2015-10-22T14:10:42Z</time>
      </trkpt>
    </trkseg>
  </trk>
</gpx>